Darstellungsparameter: Aktuell verwendete Einstellungen:
Skalierung der Graphiken ... ?
xyx+y,   Skalierungsfaktor:      Skalierung: Modus: x, Faktor: 1
Darstellungszeitraum ... ?
Vom - - bis: - -   Zeitraum: 10.10.2010 - 30.10.2010
Min/Max/Avg-Anzeige ... ?
Zeige MMA aktuell
Zeige MMA Monat
Zeige MMA alles
Zeige --A aktuell
Zeige --A Monat
Zeige --A alles
Keine MMA-Anzeige
MMA:
Minimum Maximum Average (ber die Originaldaten)
MMA-Basis: 10.10.2010 - 30.10.2010
Quicknavigation für Darstellung... ?
Tage:      1T, 2T, 3T, 5T -1T -2T -3T -5T +1T +2T +3T +5T
Wochen: 1W, 2W, 3W -1W -2W -3W +1W +2W +3W
Monate: 1M, 3M, 6M -1M -3M -6M +1M +3M +6M
Jahre:    1J, 3J, 5J, 10J -1J -3J -5J -10J +1J +3J +5J +10J
Nutze für die Darstellung ... ?
Originaldaten oder Mittelwerte auf ...
Stundenbasis Tagesbasis Wochenbasis
Monatsbasis Jahresbasis      Datenbasis: Original-Daten
Darstellen als:
Statistik (Auto) Statistik J:M      Darstellung:
Zur Graphik,    zurück zur Übersicht aller Sensoren.
 
Tabellarische Datenbersicht: ?
 
Sensor: Nr:Datum:Temp:Abs-Feuchte:Windchill:Wind:
Aussen-T/F 1 10-10-2010 00:10:02 9.1 C 6.92 g/m*3 9.1 C 0 km/h
2 10-10-2010 00:22:02 9.1 C 7.01 g/m*3 9.1 C 0 km/h
3 10-10-2010 00:34:02 9 C 6.96 g/m*3 9 C 0 km/h
4 10-10-2010 00:46:02 8.8 C 7.05 g/m*3 8.8 C 0 km/h
5 10-10-2010 00:58:02 8.7 C 7.01 g/m*3 8.7 C 0 km/h
6 10-10-2010 01:10:03 8.5 C 6.92 g/m*3 8.5 C 0 km/h
7 10-10-2010 01:22:03 8.5 C 7 g/m*3 8.5 C 0 km/h
8 10-10-2010 01:34:03 8.4 C 6.96 g/m*3 8.4 C 0 km/h
9 10-10-2010 01:46:03 8.3 C 6.91 g/m*3 8.3 C 0 km/h
10 10-10-2010 01:58:03 8.2 C 6.87 g/m*3 8.2 C 0 km/h
11 10-10-2010 02:10:03 8 C 6.86 g/m*3 8 C 0 km/h
12 10-10-2010 02:22:03 7.9 C 6.9 g/m*3 7.9 C 0 km/h
13 10-10-2010 02:34:03 7.9 C 6.9 g/m*3 7.9 C 0 km/h
14 10-10-2010 02:46:03 7.6 C 6.77 g/m*3 7.6 C 0 km/h
15 10-10-2010 02:58:03 7.4 C 6.68 g/m*3 7.4 C 0 km/h
16 10-10-2010 03:10:03 7.5 C 6.8 g/m*3 7.5 C 0 km/h
17 10-10-2010 03:22:03 7.2 C 6.67 g/m*3 7.2 C 0 km/h
18 10-10-2010 03:34:03 7.1 C 6.63 g/m*3 7.1 C 0 km/h
19 10-10-2010 03:46:03 7 C 6.59 g/m*3 7 C 0 km/h
20 10-10-2010 03:58:03 6.9 C 6.62 g/m*3 6.9 C 0 km/h
21 10-10-2010 04:10:03 7 C 6.59 g/m*3 7 C 0 km/h
22 10-10-2010 04:22:03 6.8 C 6.65 g/m*3 6.8 C 0 km/h
23 10-10-2010 04:34:03 6.7 C 6.61 g/m*3 6.7 C 0 km/h
24 10-10-2010 04:46:03 6.7 C 6.61 g/m*3 6.7 C 0 km/h
25 10-10-2010 04:58:03 6.6 C 6.57 g/m*3 6.6 C 0 km/h
Sensor: Nr:Datum:Temp:Abs-Feuchte:Windchill:Wind:
Aussen-T/F 26 10-10-2010 05:10:03 6.5 C 6.52 g/m*3 6.5 C 0 km/h
27 10-10-2010 05:22:03 6.4 C 6.48 g/m*3 6.4 C 0 km/h
28 10-10-2010 05:34:03 6.2 C 6.4 g/m*3 6.2 C 0 km/h
29 10-10-2010 05:46:04 6.2 C 6.4 g/m*3 6.2 C 0 km/h
30 10-10-2010 05:58:04 6.1 C 6.43 g/m*3 6.1 C 0 km/h
31 10-10-2010 06:10:04 5.9 C 6.35 g/m*3 5.9 C 0 km/h
32 10-10-2010 06:22:04 6 C 6.39 g/m*3 6 C 0 km/h
33 10-10-2010 06:34:04 6 C 6.39 g/m*3 6 C 0 km/h
34 10-10-2010 06:46:04 5.8 C 6.38 g/m*3 5.8 C 0 km/h
35 10-10-2010 06:58:04 5.6 C 6.29 g/m*3 5.6 C 0 km/h
36 10-10-2010 07:10:02 5.5 C 6.25 g/m*3 5.5 C 0 km/h
37 10-10-2010 07:22:03 5.6 C 6.29 g/m*3 5.6 C 0 km/h
38 10-10-2010 07:34:02 5.4 C 6.28 g/m*3 5.4 C 0 km/h
39 10-10-2010 07:46:02 5.4 C 6.28 g/m*3 5.4 C 0 km/h
40 10-10-2010 07:58:02 5.6 C 6.43 g/m*3 5.6 C 0 km/h
41 10-10-2010 08:10:01 6 C 6.53 g/m*3 6 C 0 km/h
42 10-10-2010 08:22:01 6.2 C 6.62 g/m*3 6.2 C 0 km/h
43 10-10-2010 08:34:01 6.4 C 6.71 g/m*3 6.4 C 0 km/h
44 10-10-2010 08:46:01 6.5 C 6.75 g/m*3 6.5 C 0 km/h
45 10-10-2010 08:58:01 6.7 C 6.84 g/m*3 6.7 C 0 km/h
46 10-10-2010 09:10:02 7 C 6.82 g/m*3 7 C 0 km/h
47 10-10-2010 09:22:01 6.9 C 6.85 g/m*3 6.9 C 0 km/h
48 10-10-2010 09:34:01 7.1 C 6.79 g/m*3 7.1 C 0 km/h
49 10-10-2010 09:46:01 7.5 C 6.8 g/m*3 7.5 C 0 km/h
50 10-10-2010 09:58:01 7.8 C 6.69 g/m*3 7.8 C 0 km/h
Sensor: Nr:Datum:Temp:Abs-Feuchte:Windchill:Wind:
Aussen-T/F 51 10-10-2010 10:10:01 8.1 C 6.49 g/m*3 8.1 C 0 km/h
52 10-10-2010 10:22:02 8.4 C 6.45 g/m*3 8.4 C 0 km/h
53 10-10-2010 10:34:01 8.8 C 6.7 g/m*3 8.8 C 0 km/h
54 10-10-2010 10:46:03 9.5 C 6.74 g/m*3 9.5 C 0 km/h
55 10-10-2010 10:58:03 9.8 C 6.59 g/m*3 9.8 C 0 km/h
56 10-10-2010 11:10:02 10.2 C 6.47 g/m*3 10.2 C 0 km/h
57 10-10-2010 11:22:02 10.3 C 6.7 g/m*3 10.3 C 0 km/h
58 10-10-2010 11:34:02 10.8 C 6.72 g/m*3 10.8 C 0 km/h
59 10-10-2010 11:46:02 11.5 C 6.51 g/m*3 11.5 C 0 km/h
60 10-10-2010 11:58:03 11.8 C 6.42 g/m*3 11.8 C 0 km/h
61 10-10-2010 12:10:01 12 C 6.61 g/m*3 12 C 0 km/h
62 10-10-2010 12:22:02 12.3 C 6.73 g/m*3 12.3 C 0 km/h
63 10-10-2010 12:34:02 12.7 C 6.68 g/m*3 12.7 C 0 km/h
64 10-10-2010 12:46:02 13.2 C 6.2 g/m*3 13.2 C 0 km/h
65 10-10-2010 12:58:02 13.8 C 6.08 g/m*3 13.8 C 0 km/h
66 10-10-2010 13:10:03 14.4 C 5.69 g/m*3 14.4 C 0 km/h
67 10-10-2010 13:22:02 15.2 C 5.58 g/m*3 15.2 C 0 km/h
68 10-10-2010 13:34:02 16 C 5.86 g/m*3 16 C 0 km/h
69 10-10-2010 13:46:01 16.5 C 5.76 g/m*3 16.5 C 0 km/h
70 10-10-2010 13:58:01 17.2 C 5.42 g/m*3 17.2 C 0 km/h
71 10-10-2010 14:10:02 17.8 C 5.01 g/m*3 17.8 C 0 km/h
72 10-10-2010 14:22:01 18.3 C 5.16 g/m*3 18.3 C 0 km/h
73 10-10-2010 14:34:01 18.7 C 5.76 g/m*3 18.7 C 0 km/h
74 10-10-2010 14:46:01 19 C 5.7 g/m*3 19 C 0 km/h
75 10-10-2010 14:58:01 19.3 C 5.64 g/m*3 19.3 C 0 km/h
Sensor: Nr:Datum:Temp:Abs-Feuchte:Windchill:Wind:
Aussen-T/F 76 10-10-2010 15:10:01 19.6 C 5.91 g/m*3 19.6 C 0 km/h
77 10-10-2010 15:22:02 20 C 6.05 g/m*3 20 C 0 km/h
78 10-10-2010 15:34:01 20.4 C 6.01 g/m*3 20.4 C 0 km/h
79 10-10-2010 15:46:02 20.9 C 6.37 g/m*3 20.9 C 0 km/h
80 10-10-2010 15:58:02 21.1 C 5.16 g/m*3 21.1 C 0 km/h
81 10-10-2010 16:10:01 21.1 C 5.71 g/m*3 21.1 C 0 km/h
82 10-10-2010 16:22:02 21.4 C 5.81 g/m*3 21.4 C 0 km/h
83 10-10-2010 16:34:01 21.3 C 5.78 g/m*3 21.3 C 0 km/h
84 10-10-2010 16:46:02 21.3 C 5.59 g/m*3 21.3 C 0 km/h
85 10-10-2010 16:58:02 21.3 C 5.59 g/m*3 21.3 C 0 km/h
86 10-10-2010 17:10:02 21.2 C 5.56 g/m*3 21.2 C 0 km/h
87 10-10-2010 17:22:02 21 C 5.86 g/m*3 21 C 0 km/h
88 10-10-2010 17:34:02 20.8 C 5.79 g/m*3 20.8 C 0 km/h
89 10-10-2010 17:46:01 20.4 C 5.48 g/m*3 20.4 C 0 km/h
90 10-10-2010 17:58:01 19.8 C 5.3 g/m*3 19.8 C 0 km/h
91 10-10-2010 18:10:02 19.1 C 5.41 g/m*3 19.1 C 0 km/h
92 10-10-2010 18:22:01 18.3 C 5.32 g/m*3 18.3 C 0 km/h
93 10-10-2010 18:34:02 17.1 C 5.24 g/m*3 17.1 C 0 km/h
94 10-10-2010 18:46:01 16.2 C 5.65 g/m*3 16.2 C 0 km/h
95 10-10-2010 18:58:01 15.3 C 5.48 g/m*3 15.3 C 0 km/h
96 10-10-2010 19:10:02 14.8 C 5.57 g/m*3 14.8 C 0 km/h
97 10-10-2010 19:22:01 14.5 C 5.35 g/m*3 14.5 C 0 km/h
98 10-10-2010 19:34:02 14.2 C 5.62 g/m*3 14.2 C 0 km/h
99 10-10-2010 19:46:01 13.7 C 5.68 g/m*3 13.7 C 0 km/h
100 10-10-2010 19:58:01 13.7 C 5.21 g/m*3 13.7 C 0 km/h
Sensor: Nr:Datum:Temp:Abs-Feuchte:Windchill:Wind:
Aussen-T/F 101 10-10-2010 20:10:02 13.4 C 5.23 g/m*3 13.4 C 0 km/h
102 10-10-2010 20:22:02 13 C 5.22 g/m*3 13 C 0 km/h
103 10-10-2010 20:34:01 13 C 4.99 g/m*3 13 C 0 km/h
104 10-10-2010 20:46:02 12.8 C 4.7 g/m*3 12.8 C 0 km/h
105 10-10-2010 20:58:02 12.9 C 4.4 g/m*3 12.9 C 0 km/h
106 10-10-2010 21:10:01 12.7 C 4.23 g/m*3 12.7 C 0 km/h
107 10-10-2010 21:22:02 12.6 C 4.09 g/m*3 12.6 C 0 km/h
108 10-10-2010 21:34:01 12.5 C 3.85 g/m*3 12.5 C 0 km/h
109 10-10-2010 21:46:02 12.4 C 3.93 g/m*3 12.4 C 0 km/h
110 10-10-2010 21:58:03 12 C 3.94 g/m*3 12 C 0 km/h
111 10-10-2010 22:11:02 11.8 C 3.89 g/m*3 11.8 C 0 km/h
112 10-10-2010 22:23:03 11.6 C 4.16 g/m*3 11.6 C 0 km/h
113 10-10-2010 22:35:03 11.4 C 4.11 g/m*3 11.4 C 0 km/h
114 10-10-2010 22:47:03 11.3 C 4.18 g/m*3 11.3 C 0 km/h
115 10-10-2010 22:59:03 11.2 C 4.26 g/m*3 11.2 C 0 km/h
116 10-10-2010 23:11:03 11.1 C 4.33 g/m*3 11.1 C 0 km/h
117 10-10-2010 23:23:03 10.9 C 4.48 g/m*3 10.9 C 0 km/h
118 10-10-2010 23:35:03 10.7 C 4.52 g/m*3 10.7 C 0 km/h
119 10-10-2010 23:47:03 10.6 C 4.59 g/m*3 10.6 C 0 km/h
120 10-10-2010 23:59:03 10.3 C 4.69 g/m*3 10.3 C 0 km/h
121 11-10-2010 00:11:03 10.2 C 4.85 g/m*3 10.2 C 0 km/h
122 11-10-2010 00:23:03 10 C 4.89 g/m*3 10 C 0 km/h
123 11-10-2010 00:35:03 9.9 C 4.95 g/m*3 9.9 C 0 km/h
124 11-10-2010 00:47:03 10 C 4.79 g/m*3 10 C 0 km/h
125 11-10-2010 00:59:03 9.8 C 4.92 g/m*3 9.8 C 0 km/h
Sensor: Nr:Datum:Temp:Abs-Feuchte:Windchill:Wind:
Aussen-T/F 126 11-10-2010 01:11:03 9.6 C 4.95 g/m*3 9.6 C 0 km/h
127 11-10-2010 01:23:03 9.5 C 4.92 g/m*3 9.5 C 0 km/h
128 11-10-2010 01:35:03 9.4 C 4.88 g/m*3 9.4 C 0 km/h
129 11-10-2010 01:47:03 9.3 C 4.94 g/m*3 9.3 C 0 km/h
130 11-10-2010 01:59:03 9.4 C 4.88 g/m*3 9.4 C 0 km/h
131 11-10-2010 02:11:03 9.4 C 4.79 g/m*3 9.4 C 0 km/h
132 11-10-2010 02:23:03 9.4 C 4.88 g/m*3 9.4 C 0 km/h
133 11-10-2010 02:35:03 9 C 4.85 g/m*3 9 C 0 km/h
134 11-10-2010 02:47:04 8.9 C 4.91 g/m*3 8.9 C 0 km/h
135 11-10-2010 02:59:04 8.7 C 4.93 g/m*3 8.7 C 0 km/h
136 11-10-2010 03:11:04 8.5 C 4.95 g/m*3 8.5 C 0 km/h
137 11-10-2010 03:23:04 8.3 C 4.97 g/m*3 8.3 C 0 km/h
138 11-10-2010 03:35:04 8.2 C 5.02 g/m*3 8.2 C 0 km/h
139 11-10-2010 03:47:04 8.1 C 4.99 g/m*3 8.1 C 0 km/h
140 11-10-2010 03:59:04 8.1 C 4.99 g/m*3 8.1 C 0 km/h
141 11-10-2010 04:11:04 7.7 C 5.03 g/m*3 7.7 C 0 km/h
142 11-10-2010 04:23:04 7.5 C 5.12 g/m*3 7.5 C 0 km/h
143 11-10-2010 04:35:04 7.5 C 5.12 g/m*3 7.5 C 0 km/h
144 11-10-2010 04:47:04 7.6 C 5.16 g/m*3 7.6 C 0 km/h
145 11-10-2010 04:59:04 7.6 C 5.08 g/m*3 7.6 C 0 km/h
146 11-10-2010 05:11:04 7.1 C 5.07 g/m*3 7.1 C 0 km/h
147 11-10-2010 05:23:04 7 C 5.27 g/m*3 7 C 0 km/h
148 11-10-2010 05:35:04 6.6 C 5.28 g/m*3 6.6 C 0 km/h
149 11-10-2010 05:47:04 6.3 C 5.26 g/m*3 6.3 C 0 km/h
150 11-10-2010 05:59:04 6.2 C 5.29 g/m*3 6.2 C 0 km/h
Sensor: Nr:Datum:Temp:Abs-Feuchte:Windchill:Wind:
Aussen-T/F 151 11-10-2010 06:11:04 6 C 5.23 g/m*3 6 C 0 km/h
152 11-10-2010 06:23:04 5.8 C 5.23 g/m*3 5.8 C 0 km/h
153 11-10-2010 06:35:04 5.7 C 5.34 g/m*3 5.7 C 0 km/h
154 11-10-2010 06:47:04 5.6 C 5.37 g/m*3 5.6 C 0 km/h
155 11-10-2010 06:59:05 5.5 C 5.41 g/m*3 5.5 C 0 km/h
156 11-10-2010 07:11:02 5.4 C 5.37 g/m*3 5.4 C 0 km/h
157 11-10-2010 07:23:02 5.3 C 5.41 g/m*3 5.3 C 0 km/h
158 11-10-2010 07:35:03 5.3 C 5.41 g/m*3 5.3 C 0 km/h
159 11-10-2010 07:47:02 5.1 C 5.34 g/m*3 5.1 C 0 km/h
160 11-10-2010 07:59:02 5 C 5.3 g/m*3 5 C 0 km/h
161 11-10-2010 08:11:02 4.9 C 5.33 g/m*3 4.9 C 0 km/h
162 11-10-2010 08:23:02 4.9 C 5.4 g/m*3 4.9 C 0 km/h
163 11-10-2010 08:35:02 5 C 5.37 g/m*3 5 C 0 km/h
164 11-10-2010 08:47:02 5 C 5.44 g/m*3 5 C 0 km/h
165 11-10-2010 08:59:02 5 C 5.44 g/m*3 5 C 0 km/h
166 11-10-2010 09:11:02 5.3 C 5.61 g/m*3 5.3 C 0 km/h
167 11-10-2010 09:23:02 5.4 C 5.65 g/m*3 5.4 C 0 km/h
168 11-10-2010 09:35:02 5.6 C 5.73 g/m*3 5.6 C 0 km/h
169 11-10-2010 09:47:01 5.8 C 5.73 g/m*3 5.8 C 0 km/h
170 11-10-2010 09:59:01 5.9 C 5.77 g/m*3 5.9 C 0 km/h
171 11-10-2010 10:11:01 6.1 C 5.77 g/m*3 6.1 C 0 km/h
172 11-10-2010 10:23:01 6.5 C 6 g/m*3 6.5 C 0 km/h
173 11-10-2010 10:35:01 7.1 C 6.16 g/m*3 7.1 C 0 km/h
174 11-10-2010 10:47:02 7.7 C 6.32 g/m*3 7.7 C 0 km/h
175 11-10-2010 10:59:02 8.2 C 6.28 g/m*3 8.2 C 0 km/h
Sensor: Nr:Datum:Temp:Abs-Feuchte:Windchill:Wind:
Aussen-T/F 176 11-10-2010 11:11:02 8.7 C 6.31 g/m*3 8.7 C 0 km/h
177 11-10-2010 11:23:03 9 C 6.26 g/m*3 9 C 0 km/h
178 11-10-2010 11:35:02 9.4 C 6.33 g/m*3 9.4 C 0 km/h
179 11-10-2010 11:47:01 9.9 C 6.44 g/m*3 9.9 C 0 km/h
180 11-10-2010 11:59:01 10.3 C 6.42 g/m*3 10.3 C 0 km/h
181 11-10-2010 12:11:02 10.7 C 6.38 g/m*3 10.7 C 0 km/h
182 11-10-2010 12:23:01 11.3 C 6.43 g/m*3 11.3 C 0 km/h
183 11-10-2010 12:35:01 11.6 C 6.44 g/m*3 11.6 C 0 km/h
184 11-10-2010 12:47:01 12 C 6.39 g/m*3 12 C 0 km/h
185 11-10-2010 12:59:01 12.5 C 6.6 g/m*3 12.5 C 0 km/h
186 11-10-2010 13:11:01 13.8 C 6.2 g/m*3 13.8 C 0 km/h
187 11-10-2010 13:23:02 14.5 C 6.09 g/m*3 14.5 C 0 km/h
188 11-10-2010 13:35:01 14.9 C 5.99 g/m*3 14.9 C 0 km/h
189 11-10-2010 13:47:02 15.4 C 5.65 g/m*3 15.4 C 0 km/h
190 11-10-2010 13:59:02 16 C 5.45 g/m*3 16 C 0 km/h
191 11-10-2010 14:11:02 16.7 C 4.97 g/m*3 16.7 C 0 km/h
192 11-10-2010 14:23:02 17.1 C 5.82 g/m*3 17.1 C 0 km/h
193 11-10-2010 14:35:01 17.4 C 5.48 g/m*3 17.4 C 0 km/h
194 11-10-2010 14:47:01 17.9 C 5.5 g/m*3 17.9 C 0 km/h
195 11-10-2010 14:59:02 18.3 C 5.47 g/m*3 18.3 C 0 km/h
196 11-10-2010 15:11:01 18.8 C 5.31 g/m*3 18.8 C 0 km/h
197 11-10-2010 15:23:01 19.4 C 5.51 g/m*3 19.4 C 0 km/h
198 11-10-2010 15:35:01 19.8 C 5.12 g/m*3 19.8 C 0 km/h
199 11-10-2010 15:47:01 20.3 C 4.57 g/m*3 20.3 C 0 km/h
200 11-10-2010 15:59:01 20.6 C 4.65 g/m*3 20.6 C 0 km/h
Sensor: Nr:Datum:Temp:Abs-Feuchte:Windchill:Wind:
Aussen-T/F 201 11-10-2010 16:11:02 20.8 C 4.71 g/m*3 20.8 C 0 km/h
202 11-10-2010 16:23:01 21.1 C 4.97 g/m*3 21.1 C 0 km/h
203 11-10-2010 16:35:01 21.2 C 4.63 g/m*3 21.2 C 0 km/h
204 11-10-2010 16:47:01 21 C 4.58 g/m*3 21 C 0 km/h
205 11-10-2010 16:59:01 20.7 C 4.14 g/m*3 20.7 C 0 km/h
206 11-10-2010 17:11:02 20.5 C 3.74 g/m*3 20.5 C 0 km/h
207 11-10-2010 17:23:01 20 C 3.63 g/m*3 20 C 0 km/h
208 11-10-2010 17:35:01 19.5 C 3.36 g/m*3 19.5 C 0 km/h
209 11-10-2010 17:47:01 19.1 C 3.44 g/m*3 19.1 C 0 km/h
210 11-10-2010 17:59:01 18.7 C 3.84 g/m*3 18.7 C 0 km/h
211 11-10-2010 18:11:01 18 C 4.45 g/m*3 18 C 0 km/h
212 11-10-2010 18:23:02 16.9 C 4.31 g/m*3 16.9 C 0 km/h
213 11-10-2010 18:35:01 15.7 C 3.88 g/m*3 15.7 C 0 km/h
214 11-10-2010 18:47:03 15.1 C 3.61 g/m*3 15.1 C 0 km/h
215 11-10-2010 18:59:03 14.9 C 3.7 g/m*3 14.9 C 0 km/h
216 11-10-2010 19:11:02 14.4 C 3.71 g/m*3 14.4 C 0 km/h
217 11-10-2010 19:23:02 13.7 C 4.14 g/m*3 13.7 C 0 km/h
218 11-10-2010 19:35:02 13.2 C 4.48 g/m*3 13.2 C 0 km/h
219 11-10-2010 19:47:02 12.5 C 4.51 g/m*3 12.5 C 0 km/h
220 11-10-2010 19:59:03 12.1 C 4.72 g/m*3 12.1 C 0 km/h
221 11-10-2010 20:11:02 11.9 C 4.77 g/m*3 11.9 C 0 km/h
222 11-10-2010 20:23:02 11.8 C 4.84 g/m*3 11.8 C 0 km/h
223 11-10-2010 20:35:02 11.3 C 4.79 g/m*3 11.3 C 0 km/h
224 11-10-2010 20:47:01 11 C 4.7 g/m*3 11 C 0 km/h
225 11-10-2010 20:59:01 10.6 C 4.98 g/m*3 10.6 C 0 km/h
Sensor: Nr:Datum:Temp:Abs-Feuchte:Windchill:Wind:
Aussen-T/F 226 11-10-2010 21:11:02 10.3 C 5.08 g/m*3 10.3 C 0 km/h
227 11-10-2010 21:23:01 10.1 C 4.82 g/m*3 10.1 C 0 km/h
228 11-10-2010 21:35:02 9.9 C 4.95 g/m*3 9.9 C 0 km/h
229 11-10-2010 21:48:03 9.8 C 5.01 g/m*3 9.8 C 0 km/h
230 11-10-2010 22:00:03 9.6 C 4.95 g/m*3 9.6 C 0 km/h
231 11-10-2010 22:12:03 9.4 C 4.88 g/m*3 9.4 C 0 km/h
232 11-10-2010 22:24:03 9.3 C 4.76 g/m*3 9.3 C 0 km/h
233 11-10-2010 22:36:03 8.9 C 4.82 g/m*3 8.9 C 0 km/h
234 11-10-2010 22:48:03 8.8 C 4.79 g/m*3 8.8 C 0 km/h
235 11-10-2010 23:00:03 8.7 C 5.02 g/m*3 8.7 C 0 km/h
236 11-10-2010 23:12:04 8.4 C 4.84 g/m*3 8.4 C 0 km/h
237 11-10-2010 23:24:04 8.2 C 4.86 g/m*3 8.2 C 0 km/h
238 11-10-2010 23:36:04 8.1 C 4.83 g/m*3 8.1 C 0 km/h
239 11-10-2010 23:48:04 7.8 C 4.82 g/m*3 7.8 C 0 km/h
240 12-10-2010 00:00:04 7.4 C 4.93 g/m*3 7.4 C 0 km/h
241 12-10-2010 00:12:04 7.3 C 4.98 g/m*3 7.3 C 0 km/h
242 12-10-2010 00:24:04 7.2 C 4.95 g/m*3 7.2 C 0 km/h
243 12-10-2010 00:36:04 7.1 C 5.07 g/m*3 7.1 C 0 km/h
244 12-10-2010 00:48:04 6.8 C 5.12 g/m*3 6.8 C 0 km/h
245 12-10-2010 01:00:04 6.7 C 5.09 g/m*3 6.7 C 0 km/h
246 12-10-2010 01:12:04 6.5 C 5.1 g/m*3 6.5 C 0 km/h
247 12-10-2010 01:24:04 6.4 C 5.14 g/m*3 6.4 C 0 km/h
248 12-10-2010 01:36:04 6.3 C 5.18 g/m*3 6.3 C 0 km/h
249 12-10-2010 01:48:04 6.1 C 5.11 g/m*3 6.1 C 0 km/h
250 12-10-2010 02:00:04 6 C 5.15 g/m*3 6 C 0 km/h
Sensor: Nr:Datum:Temp:Abs-Feuchte:Windchill:Wind:
Aussen-T/F 251 12-10-2010 02:12:04 5.8 C 5.23 g/m*3 5.8 C 0 km/h
252 12-10-2010 02:24:04 5.8 C 5.3 g/m*3 5.8 C 0 km/h
253 12-10-2010 02:36:04 5.6 C 5.23 g/m*3 5.6 C 0 km/h
254 12-10-2010 02:48:04 5.5 C 5.27 g/m*3 5.5 C 0 km/h
255 12-10-2010 03:00:04 5.2 C 5.16 g/m*3 5.2 C 0 km/h
256 12-10-2010 03:12:04 5.3 C 5.41 g/m*3 5.3 C 0 km/h
257 12-10-2010 03:24:05 5.1 C 5.4 g/m*3 5.1 C 0 km/h
258 12-10-2010 03:36:05 4.9 C 5.33 g/m*3 4.9 C 0 km/h
259 12-10-2010 03:48:05 4.7 C 5.26 g/m*3 4.7 C 0 km/h
260 12-10-2010 04:00:05 4.6 C 5.29 g/m*3 4.6 C 0 km/h
261 12-10-2010 04:12:05 4.4 C 5.22 g/m*3 4.4 C 0 km/h
262 12-10-2010 04:24:05 4.5 C 5.39 g/m*3 4.5 C 0 km/h
263 12-10-2010 04:36:05 4.4 C 5.42 g/m*3 4.4 C 0 km/h
264 12-10-2010 04:48:05 4.2 C 5.35 g/m*3 4.2 C 0 km/h
265 12-10-2010 05:00:05 4.1 C 5.38 g/m*3 4.1 C 0 km/h
266 12-10-2010 05:12:05 4 C 5.34 g/m*3 4 C 0 km/h
267 12-10-2010 05:24:05 3.7 C 5.3 g/m*3 3.7 C 0 km/h
268 12-10-2010 05:36:05 3.6 C 5.26 g/m*3 3.6 C 0 km/h
269 12-10-2010 05:48:05 3.6 C 5.26 g/m*3 3.6 C 0 km/h
270 12-10-2010 06:00:05 3.6 C 5.26 g/m*3 3.6 C 0 km/h
271 12-10-2010 06:12:05 3.5 C 5.29 g/m*3 3.5 C 0 km/h
272 12-10-2010 06:24:05 3.4 C 5.25 g/m*3 3.4 C 0 km/h
273 12-10-2010 06:36:05 3.4 C 5.25 g/m*3 3.4 C 0 km/h
274 12-10-2010 06:48:02 3.4 C 5.25 g/m*3 3.4 C 0 km/h
275 12-10-2010 07:00:02 3.2 C 5.18 g/m*3 3.2 C 0 km/h
Sensor: Nr:Datum:Temp:Abs-Feuchte:Windchill:Wind:
Aussen-T/F 276 12-10-2010 07:12:03 3.1 C 5.15 g/m*3 3.1 C 0 km/h
277 12-10-2010 07:24:02 3 C 5.17 g/m*3 3 C 0 km/h
278 12-10-2010 07:36:02 2.8 C 5.16 g/m*3 2.8 C 0 km/h
279 12-10-2010 07:48:01 2.6 C 5.09 g/m*3 2.6 C 0 km/h
280 12-10-2010 08:00:01 2.7 C 5.13 g/m*3 2.7 C 0 km/h
281 12-10-2010 08:12:02 3.2 C 5.36 g/m*3 3.2 C 0 km/h
282 12-10-2010 08:24:02 3.6 C 5.57 g/m*3 3.6 C 0 km/h
283 12-10-2010 08:36:02 4 C 5.72 g/m*3 4 C 0 km/h
284 12-10-2010 08:48:02 4.3 C 5.84 g/m*3 4.3 C 0 km/h
285 12-10-2010 09:00:02 4.5 C 5.85 g/m*3 4.5 C 0 km/h
286 12-10-2010 09:12:02 4.7 C 5.93 g/m*3 4.7 C 0 km/h
287 12-10-2010 09:24:02 4.8 C 5.9 g/m*3 4.8 C 0 km/h
288 12-10-2010 09:36:02 5.2 C 5.99 g/m*3 5.2 C 0 km/h
289 12-10-2010 09:48:02 5.3 C 5.96 g/m*3 5.3 C 0 km/h
290 12-10-2010 10:00:02 5.3 C 5.89 g/m*3 5.3 C 0 km/h
291 12-10-2010 10:12:02 5.6 C 6.01 g/m*3 5.6 C 0 km/h
292 12-10-2010 10:24:02 5.7 C 6.05 g/m*3 5.7 C 0 km/h
293 12-10-2010 10:36:02 6 C 6.1 g/m*3 6 C 0 km/h
294 12-10-2010 10:48:02 6.5 C 6.3 g/m*3 6.5 C 0 km/h
295 12-10-2010 11:00:02 6.5 C 6.3 g/m*3 6.5 C 0 km/h
296 12-10-2010 11:12:02 6.6 C 6.34 g/m*3 6.6 C 0 km/h
297 12-10-2010 11:24:02 7 C 6.43 g/m*3 7 C 0 km/h
298 12-10-2010 11:36:02 7.7 C 6.41 g/m*3 7.7 C 0 km/h
299 12-10-2010 11:48:02 8 C 6.28 g/m*3 8 C 0 km/h
300 12-10-2010 12:00:02 8.4 C 6.28 g/m*3 8.4 C 0 km/h
Sensor: Nr:Datum:Temp:Abs-Feuchte:Windchill:Wind:
Aussen-T/F 301 12-10-2010 12:12:02 9 C 6.17 g/m*3 9 C 0 km/h
302 12-10-2010 12:24:02 9.6 C 6.14 g/m*3 9.6 C 0 km/h
303 12-10-2010 12:36:02 10.2 C 6.09 g/m*3 10.2 C 0 km/h
304 12-10-2010 12:48:02 10.6 C 6.15 g/m*3 10.6 C 0 km/h
305 12-10-2010 13:00:02 11.5 C 5.78 g/m*3 11.5 C 0 km/h
306 12-10-2010 13:12:01 12.2 C 5.5 g/m*3 12.2 C 0 km/h
307 12-10-2010 13:24:02 12.7 C 5.79 g/m*3 12.7 C 0 km/h
308 12-10-2010 13:36:02 13 C 5.78 g/m*3 13 C 0 km/h
309 12-10-2010 13:48:02 13.5 C 5.73 g/m*3 13.5 C 0 km/h
310 12-10-2010 14:00:02 14.1 C 5.83 g/m*3 14.1 C 0 km/h
311 12-10-2010 14:12:03 15 C 5.39 g/m*3 15 C 0 km/h
312 12-10-2010 14:24:02 15.4 C 5.65 g/m*3 15.4 C 0 km/h
313 12-10-2010 14:36:02 15.6 C 5.72 g/m*3 15.6 C 0 km/h
314 12-10-2010 14:48:01 16.2 C 5.65 g/m*3 16.2 C 0 km/h
315 12-10-2010 15:00:01 16.4 C 5.58 g/m*3 16.4 C 0 km/h
316 12-10-2010 15:12:02 17 C 5.5 g/m*3 17 C 0 km/h
317 12-10-2010 15:24:01 16.8 C 5.29 g/m*3 16.8 C 0 km/h
318 12-10-2010 15:36:01 17.2 C 5.42 g/m*3 17.2 C 0 km/h
319 12-10-2010 15:48:01 17.3 C 5.3 g/m*3 17.3 C 0 km/h
320 12-10-2010 16:00:01 17.5 C 5.52 g/m*3 17.5 C 0 km/h
321 12-10-2010 16:12:02 17.8 C 5.31 g/m*3 17.8 C 0 km/h
322 12-10-2010 16:24:02 17.4 C 5.48 g/m*3 17.4 C 0 km/h
323 12-10-2010 16:36:01 17.7 C 5.43 g/m*3 17.7 C 0 km/h
324 12-10-2010 16:48:02 17.9 C 5.34 g/m*3 17.9 C 0 km/h
325 12-10-2010 17:00:02 17.9 C 4.89 g/m*3 17.9 C 0 km/h
Sensor: Nr:Datum:Temp:Abs-Feuchte:Windchill:Wind:
Aussen-T/F 326 12-10-2010 17:12:01 17.8 C 4.86 g/m*3 17.8 C 0 km/h
327 12-10-2010 17:24:02 17.4 C 4.45 g/m*3 17.4 C 0 km/h
328 12-10-2010 17:36:01 16.6 C 4.24 g/m*3 16.6 C 0 km/h
329 12-10-2010 17:48:02 16.4 C 4.47 g/m*3 16.4 C 0 km/h
330 12-10-2010 18:00:02 16 C 4.9 g/m*3 16 C 0 km/h
331 12-10-2010 18:12:02 15.4 C 5.39 g/m*3 15.4 C 0 km/h
332 12-10-2010 18:24:02 14.4 C 5.69 g/m*3 14.4 C 0 km/h
333 12-10-2010 18:36:03 13.7 C 5.92 g/m*3 13.7 C 0 km/h
334 12-10-2010 18:48:02 13 C 6.12 g/m*3 13 C 0 km/h
335 12-10-2010 19:00:02 12.3 C 6.3 g/m*3 12.3 C 0 km/h
336 12-10-2010 19:12:02 11.8 C 6.42 g/m*3 11.8 C 0 km/h
337 12-10-2010 19:24:02 11.3 C 6.43 g/m*3 11.3 C 0 km/h
338 12-10-2010 19:36:02 10.9 C 6.56 g/m*3 10.9 C 0 km/h
339 12-10-2010 19:48:02 10.8 C 6.52 g/m*3 10.8 C 0 km/h
340 12-10-2010 20:00:02 10.4 C 6.46 g/m*3 10.4 C 0 km/h
341 12-10-2010 20:12:01 10.1 C 6.43 g/m*3 10.1 C 0 km/h
342 12-10-2010 20:24:02 9.9 C 6.54 g/m*3 9.9 C 0 km/h
343 12-10-2010 20:36:01 9.5 C 6.46 g/m*3 9.5 C 0 km/h
344 12-10-2010 20:48:02 9.3 C 6.47 g/m*3 9.3 C 0 km/h
345 12-10-2010 21:00:02 8.9 C 6.39 g/m*3 8.9 C 0 km/h
346 12-10-2010 21:12:02 8.6 C 6.27 g/m*3 8.6 C 0 km/h
347 12-10-2010 21:24:02 8.3 C 6.24 g/m*3 8.3 C 0 km/h
348 12-10-2010 21:36:02 8.1 C 6.16 g/m*3 8.1 C 0 km/h
349 12-10-2010 21:48:02 7.9 C 6.24 g/m*3 7.9 C 0 km/h
350 12-10-2010 22:00:02 7.7 C 6.16 g/m*3 7.7 C 0 km/h
Sensor: Nr:Datum:Temp:Abs-Feuchte:Windchill:Wind:
Aussen-T/F 351 12-10-2010 22:12:01 7.5 C 6.08 g/m*3 7.5 C 0 km/h
352 12-10-2010 22:25:03 7.6 C 6.2 g/m*3 7.6 C 0 km/h
353 12-10-2010 22:37:03 7.9 C 6.24 g/m*3 7.9 C 0 km/h
354 12-10-2010 22:49:03 8 C 6.04 g/m*3 8 C 0 km/h
355 12-10-2010 23:01:03 7.9 C 6 g/m*3 7.9 C 0 km/h
356 12-10-2010 23:13:03 7.7 C 5.92 g/m*3 7.7 C 0 km/h
357 12-10-2010 23:25:03 7.8 C 6.04 g/m*3 7.8 C 0 km/h
358 12-10-2010 23:37:03 7.8 C 6.04 g/m*3 7.8 C 0 km/h
359 12-10-2010 23:49:03 7.7 C 6 g/m*3 7.7 C 0 km/h
360 13-10-2010 00:01:03 7.7 C 5.92 g/m*3 7.7 C 0 km/h
361 13-10-2010 00:13:03 7.7 C 5.92 g/m*3 7.7 C 0 km/h
362 13-10-2010 00:25:03 7.9 C 5.91 g/m*3 7.9 C 0 km/h
363 13-10-2010 00:37:03 7.4 C 5.81 g/m*3 7.4 C 0 km/h
364 13-10-2010 00:49:03 7.3 C 5.77 g/m*3 7.3 C 0 km/h
365 13-10-2010 01:01:03 7.3 C 5.85 g/m*3 7.3 C 0 km/h
366 13-10-2010 01:13:03 7.3 C 5.85 g/m*3 7.3 C 0 km/h
367 13-10-2010 01:25:04 7 C 5.73 g/m*3 7 C 0 km/h
368 13-10-2010 01:37:04 6.8 C 5.81 g/m*3 6.8 C 0 km/h
369 13-10-2010 01:49:04 6.7 C 5.85 g/m*3 6.7 C 0 km/h
370 13-10-2010 02:01:04 6.9 C 5.93 g/m*3 6.9 C 0 km/h
371 13-10-2010 02:13:04 6.9 C 5.85 g/m*3 6.9 C 0 km/h
372 13-10-2010 02:25:04 6.8 C 5.81 g/m*3 6.8 C 0 km/h
373 13-10-2010 02:37:04 6.9 C 5.85 g/m*3 6.9 C 0 km/h
374 13-10-2010 02:49:04 6.5 C 5.7 g/m*3 6.5 C 0 km/h
375 13-10-2010 03:01:04 6.4 C 5.74 g/m*3 6.4 C 0 km/h
Sensor: Nr:Datum:Temp:Abs-Feuchte:Windchill:Wind:
Aussen-T/F 376 13-10-2010 03:13:04 6.4 C 5.74 g/m*3 6.4 C 0 km/h
377 13-10-2010 03:25:04 6.5 C 5.7 g/m*3 6.5 C 0 km/h
378 13-10-2010 03:37:04 6.5 C 5.7 g/m*3 6.5 C 0 km/h
379 13-10-2010 03:49:04 6.4 C 5.59 g/m*3 6.4 C 0 km/h
380 13-10-2010 04:01:04 6.2 C 5.52 g/m*3 6.2 C 0 km/h
381 13-10-2010 04:13:04 6.1 C 5.55 g/m*3 6.1 C 0 km/h
382 13-10-2010 04:25:04 6.2 C 5.66 g/m*3 6.2 C 0 km/h
383 13-10-2010 04:37:04 6.2 C 5.59 g/m*3 6.2 C 0 km/h
384 13-10-2010 04:49:04 6.3 C 5.63 g/m*3 6.3 C 0 km/h
385 13-10-2010 05:01:04 6.3 C 5.63 g/m*3 6.3 C 0 km/h
386 13-10-2010 05:13:04 6.2 C 5.59 g/m*3 6.2 C 0 km/h
387 13-10-2010 05:25:04 6.1 C 5.55 g/m*3 6.1 C 0 km/h
388 13-10-2010 05:37:05 6 C 5.59 g/m*3 6 C 0 km/h
389 13-10-2010 05:49:05 5.9 C 5.62 g/m*3 5.9 C 0 km/h
390 13-10-2010 06:01:05 6 C 5.66 g/m*3 6 C 0 km/h
391 13-10-2010 06:13:05 6 C 5.59 g/m*3 6 C 0 km/h
392 13-10-2010 06:25:05 5.8 C 5.59 g/m*3 5.8 C 0 km/h
393 13-10-2010 06:37:05 5.8 C 5.59 g/m*3 5.8 C 0 km/h
394 13-10-2010 06:49:02 5.6 C 5.59 g/m*3 5.6 C 0 km/h
395 13-10-2010 07:01:02 5.5 C 5.55 g/m*3 5.5 C 0 km/h
396 13-10-2010 07:13:02 5.4 C 5.51 g/m*3 5.4 C 0 km/h
397 13-10-2010 07:25:02 5.2 C 5.44 g/m*3 5.2 C 0 km/h
398 13-10-2010 07:37:02 5.4 C 5.58 g/m*3 5.4 C 0 km/h
399 13-10-2010 07:49:01 5.6 C 5.59 g/m*3 5.6 C 0 km/h
400 13-10-2010 08:01:02 5.7 C 5.55 g/m*3 5.7 C 0 km/h
Sensor: Nr:Datum:Temp:Abs-Feuchte:Windchill:Wind:
Aussen-T/F 401 13-10-2010 08:13:02 5.6 C 5.51 g/m*3 5.6 C 0 km/h
402 13-10-2010 08:25:02 5.6 C 5.51 g/m*3 5.6 C 0 km/h
403 13-10-2010 08:37:01 5.6 C 5.44 g/m*3 5.6 C 0 km/h
404 13-10-2010 08:49:02 5.6 C 5.44 g/m*3 5.6 C 0 km/h
405 13-10-2010 09:01:02 5.7 C 5.48 g/m*3 5.7 C 0 km/h
406 13-10-2010 09:13:02 5.7 C 5.48 g/m*3 5.7 C 0 km/h
407 13-10-2010 09:25:02 5.8 C 5.44 g/m*3 5.8 C 0 km/h
408 13-10-2010 09:37:03 6 C 5.44 g/m*3 6 C 0 km/h
409 13-10-2010 09:49:02 6.1 C 5.41 g/m*3 6.1 C 0 km/h
410 13-10-2010 10:01:02 6.4 C 5.44 g/m*3 6.4 C 0 km/h
411 13-10-2010 10:13:02 6.6 C 5.36 g/m*3 6.6 C 0 km/h
412 13-10-2010 10:25:01 6.7 C 5.32 g/m*3 6.7 C 0 km/h
413 13-10-2010 10:37:02 6.8 C 5.2 g/m*3 6.8 C 0 km/h
414 13-10-2010 10:49:02 6.8 C 5.2 g/m*3 6.8 C 0 km/h
415 13-10-2010 11:01:02 7 C 5.11 g/m*3 7 C 0 km/h
416 13-10-2010 11:13:02 7 C 5.04 g/m*3 7 C 0 km/h
417 13-10-2010 11:25:02 6.8 C 5.05 g/m*3 6.8 C 0 km/h
418 13-10-2010 11:37:02 7.1 C 5.15 g/m*3 7.1 C 0 km/h
419 13-10-2010 11:49:02 7.3 C 5.06 g/m*3 7.3 C 0 km/h
420 13-10-2010 12:01:02 7.7 C 5.11 g/m*3 7.7 C 0 km/h
421 13-10-2010 12:13:02 7.9 C 5.01 g/m*3 7.9 C 0 km/h
422 13-10-2010 12:25:02 8 C 5.04 g/m*3 8 C 0 km/h
423 13-10-2010 12:37:02 8.4 C 5.01 g/m*3 8.4 C 0 km/h
424 13-10-2010 12:49:02 8.7 C 5.1 g/m*3 8.7 C 0 km/h
425 13-10-2010 13:01:02 9 C 4.94 g/m*3 9 C 0 km/h
Sensor: Nr:Datum:Temp:Abs-Feuchte:Windchill:Wind:
Aussen-T/F 426 13-10-2010 13:13:02 8.8 C 4.87 g/m*3 8.8 C 0 km/h
427 13-10-2010 13:25:02 9 C 4.94 g/m*3 9 C 0 km/h
428 13-10-2010 13:37:02 8.5 C 4.87 g/m*3 8.5 C 0 km/h
429 13-10-2010 13:49:02 8.7 C 4.84 g/m*3 8.7 C 0 km/h
430 13-10-2010 14:01:02 9.6 C 5.13 g/m*3 9.6 C 0 km/h
431 13-10-2010 14:13:02 9.4 C 4.79 g/m*3 9.4 C 0 km/h
432 13-10-2010 14:25:02 9.6 C 4.86 g/m*3 9.6 C 0 km/h
433 13-10-2010 14:37:01 9.7 C 4.98 g/m*3 9.7 C 0 km/h
434 13-10-2010 14:49:02 10.7 C 5.01 g/m*3 10.7 C 0 km/h
435 13-10-2010 15:01:01 11.3 C 5 g/m*3 11.3 C 0 km/h
436 13-10-2010 15:13:01 11.2 C 4.87 g/m*3 11.2 C 0 km/h
437 13-10-2010 15:25:01 11.9 C 5.08 g/m*3 11.9 C 0 km/h
438 13-10-2010 15:37:02 12 C 4.8 g/m*3 12 C 0 km/h
439 13-10-2010 15:49:02 12.5 C 4.95 g/m*3 12.5 C 0 km/h
440 13-10-2010 16:01:02 12.1 C 4.93 g/m*3 12.1 C 0 km/h
441 13-10-2010 16:13:02 11.9 C 4.98 g/m*3 11.9 C 0 km/h
442 13-10-2010 16:25:01 12.1 C 4.93 g/m*3 12.1 C 0 km/h
443 13-10-2010 16:37:02 11.8 C 5.05 g/m*3 11.8 C 0 km/h
444 13-10-2010 16:49:02 12.4 C 5.14 g/m*3 12.4 C 0 km/h
445 13-10-2010 17:01:02 12.3 C 4.99 g/m*3 12.3 C 0 km/h
446 13-10-2010 17:13:02 12.2 C 5.07 g/m*3 12.2 C 0 km/h
447 13-10-2010 17:25:01 12.5 C 5.39 g/m*3 12.5 C 0 km/h
448 13-10-2010 17:37:02 12.5 C 5.28 g/m*3 12.5 C 0 km/h
449 13-10-2010 17:49:01 12.2 C 5.4 g/m*3 12.2 C 0 km/h
450 13-10-2010 18:01:02 11.6 C 5.4 g/m*3 11.6 C 0 km/h
Sensor: Nr:Datum:Temp:Abs-Feuchte:Windchill:Wind:
Aussen-T/F 451 13-10-2010 18:13:02 10.9 C 5.47 g/m*3 10.9 C 0 km/h
452 13-10-2010 18:25:02 9.8 C 5.47 g/m*3 9.8 C 0 km/h
453 13-10-2010 18:37:02 9 C 5.47 g/m*3 9 C 0 km/h
454 13-10-2010 18:49:02 8.4 C 5.6 g/m*3 8.4 C 0 km/h
455 13-10-2010 19:01:01 7.9 C 5.67 g/m*3 7.9 C 0 km/h
456 13-10-2010 19:13:01 7.6 C 5.72 g/m*3 7.6 C 0 km/h
457 13-10-2010 19:25:02 7.4 C 5.73 g/m*3 7.4 C 0 km/h
458 13-10-2010 19:37:01 7.3 C 5.85 g/m*3 7.3 C 0 km/h
459 13-10-2010 19:49:02 7.2 C 5.81 g/m*3 7.2 C 0 km/h
460 13-10-2010 20:01:02 7.3 C 5.85 g/m*3 7.3 C 0 km/h
461 13-10-2010 20:13:02 7 C 5.73 g/m*3 7 C 0 km/h
462 13-10-2010 20:25:02 7 C 5.81 g/m*3 7 C 0 km/h
463 13-10-2010 20:37:03 6.9 C 5.85 g/m*3 6.9 C 0 km/h
464 13-10-2010 20:49:02 6.6 C 5.81 g/m*3 6.6 C 0 km/h
465 13-10-2010 21:01:02 6.3 C 5.77 g/m*3 6.3 C 0 km/h
466 13-10-2010 21:13:02 6 C 5.73 g/m*3 6 C 0 km/h
467 13-10-2010 21:25:01 5.8 C 5.73 g/m*3 5.8 C 0 km/h
468 13-10-2010 21:37:02 5.6 C 5.73 g/m*3 5.6 C 0 km/h
469 13-10-2010 21:49:02 5.4 C 5.65 g/m*3 5.4 C 0 km/h
470 13-10-2010 22:02:03 5.4 C 5.72 g/m*3 5.4 C 0 km/h
471 13-10-2010 22:14:03 5.3 C 5.75 g/m*3 5.3 C 0 km/h
472 13-10-2010 22:26:03 5.2 C 5.71 g/m*3 5.2 C 0 km/h
473 13-10-2010 22:38:03 5.1 C 5.75 g/m*3 5.1 C 0 km/h
474 13-10-2010 22:50:03 4.8 C 5.7 g/m*3 4.8 C 0 km/h
475 13-10-2010 23:02:03 4.7 C 5.66 g/m*3 4.7 C 0 km/h
Sensor: Nr:Datum:Temp:Abs-Feuchte:Windchill:Wind:
Aussen-T/F 476 13-10-2010 23:14:03 4.6 C 5.62 g/m*3 4.6 C 0 km/h
477 13-10-2010 23:26:03 4.6 C 5.62 g/m*3 4.6 C 0 km/h
478 13-10-2010 23:38:03 4.5 C 5.59 g/m*3 4.5 C 0 km/h
479 13-10-2010 23:50:03 4.2 C 5.54 g/m*3 4.2 C 0 km/h
480 14-10-2010 00:02:03 4.1 C 5.5 g/m*3 4.1 C 0 km/h
481 14-10-2010 00:14:03 4.1 C 5.57 g/m*3 4.1 C 0 km/h
482 14-10-2010 00:26:03 3.9 C 5.56 g/m*3 3.9 C 0 km/h
483 14-10-2010 00:38:03 3.7 C 5.48 g/m*3 3.7 C 0 km/h
484 14-10-2010 00:50:03 3.6 C 5.45 g/m*3 3.6 C 0 km/h
485 14-10-2010 01:02:04 3.4 C 5.44 g/m*3 3.4 C 0 km/h
486 14-10-2010 01:14:04 3.4 C 5.44 g/m*3 3.4 C 0 km/h
487 14-10-2010 01:26:04 3.3 C 5.4 g/m*3 3.3 C 0 km/h
488 14-10-2010 01:38:04 3.3 C 5.46 g/m*3 3.3 C 0 km/h
489 14-10-2010 01:50:04 3.5 C 5.6 g/m*3 3.5 C 0 km/h
490 14-10-2010 02:02:04 3.6 C 5.63 g/m*3 3.6 C 0 km/h
491 14-10-2010 02:14:04 3.5 C 5.6 g/m*3 3.5 C 0 km/h
492 14-10-2010 02:26:04 3.6 C 5.63 g/m*3 3.6 C 0 km/h
493 14-10-2010 02:38:04 3.7 C 5.73 g/m*3 3.7 C 0 km/h
494 14-10-2010 02:50:04 3.7 C 5.67 g/m*3 3.7 C 0 km/h
495 14-10-2010 03:02:04 3.6 C 5.63 g/m*3 3.6 C 0 km/h
496 14-10-2010 03:14:04 3.5 C 5.6 g/m*3 3.5 C 0 km/h
497 14-10-2010 03:26:04 3.6 C 5.57 g/m*3 3.6 C 0 km/h
498 14-10-2010 03:38:04 3.5 C 5.53 g/m*3 3.5 C 0 km/h
499 14-10-2010 03:50:04 3.4 C 5.5 g/m*3 3.4 C 0 km/h
500 14-10-2010 04:02:04 3.4 C 5.5 g/m*3 3.4 C 0 km/h
Sensor: Nr:Datum:Temp:Abs-Feuchte:Windchill:Wind:
Aussen-T/F 501 14-10-2010 04:14:04 3.5 C 5.53 g/m*3 3.5 C 0 km/h
502 14-10-2010 04:26:04 3.6 C 5.57 g/m*3 3.6 C 0 km/h
503 14-10-2010 04:38:04 3.6 C 5.57 g/m*3 3.6 C 0 km/h
504 14-10-2010 04:50:04 3.6 C 5.57 g/m*3 3.6 C 0 km/h
505 14-10-2010 05:02:05 3.5 C 5.53 g/m*3 3.5 C 0 km/h
506 14-10-2010 05:14:05 3.6 C 5.63 g/m*3 3.6 C 0 km/h
507 14-10-2010 05:26:05 3.6 C 5.63 g/m*3 3.6 C 0 km/h
508 14-10-2010 05:38:05 3.6 C 5.63 g/m*3 3.6 C 0 km/h
509 14-10-2010 05:50:05 3.8 C 5.71 g/m*3 3.8 C 0 km/h
510 14-10-2010 06:02:05 3.9 C 5.75 g/m*3 3.9 C 0 km/h
511 14-10-2010 06:14:05 3.9 C 5.75 g/m*3 3.9 C 0 km/h
512 14-10-2010 06:26:05 3.9 C 5.68 g/m*3 3.9 C 0 km/h
513 14-10-2010 06:38:05 3.9 C 5.68 g/m*3 3.9 C 0 km/h
514 14-10-2010 06:50:01 4 C 5.66 g/m*3 4 C 0 km/h
515 14-10-2010 07:02:02 4 C 5.66 g/m*3 4 C 0 km/h
516 14-10-2010 07:14:02 4 C 5.72 g/m*3 4 C 0 km/h
517 14-10-2010 07:26:02 4.1 C 5.76 g/m*3 4.1 C 0 km/h
518 14-10-2010 07:38:01 4.2 C 5.8 g/m*3 4.2 C 0 km/h
519 14-10-2010 07:50:02 4.3 C 5.84 g/m*3 4.3 C 0 km/h
520 14-10-2010 08:02:01 4.4 C 5.88 g/m*3 4.4 C 0 km/h
521 14-10-2010 08:14:01 4.5 C 5.85 g/m*3 4.5 C 0 km/h
522 14-10-2010 08:26:01 4.5 C 5.85 g/m*3 4.5 C 0 km/h
523 14-10-2010 08:38:02 4.4 C 5.81 g/m*3 4.4 C 0 km/h
524 14-10-2010 08:50:02 4.4 C 5.81 g/m*3 4.4 C 0 km/h
525 14-10-2010 09:02:02 4.5 C 5.85 g/m*3 4.5 C 0 km/h
Sensor: Nr:Datum:Temp:Abs-Feuchte:Windchill:Wind:
Aussen-T/F 526 14-10-2010 09:14:02 4.4 C 5.81 g/m*3 4.4 C 0 km/h
527 14-10-2010 09:26:02 4.6 C 5.89 g/m*3 4.6 C 0 km/h
528 14-10-2010 09:38:02 4.6 C 5.89 g/m*3 4.6 C 0 km/h
529 14-10-2010 09:50:02 4.7 C 5.86 g/m*3 4.7 C 0 km/h
530 14-10-2010 10:02:02 5 C 5.91 g/m*3 5 C 0 km/h
531 14-10-2010 10:14:02 5 C 5.91 g/m*3 5 C 0 km/h
532 14-10-2010 10:26:02 5 C 5.78 g/m*3 5 C 0 km/h
533 14-10-2010 10:38:02 5.2 C 5.85 g/m*3 5.2 C 0 km/h
534 14-10-2010 10:50:02 5.6 C 5.94 g/m*3 5.6 C 0 km/h
535 14-10-2010 11:02:02 6 C 5.95 g/m*3 6 C 0 km/h
536 14-10-2010 11:14:02 5.9 C 5.77 g/m*3 5.9 C 0 km/h
537 14-10-2010 11:26:02 6.2 C 5.74 g/m*3 6.2 C 0 km/h
538 14-10-2010 11:38:02 6.1 C 5.55 g/m*3 6.1 C 0 km/h
539 14-10-2010 11:50:02 6.8 C 5.74 g/m*3 6.8 C 0 km/h
540 14-10-2010 12:02:02 7 C 5.58 g/m*3 7 C 0 km/h
541 14-10-2010 12:14:02 7.5 C 5.68 g/m*3 7.5 C 0 km/h
542 14-10-2010 12:26:02 8 C 5.62 g/m*3 8 C 0 km/h
543 14-10-2010 12:38:01 8.4 C 5.51 g/m*3 8.4 C 0 km/h
544 14-10-2010 12:50:02 8.4 C 5.51 g/m*3 8.4 C 0 km/h
545 14-10-2010 13:02:01 9.2 C 5.63 g/m*3 9.2 C 0 km/h
546 14-10-2010 13:14:01 8.7 C 5.36 g/m*3 8.7 C 0 km/h
547 14-10-2010 13:26:02 9.4 C 5.61 g/m*3 9.4 C 0 km/h
548 14-10-2010 13:38:02 9.6 C 5.59 g/m*3 9.6 C 0 km/h
549 14-10-2010 13:50:02 9.9 C 5.7 g/m*3 9.9 C 0 km/h
550 14-10-2010 14:02:03 10.8 C 5.83 g/m*3 10.8 C 0 km/h
Sensor: Nr:Datum:Temp:Abs-Feuchte:Windchill:Wind:
Aussen-T/F 551 14-10-2010 14:14:03 11.4 C 5.85 g/m*3 11.4 C 0 km/h
552 14-10-2010 14:26:02 11.9 C 5.82 g/m*3 11.9 C 0 km/h
553 14-10-2010 14:38:02 12.3 C 5.86 g/m*3 12.3 C 0 km/h
554 14-10-2010 14:50:01 12.9 C 5.86 g/m*3 12.9 C 0 km/h
555 14-10-2010 15:02:02 13.1 C 5.71 g/m*3 13.1 C 0 km/h
556 14-10-2010 15:14:02 13.8 C 5.84 g/m*3 13.8 C 0 km/h
557 14-10-2010 15:26:01 14 C 5.67 g/m*3 14 C 0 km/h
558 14-10-2010 15:38:01 14.4 C 5.81 g/m*3 14.4 C 0 km/h
559 14-10-2010 15:50:01 14.4 C 5.56 g/m*3 14.4 C 0 km/h
560 14-10-2010 16:02:02 14.7 C 5.67 g/m*3 14.7 C 0 km/h
561 14-10-2010 16:14:02 14.7 C 5.67 g/m*3 14.7 C 0 km/h
562 14-10-2010 16:26:02 14.4 C 5.81 g/m*3 14.4 C 0 km/h
563 14-10-2010 16:38:01 14 C 6.03 g/m*3 14 C 0 km/h
564 14-10-2010 16:50:02 14.2 C 5.98 g/m*3 14.2 C 0 km/h
565 14-10-2010 17:02:01 13.5 C 5.5 g/m*3 13.5 C 0 km/h
566 14-10-2010 17:14:01 13.4 C 5.46 g/m*3 13.4 C 0 km/h
567 14-10-2010 17:26:02 13.4 C 5.46 g/m*3 13.4 C 0 km/h
568 14-10-2010 17:38:01 13 C 5.33 g/m*3 13 C 0 km/h
569 14-10-2010 17:50:02 12.9 C 5.75 g/m*3 12.9 C 0 km/h
570 14-10-2010 18:02:02 12 C 5.75 g/m*3 12 C 0 km/h
571 14-10-2010 18:14:02 11.6 C 5.92 g/m*3 11.6 C 0 km/h
572 14-10-2010 18:26:02 10.9 C 5.97 g/m*3 10.9 C 0 km/h
573 14-10-2010 18:38:03 10.5 C 6.01 g/m*3 10.5 C 0 km/h
574 14-10-2010 18:50:02 10.2 C 6.09 g/m*3 10.2 C 0 km/h
575 14-10-2010 19:02:02 10.2 C 6.19 g/m*3 10.2 C 0 km/h
Sensor: Nr:Datum:Temp:Abs-Feuchte:Windchill:Wind:
Aussen-T/F 576 14-10-2010 19:14:02 10.2 C 6.19 g/m*3 10.2 C 0 km/h
577 14-10-2010 19:26:02 10.3 C 6.22 g/m*3 10.3 C 0 km/h
578 14-10-2010 19:38:02 10.3 C 6.32 g/m*3 10.3 C 0 km/h
579 14-10-2010 19:50:02 10.3 C 6.32 g/m*3 10.3 C 0 km/h
580 14-10-2010 20:02:02 10.3 C 6.32 g/m*3 10.3 C 0 km/h
581 14-10-2010 20:14:02 10.2 C 6.19 g/m*3 10.2 C 0 km/h
582 14-10-2010 20:26:02 10.2 C 6.19 g/m*3 10.2 C 0 km/h
583 14-10-2010 20:38:02 10.2 C 6.28 g/m*3 10.2 C 0 km/h
584 14-10-2010 20:50:02 10.1 C 6.24 g/m*3 10.1 C 0 km/h
585 14-10-2010 21:02:02 9.9 C 6.26 g/m*3 9.9 C 0 km/h
586 14-10-2010 21:14:02 9.7 C 6.27 g/m*3 9.7 C 0 km/h
587 14-10-2010 21:26:02 9.8 C 6.4 g/m*3 9.8 C 0 km/h
588 14-10-2010 21:38:02 9.8 C 6.4 g/m*3 9.8 C 0 km/h
589 14-10-2010 21:51:04 9.8 C 6.31 g/m*3 9.8 C 0 km/h
590 14-10-2010 22:03:04 9.7 C 6.36 g/m*3 9.7 C 0 km/h
591 14-10-2010 22:15:04 9.7 C 6.45 g/m*3 9.7 C 0 km/h
592 14-10-2010 22:27:04 9.8 C 6.59 g/m*3 9.8 C 0 km/h
593 14-10-2010 22:39:05 9.8 C 6.59 g/m*3 9.8 C 0 km/h
594 14-10-2010 22:51:05 9.7 C 6.55 g/m*3 9.7 C 0 km/h
595 14-10-2010 23:03:05 9.7 C 6.64 g/m*3 9.7 C 0 km/h
596 14-10-2010 23:15:05 9.7 C 6.64 g/m*3 9.7 C 0 km/h
597 14-10-2010 23:27:05 9.7 C 6.73 g/m*3 9.7 C 0 km/h
598 14-10-2010 23:39:05 9.7 C 6.73 g/m*3 9.7 C 0 km/h
599 14-10-2010 23:51:05 9.6 C 6.69 g/m*3 9.6 C 0 km/h
600 15-10-2010 00:03:05 9.5 C 6.74 g/m*3 9.5 C 0 km/h
Sensor: Nr:Datum:Temp:Abs-Feuchte:Windchill:Wind:
Aussen-T/F 601 15-10-2010 00:15:05 9.5 C 6.74 g/m*3 9.5 C 0 km/h
602 15-10-2010 00:27:05 9.5 C 6.74 g/m*3 9.5 C 0 km/h
603 15-10-2010 00:39:05 9.5 C 6.74 g/m*3 9.5 C 0 km/h
604 15-10-2010 00:51:05 9.5 C 6.83 g/m*3 9.5 C 0 km/h
605 15-10-2010 01:03:05 9.5 C 6.83 g/m*3 9.5 C 0 km/h
606 15-10-2010 01:15:05 9.5 C 6.83 g/m*3 9.5 C 0 km/h
607 15-10-2010 01:27:05 9.5 C 6.92 g/m*3 9.5 C 0 km/h
608 15-10-2010 01:39:05 9.4 C 6.87 g/m*3 9.4 C 0 km/h
609 15-10-2010 01:51:05 9.2 C 6.97 g/m*3 9.2 C 0 km/h
610 15-10-2010 02:03:05 9.2 C 7.05 g/m*3 9.2 C 0 km/h
611 15-10-2010 02:15:05 9.2 C 7.05 g/m*3 9.2 C 0 km/h
612 15-10-2010 02:27:05 9.3 C 7.19 g/m*3 9.3 C 0 km/h
613 15-10-2010 02:39:05 9.2 C 7.14 g/m*3 9.2 C 0 km/h
614 15-10-2010 02:51:06 9.3 C 7.19 g/m*3 9.3 C 0 km/h
615 15-10-2010 03:03:06 9.3 C 7.19 g/m*3 9.3 C 0 km/h
616 15-10-2010 03:15:06 9.3 C 7.28 g/m*3 9.3 C 0 km/h
617 15-10-2010 03:27:06 9.2 C 7.14 g/m*3 9.2 C 0 km/h
618 15-10-2010 03:39:06 9.3 C 7.28 g/m*3 9.3 C 0 km/h
619 15-10-2010 03:51:06 9.3 C 7.37 g/m*3 9.3 C 0 km/h
620 15-10-2010 04:03:06 9.3 C 7.37 g/m*3 9.3 C 0 km/h
621 15-10-2010 04:15:06 9.2 C 7.32 g/m*3 9.2 C 0 km/h
622 15-10-2010 04:27:06 9.3 C 7.37 g/m*3 9.3 C 0 km/h
623 15-10-2010 04:39:06 9.3 C 7.37 g/m*3 9.3 C 0 km/h
624 15-10-2010 04:51:06 9.3 C 7.37 g/m*3 9.3 C 0 km/h
625 15-10-2010 05:03:06 9.2 C 7.32 g/m*3 9.2 C 0 km/h
Sensor: Nr:Datum:Temp:Abs-Feuchte:Windchill:Wind:
Aussen-T/F 626 15-10-2010 05:15:06 9.2 C 7.32 g/m*3 9.2 C 0 km/h
627 15-10-2010 05:27:06 9.2 C 7.41 g/m*3 9.2 C 0 km/h
628 15-10-2010 05:39:06 9.2 C 7.5 g/m*3 9.2 C 0 km/h
629 15-10-2010 05:51:06 9.2 C 7.5 g/m*3 9.2 C 0 km/h
630 15-10-2010 06:03:06 9.3 C 7.55 g/m*3 9.3 C 0 km/h
631 15-10-2010 06:15:06 9.3 C 7.64 g/m*3 9.3 C 0 km/h
632 15-10-2010 06:27:06 9.3 C 7.64 g/m*3 9.3 C 0 km/h
633 15-10-2010 06:39:06 9.3 C 7.73 g/m*3 9.3 C 0 km/h
634 15-10-2010 06:51:07 9.3 C 7.73 g/m*3 9.3 C 0 km/h
635 15-10-2010 07:03:03 9.3 C 7.73 g/m*3 9.3 C 0 km/h
636 15-10-2010 07:15:04 9.3 C 7.73 g/m*3 9.3 C 0 km/h
637 15-10-2010 07:27:04 9.3 C 7.73 g/m*3 9.3 C 0 km/h
638 15-10-2010 07:39:03 9.3 C 7.73 g/m*3 9.3 C 0 km/h
639 15-10-2010 07:51:02 9.2 C 7.77 g/m*3 9.2 C 0 km/h
640 15-10-2010 08:03:01 9.2 C 7.77 g/m*3 9.2 C 0 km/h
641 15-10-2010 08:15:02 9.2 C 7.86 g/m*3 9.2 C 0 km/h
642 15-10-2010 08:27:02 9.2 C 7.86 g/m*3 9.2 C 0 km/h
643 15-10-2010 08:39:01 9.3 C 7.91 g/m*3 9.3 C 0 km/h
644 15-10-2010 08:51:01 9.3 C 7.91 g/m*3 9.3 C 0 km/h
645 15-10-2010 09:03:01 9.5 C 8.01 g/m*3 9.5 C 0 km/h
646 15-10-2010 09:15:02 9.6 C 8.15 g/m*3 9.6 C 0 km/h
647 15-10-2010 09:27:02 9.7 C 8.2 g/m*3 9.7 C 0 km/h
648 15-10-2010 09:39:01 10.1 C 8.32 g/m*3 10.1 C 0 km/h
649 15-10-2010 09:51:02 10.2 C 8.28 g/m*3 10.2 C 0 km/h
650 15-10-2010 10:03:01 10.4 C 8.19 g/m*3 10.4 C 0 km/h
Sensor: Nr:Datum:Temp:Abs-Feuchte:Windchill:Wind:
Aussen-T/F 651 15-10-2010 10:15:01 10.5 C 8.15 g/m*3 10.5 C 0 km/h
652 15-10-2010 10:27:01 10.7 C 8.05 g/m*3 10.7 C 0 km/h
653 15-10-2010 10:39:01 10.9 C 7.96 g/m*3 10.9 C 0 km/h
654 15-10-2010 10:51:02 11.1 C 7.96 g/m*3 11.1 C 0 km/h
655 15-10-2010 11:03:01 11.2 C 7.91 g/m*3 11.2 C 0 km/h
656 15-10-2010 11:15:02 11.3 C 7.75 g/m*3 11.3 C 0 km/h
657 15-10-2010 11:27:02 11.4 C 7.7 g/m*3 11.4 C 0 km/h
658 15-10-2010 11:39:02 11.8 C 7.79 g/m*3 11.8 C 0 km/h
659 15-10-2010 11:51:02 11.9 C 7.63 g/m*3 11.9 C 0 km/h
660 15-10-2010 12:03:03 12.3 C 7.6 g/m*3 12.3 C 0 km/h
661 15-10-2010 12:15:02 12 C 7.25 g/m*3 12 C 0 km/h
662 15-10-2010 12:27:02 11.9 C 7.31 g/m*3 11.9 C 0 km/h
663 15-10-2010 12:39:02 12.8 C 7.39 g/m*3 12.8 C 0 km/h
664 15-10-2010 12:51:01 13.1 C 7.07 g/m*3 13.1 C 0 km/h
665 15-10-2010 13:03:02 12.9 C 6.99 g/m*3 12.9 C 0 km/h
666 15-10-2010 13:15:01 12.9 C 6.99 g/m*3 12.9 C 0 km/h
667 15-10-2010 13:27:01 13.4 C 6.97 g/m*3 13.4 C 0 km/h
668 15-10-2010 13:39:01 14 C 6.88 g/m*3 14 C 0 km/h
669 15-10-2010 13:51:01 13.7 C 6.63 g/m*3 13.7 C 0 km/h
670 15-10-2010 14:03:01 13.4 C 6.63 g/m*3 13.4 C 0 km/h
671 15-10-2010 14:15:02 12.9 C 6.76 g/m*3 12.9 C 0 km/h
672 15-10-2010 14:27:02 12.7 C 6.9 g/m*3 12.7 C 0 km/h
673 15-10-2010 14:39:01 12.4 C 6.66 g/m*3 12.4 C 0 km/h
674 15-10-2010 14:51:03 12.5 C 6.82 g/m*3 12.5 C 0 km/h
675 15-10-2010 15:03:02 13 C 6.8 g/m*3 13 C 0 km/h
Sensor: Nr:Datum:Temp:Abs-Feuchte:Windchill:Wind:
Aussen-T/F 676 15-10-2010 15:15:02 12.9 C 6.76 g/m*3 12.9 C 0 km/h
677 15-10-2010 15:27:02 12.9 C 6.76 g/m*3 12.9 C 0 km/h
678 15-10-2010 15:39:03 13 C 6.58 g/m*3 13 C 0 km/h
679 15-10-2010 15:51:02 12.5 C 6.49 g/m*3 12.5 C 0 km/h
680 15-10-2010 16:03:02 12.5 C 6.71 g/m*3 12.5 C 0 km/h
681 15-10-2010 16:15:02 12.4 C 6.77 g/m*3 12.4 C 0 km/h
682 15-10-2010 16:27:02 12.2 C 6.69 g/m*3 12.2 C 0 km/h
683 15-10-2010 16:39:02 12.1 C 6.86 g/m*3 12.1 C 0 km/h
684 15-10-2010 16:51:02 12 C 6.93 g/m*3 12 C 0 km/h
685 15-10-2010 17:03:02 11.8 C 7.05 g/m*3 11.8 C 0 km/h
686 15-10-2010 17:15:02 11.7 C 7.11 g/m*3 11.7 C 0 km/h
687 15-10-2010 17:27:02 11.5 C 7.13 g/m*3 11.5 C 0 km/h
688 15-10-2010 17:39:02 11.5 C 7.02 g/m*3 11.5 C 0 km/h
689 15-10-2010 17:51:02 11.3 C 7.04 g/m*3 11.3 C 0 km/h
690 15-10-2010 18:03:02 11.1 C 7.05 g/m*3 11.1 C 0 km/h
691 15-10-2010 18:15:03 11 C 7.01 g/m*3 11 C 0 km/h
692 15-10-2010 18:27:03 10.9 C 7.06 g/m*3 10.9 C 0 km/h
693 15-10-2010 18:39:02 10.7 C 6.97 g/m*3 10.7 C 0 km/h
694 15-10-2010 18:51:01 10.7 C 7.07 g/m*3 10.7 C 0 km/h
695 15-10-2010 19:03:02 10.6 C 7.03 g/m*3 10.6 C 0 km/h
696 15-10-2010 19:15:01 10.5 C 6.98 g/m*3 10.5 C 0 km/h
697 15-10-2010 19:27:01 10.5 C 7.08 g/m*3 10.5 C 0 km/h
698 15-10-2010 19:39:01 10.5 C 6.98 g/m*3 10.5 C 0 km/h
699 15-10-2010 19:51:01 10.5 C 6.98 g/m*3 10.5 C 0 km/h
700 15-10-2010 20:03:01 10.4 C 6.94 g/m*3 10.4 C 0 km/h
Sensor: Nr:Datum:Temp:Abs-Feuchte:Windchill:Wind:
Aussen-T/F 701 15-10-2010 20:15:02 10.3 C 6.99 g/m*3 10.3 C 0 km/h
702 15-10-2010 20:27:02 10.2 C 6.95 g/m*3 10.2 C 0 km/h
703 15-10-2010 20:39:01 10.4 C 7.13 g/m*3 10.4 C 0 km/h
704 15-10-2010 20:51:03 10.5 C 7.08 g/m*3 10.5 C 0 km/h
705 15-10-2010 21:03:02 10.5 C 7.08 g/m*3 10.5 C 0 km/h
706 15-10-2010 21:15:02 10.4 C 7.04 g/m*3 10.4 C 0 km/h
707 15-10-2010 21:27:02 10.2 C 7.04 g/m*3 10.2 C 0 km/h
708 15-10-2010 21:39:03 9.8 C 7.33 g/m*3 9.8 C 0 km/h
709 15-10-2010 21:51:02 9.6 C 7.42 g/m*3 9.6 C 0 km/h
710 15-10-2010 22:03:02 9.5 C 7.55 g/m*3 9.5 C 0 km/h
711 15-10-2010 22:15:02 9.3 C 7.55 g/m*3 9.3 C 0 km/h
712 15-10-2010 22:27:02 9.3 C 7.64 g/m*3 9.3 C 0 km/h
713 15-10-2010 22:39:01 9.2 C 7.77 g/m*3 9.2 C 0 km/h
714 15-10-2010 22:52:04 9.2 C 7.86 g/m*3 9.2 C 0 km/h
715 15-10-2010 23:04:04 9.2 C 7.95 g/m*3 9.2 C 0 km/h
716 15-10-2010 23:16:04 9.3 C 8 g/m*3 9.3 C 0 km/h
717 15-10-2010 23:28:04 9.3 C 8.09 g/m*3 9.3 C 0 km/h
718 15-10-2010 23:40:04 9.1 C 8.07 g/m*3 9.1 C 0 km/h
719 15-10-2010 23:52:04 9.1 C 8.07 g/m*3 9.1 C 0 km/h
720 16-10-2010 00:04:04 9.1 C 8.16 g/m*3 9.1 C 0 km/h
721 16-10-2010 00:16:04 9 C 8.11 g/m*3 9 C 0 km/h
722 16-10-2010 00:28:04 9 C 8.11 g/m*3 9 C 0 km/h
723 16-10-2010 00:40:04 9 C 8.2 g/m*3 9 C 0 km/h
724 16-10-2010 00:52:04 9 C 8.2 g/m*3 9 C 0 km/h
725 16-10-2010 01:04:04 8.9 C 8.23 g/m*3 8.9 C 0 km/h
Sensor: Nr:Datum:Temp:Abs-Feuchte:Windchill:Wind:
Aussen-T/F 726 16-10-2010 01:16:04 8.9 C 8.23 g/m*3 8.9 C 0 km/h
727 16-10-2010 01:28:04 8.8 C 8.18 g/m*3 8.8 C 0 km/h
728 16-10-2010 01:40:04 8.8 C 8.18 g/m*3 8.8 C 0 km/h
729 16-10-2010 01:52:04 8.7 C 8.13 g/m*3 8.7 C 0 km/h
730 16-10-2010 02:04:04 8.7 C 8.13 g/m*3 8.7 C 0 km/h
731 16-10-2010 02:16:05 8.8 C 8.18 g/m*3 8.8 C 0 km/h
732 16-10-2010 02:28:05 8.8 C 8.27 g/m*3 8.8 C 0 km/h
733 16-10-2010 02:40:05 8.8 C 8.27 g/m*3 8.8 C 0 km/h
734 16-10-2010 02:52:05 8.8 C 8.27 g/m*3 8.8 C 0 km/h
735 16-10-2010 03:04:05 8.7 C 8.22 g/m*3 8.7 C 0 km/h
736 16-10-2010 03:16:05 8.7 C 8.22 g/m*3 8.7 C 0 km/h
737 16-10-2010 03:28:05 8.7 C 8.22 g/m*3 8.7 C 0 km/h
738 16-10-2010 03:40:05 8.7 C 8.22 g/m*3 8.7 C 0 km/h
739 16-10-2010 03:52:05 8.6 C 8.16 g/m*3 8.6 C 0 km/h
740 16-10-2010 04:04:05 8.6 C 8.16 g/m*3 8.6 C 0 km/h
741 16-10-2010 04:16:05 8.6 C 8.16 g/m*3 8.6 C 0 km/h
742 16-10-2010 04:28:05 8.5 C 8.11 g/m*3 8.5 C 0 km/h
743 16-10-2010 04:40:05 8.5 C 8.11 g/m*3 8.5 C 0 km/h
744 16-10-2010 04:52:05 8.5 C 8.11 g/m*3 8.5 C 0 km/h
745 16-10-2010 05:04:05 8.5 C 8.11 g/m*3 8.5 C 0 km/h
746 16-10-2010 05:16:05 8.4 C 8.06 g/m*3 8.4 C 0 km/h
747 16-10-2010 05:28:05 8.3 C 8.01 g/m*3 8.3 C 0 km/h
748 16-10-2010 05:40:05 8.3 C 8.01 g/m*3 8.3 C 0 km/h
749 16-10-2010 05:52:05 8.3 C 8.01 g/m*3 8.3 C 0 km/h
750 16-10-2010 06:04:05 8.3 C 8.01 g/m*3 8.3 C 0 km/h
Sensor: Nr:Datum:Temp:Abs-Feuchte:Windchill:Wind:
Aussen-T/F 751 16-10-2010 06:16:05 8.4 C 8.06 g/m*3 8.4 C 0 km/h
752 16-10-2010 06:28:05 8.3 C 8.01 g/m*3 8.3 C 0 km/h
753 16-10-2010 06:40:06 8.3 C 8.01 g/m*3 8.3 C 0 km/h
754 16-10-2010 06:52:06 8.2 C 7.96 g/m*3 8.2 C 0 km/h
755 16-10-2010 07:04:06 8.2 C 7.96 g/m*3 8.2 C 0 km/h
756 16-10-2010 07:16:06 8.2 C 7.96 g/m*3 8.2 C 0 km/h
757 16-10-2010 07:28:06 8.1 C 7.9 g/m*3 8.1 C 0 km/h
758 16-10-2010 07:40:04 8.1 C 7.82 g/m*3 8.1 C 0 km/h
759 16-10-2010 07:52:02 8 C 7.77 g/m*3 8 C 0 km/h
760 16-10-2010 08:04:02 8.1 C 7.82 g/m*3 8.1 C 0 km/h
761 16-10-2010 08:16:01 8.1 C 7.82 g/m*3 8.1 C 0 km/h
762 16-10-2010 08:28:01 8.1 C 7.74 g/m*3 8.1 C 0 km/h
763 16-10-2010 08:40:01 8.1 C 7.74 g/m*3 8.1 C 0 km/h
764 16-10-2010 08:52:01 8.1 C 7.74 g/m*3 8.1 C 0 km/h
765 16-10-2010 09:04:01 8.2 C 7.79 g/m*3 8.2 C 0 km/h
766 16-10-2010 09:16:02 8.2 C 7.79 g/m*3 8.2 C 0 km/h
767 16-10-2010 09:28:02 8.2 C 7.79 g/m*3 8.2 C 0 km/h
768 16-10-2010 09:40:01 8.2 C 7.79 g/m*3 8.2 C 0 km/h
769 16-10-2010 09:52:02 8.4 C 7.89 g/m*3 8.4 C 0 km/h
770 16-10-2010 10:04:02 8.5 C 7.94 g/m*3 8.5 C 0 km/h
771 16-10-2010 10:16:02 8.6 C 7.99 g/m*3 8.6 C 0 km/h
772 16-10-2010 10:28:02 8.8 C 8.18 g/m*3 8.8 C 0 km/h
773 16-10-2010 10:40:01 8.6 C 7.99 g/m*3 8.6 C 0 km/h
774 16-10-2010 10:52:02 8.7 C 8.04 g/m*3 8.7 C 0 km/h
775 16-10-2010 11:04:01 8.9 C 8.15 g/m*3 8.9 C 0 km/h
Sensor: Nr:Datum:Temp:Abs-Feuchte:Windchill:Wind:
Aussen-T/F 776 16-10-2010 11:16:01 8.8 C 8.09 g/m*3 8.8 C 0 km/h
777 16-10-2010 11:28:01 9 C 8.11 g/m*3 9 C 0 km/h
778 16-10-2010 11:40:01 9.1 C 8.16 g/m*3 9.1 C 0 km/h
779 16-10-2010 11:52:01 9 C 8.02 g/m*3 9 C 0 km/h
780 16-10-2010 12:04:02 9.3 C 8.18 g/m*3 9.3 C 0 km/h
781 16-10-2010 12:16:01 9.1 C 7.99 g/m*3 9.1 C 0 km/h
782 16-10-2010 12:28:01 9.1 C 7.9 g/m*3 9.1 C 0 km/h
783 16-10-2010 12:40:01 9.7 C 8.3 g/m*3 9.7 C 0 km/h
784 16-10-2010 12:52:01 9.7 C 8.2 g/m*3 9.7 C 0 km/h
785 16-10-2010 13:04:02 9.6 C 8.15 g/m*3 9.6 C 0 km/h
786 16-10-2010 13:16:01 9.9 C 8.31 g/m*3 9.9 C 0 km/h
787 16-10-2010 13:28:01 9.8 C 8.26 g/m*3 9.8 C 0 km/h
788 16-10-2010 13:40:02 9.6 C 8.06 g/m*3 9.6 C 0 km/h
789 16-10-2010 13:52:02 9.7 C 8.02 g/m*3 9.7 C 0 km/h
790 16-10-2010 14:04:02 9.9 C 8.12 g/m*3 9.9 C 0 km/h
791 16-10-2010 14:16:01 10 C 7.89 g/m*3 10 C 0 km/h
792 16-10-2010 14:28:01 10.1 C 7.94 g/m*3 10.1 C 0 km/h
793 16-10-2010 14:40:02 10 C 7.8 g/m*3 10 C 0 km/h
794 16-10-2010 14:52:01 9.8 C 7.7 g/m*3 9.8 C 0 km/h
795 16-10-2010 15:04:02 9.8 C 7.79 g/m*3 9.8 C 0 km/h
796 16-10-2010 15:16:02 9.9 C 7.84 g/m*3 9.9 C 0 km/h
797 16-10-2010 15:28:02 10.3 C 7.95 g/m*3 10.3 C 0 km/h
798 16-10-2010 15:40:02 10.1 C 7.66 g/m*3 10.1 C 0 km/h
799 16-10-2010 15:52:01 10.3 C 7.85 g/m*3 10.3 C 0 km/h
800 16-10-2010 16:04:02 10.2 C 7.8 g/m*3 10.2 C 0 km/h
Sensor: Nr:Datum:Temp:Abs-Feuchte:Windchill:Wind:
Aussen-T/F 801 16-10-2010 16:16:02 10.2 C 7.8 g/m*3 10.2 C 0 km/h
802 16-10-2010 16:28:02 9.9 C 7.84 g/m*3 9.9 C 0 km/h
803 16-10-2010 16:40:01 9.6 C 7.79 g/m*3 9.6 C 0 km/h
804 16-10-2010 16:52:02 9.6 C 7.97 g/m*3 9.6 C 0 km/h
805 16-10-2010 17:04:01 9.6 C 8.06 g/m*3 9.6 C 0 km/h
806 16-10-2010 17:16:02 9.6 C 8.15 g/m*3 9.6 C 0 km/h
807 16-10-2010 17:28:02 9.2 C 7.86 g/m*3 9.2 C 0 km/h
808 16-10-2010 17:40:01 9.3 C 7.82 g/m*3 9.3 C 0 km/h
809 16-10-2010 17:52:02 9.1 C 7.63 g/m*3 9.1 C 0 km/h
810 16-10-2010 18:04:02 8.9 C 7.36 g/m*3 8.9 C 0 km/h
811 16-10-2010 18:16:02 8.7 C 7.18 g/m*3 8.7 C 0 km/h
812 16-10-2010 18:28:02 8.4 C 6.96 g/m*3 8.4 C 0 km/h
813 16-10-2010 18:40:03 8.1 C 6.74 g/m*3 8.1 C 0 km/h
814 16-10-2010 18:52:02 7.8 C 6.69 g/m*3 7.8 C 0 km/h
815 16-10-2010 19:04:01 7.5 C 6.56 g/m*3 7.5 C 0 km/h
816 16-10-2010 19:16:02 7.2 C 6.59 g/m*3 7.2 C 0 km/h
817 16-10-2010 19:28:02 7 C 6.59 g/m*3 7 C 0 km/h
818 16-10-2010 19:40:01 6.7 C 6.61 g/m*3 6.7 C 0 km/h
819 16-10-2010 19:52:02 6.4 C 6.41 g/m*3 6.4 C 0 km/h
820 16-10-2010 20:04:01 6.5 C 6.45 g/m*3 6.5 C 0 km/h
821 16-10-2010 20:16:01 6.5 C 6.3 g/m*3 6.5 C 0 km/h
822 16-10-2010 20:28:01 6.6 C 6.27 g/m*3 6.6 C 0 km/h
823 16-10-2010 20:40:02 6.6 C 6.27 g/m*3 6.6 C 0 km/h
824 16-10-2010 20:52:02 6.6 C 6.27 g/m*3 6.6 C 0 km/h
825 16-10-2010 21:04:02 6.5 C 6.22 g/m*3 6.5 C 0 km/h
Sensor: Nr:Datum:Temp:Abs-Feuchte:Windchill:Wind:
Aussen-T/F 826 16-10-2010 21:16:01 6.3 C 6.14 g/m*3 6.3 C 0 km/h
827 16-10-2010 21:28:01 6.3 C 6.22 g/m*3 6.3 C 0 km/h
828 16-10-2010 21:40:02 6.2 C 6.25 g/m*3 6.2 C 0 km/h
829 16-10-2010 21:52:02 6.1 C 6.21 g/m*3 6.1 C 0 km/h
830 16-10-2010 22:04:02 6 C 6.24 g/m*3 6 C 0 km/h
831 16-10-2010 22:16:02 5.9 C 6.35 g/m*3 5.9 C 0 km/h
832 16-10-2010 22:28:02 5.8 C 6.38 g/m*3 5.8 C 0 km/h
833 16-10-2010 22:40:02 5.9 C 6.42 g/m*3 5.9 C 0 km/h
834 16-10-2010 22:52:02 5.9 C 6.49 g/m*3 5.9 C 0 km/h
835 16-10-2010 23:04:02 5.9 C 6.49 g/m*3 5.9 C 0 km/h
836 16-10-2010 23:16:03 5.9 C 6.56 g/m*3 5.9 C 0 km/h
837 16-10-2010 23:28:03 6 C 6.53 g/m*3 6 C 0 km/h
838 16-10-2010 23:41:04 6 C 6.6 g/m*3 6 C 0 km/h
839 16-10-2010 23:53:04 6 C 6.6 g/m*3 6 C 0 km/h
840 17-10-2010 00:05:04 6 C 6.6 g/m*3 6 C 0 km/h
841 17-10-2010 00:17:04 6.1 C 6.65 g/m*3 6.1 C 0 km/h
842 17-10-2010 00:29:04 6.2 C 6.77 g/m*3 6.2 C 0 km/h
843 17-10-2010 00:41:04 6.2 C 6.77 g/m*3 6.2 C 0 km/h
844 17-10-2010 00:53:04 6.2 C 6.69 g/m*3 6.2 C 0 km/h
845 17-10-2010 01:05:04 6.2 C 6.69 g/m*3 6.2 C 0 km/h
846 17-10-2010 01:17:04 6.2 C 6.69 g/m*3 6.2 C 0 km/h
847 17-10-2010 01:29:04 6.3 C 6.74 g/m*3 6.3 C 0 km/h
848 17-10-2010 01:41:04 6.2 C 6.69 g/m*3 6.2 C 0 km/h
849 17-10-2010 01:53:04 6.3 C 6.74 g/m*3 6.3 C 0 km/h
850 17-10-2010 02:05:04 6.3 C 6.74 g/m*3 6.3 C 0 km/h
Sensor: Nr:Datum:Temp:Abs-Feuchte:Windchill:Wind:
Aussen-T/F 851 17-10-2010 02:17:05 6.2 C 6.62 g/m*3 6.2 C 0 km/h
852 17-10-2010 02:29:05 6.2 C 6.62 g/m*3 6.2 C 0 km/h
853 17-10-2010 02:41:05 6.2 C 6.55 g/m*3 6.2 C 0 km/h
854 17-10-2010 02:53:05 6.2 C 6.55 g/m*3 6.2 C 0 km/h
855 17-10-2010 03:05:05 6.2 C 6.55 g/m*3 6.2 C 0 km/h
856 17-10-2010 03:17:05 6.3 C 6.51 g/m*3 6.3 C 0 km/h
857 17-10-2010 03:29:05 6.3 C 6.51 g/m*3 6.3 C 0 km/h
858 17-10-2010 03:41:05 6.2 C 6.47 g/m*3 6.2 C 0 km/h
859 17-10-2010 03:53:05 6.2 C 6.4 g/m*3 6.2 C 0 km/h
860 17-10-2010 04:05:05 6.2 C 6.32 g/m*3 6.2 C 0 km/h
861 17-10-2010 04:17:05 6.2 C 6.32 g/m*3 6.2 C 0 km/h
862 17-10-2010 04:29:05 6.2 C 6.32 g/m*3 6.2 C 0 km/h
863 17-10-2010 04:41:05 6.2 C 6.32 g/m*3 6.2 C 0 km/h
864 17-10-2010 04:53:05 6.3 C 6.37 g/m*3 6.3 C 0 km/h
865 17-10-2010 05:05:05 6.3 C 6.37 g/m*3 6.3 C 0 km/h
866 17-10-2010 05:17:05 6.3 C 6.44 g/m*3 6.3 C 0 km/h
867 17-10-2010 05:29:05 6.3 C 6.44 g/m*3 6.3 C 0 km/h
868 17-10-2010 05:41:05 6.3 C 6.44 g/m*3 6.3 C 0 km/h
869 17-10-2010 05:53:05 6.3 C 6.44 g/m*3 6.3 C 0 km/h
870 17-10-2010 06:05:05 6.3 C 6.44 g/m*3 6.3 C 0 km/h
871 17-10-2010 06:17:06 6.3 C 6.44 g/m*3 6.3 C 0 km/h
872 17-10-2010 06:29:06 6.4 C 6.48 g/m*3 6.4 C 0 km/h
873 17-10-2010 06:41:06 6.4 C 6.48 g/m*3 6.4 C 0 km/h
874 17-10-2010 06:53:06 6.3 C 6.44 g/m*3 6.3 C 0 km/h
875 17-10-2010 07:05:06 6.3 C 6.37 g/m*3 6.3 C 0 km/h
Sensor: Nr:Datum:Temp:Abs-Feuchte:Windchill:Wind:
Aussen-T/F 876 17-10-2010 07:17:06 6.3 C 6.37 g/m*3 6.3 C 0 km/h
877 17-10-2010 07:29:06 6.3 C 6.22 g/m*3 6.3 C 0 km/h
878 17-10-2010 07:41:06 6.4 C 6.26 g/m*3 6.4 C 0 km/h
879 17-10-2010 07:53:06 6.4 C 6.26 g/m*3 6.4 C 0 km/h
880 17-10-2010 08:05:06 6.5 C 6.22 g/m*3 6.5 C 0 km/h
881 17-10-2010 08:17:06 6.5 C 6.15 g/m*3 6.5 C 0 km/h
882 17-10-2010 08:29:06 6.5 C 6.15 g/m*3 6.5 C 0 km/h
883 17-10-2010 08:41:06 6.6 C 6.11 g/m*3 6.6 C 0 km/h
884 17-10-2010 08:53:01 6.8 C 6.19 g/m*3 6.8 C 0 km/h
885 17-10-2010 09:05:02 6.8 C 6.12 g/m*3 6.8 C 0 km/h
886 17-10-2010 09:17:02 6.8 C 6.12 g/m*3 6.8 C 0 km/h
887 17-10-2010 09:29:02 6.9 C 6.24 g/m*3 6.9 C 0 km/h
888 17-10-2010 09:41:01 6.9 C 6.16 g/m*3 6.9 C 0 km/h
889 17-10-2010 09:53:02 7 C 6.12 g/m*3 7 C 0 km/h
890 17-10-2010 10:05:01 7.1 C 6.08 g/m*3 7.1 C 0 km/h
891 17-10-2010 10:17:02 7.2 C 6.12 g/m*3 7.2 C 0 km/h
892 17-10-2010 10:29:02 7.3 C 6.16 g/m*3 7.3 C 0 km/h
893 17-10-2010 10:41:01 7.4 C 6.12 g/m*3 7.4 C 0 km/h
894 17-10-2010 10:53:02 7.6 C 6.2 g/m*3 7.6 C 0 km/h
895 17-10-2010 11:05:02 7.7 C 6.16 g/m*3 7.7 C 0 km/h
896 17-10-2010 11:17:02 7.8 C 6.04 g/m*3 7.8 C 0 km/h
897 17-10-2010 11:29:02 7.7 C 5.92 g/m*3 7.7 C 0 km/h
898 17-10-2010 11:41:02 7.6 C 5.88 g/m*3 7.6 C 0 km/h
899 17-10-2010 11:53:02 7.7 C 5.92 g/m*3 7.7 C 0 km/h
900 17-10-2010 12:05:02 7.8 C 5.96 g/m*3 7.8 C 0 km/h
Sensor: Nr:Datum:Temp:Abs-Feuchte:Windchill:Wind:
Aussen-T/F 901 17-10-2010 12:17:01 7.8 C 5.96 g/m*3 7.8 C 0 km/h
902 17-10-2010 12:29:01 7.9 C 6 g/m*3 7.9 C 0 km/h
903 17-10-2010 12:41:02 8 C 5.95 g/m*3 8 C 0 km/h
904 17-10-2010 12:53:02 7.9 C 6 g/m*3 7.9 C 0 km/h
905 17-10-2010 13:05:02 7.9 C 5.91 g/m*3 7.9 C 0 km/h
906 17-10-2010 13:17:01 8.1 C 5.91 g/m*3 8.1 C 0 km/h
907 17-10-2010 13:29:01 8.1 C 5.91 g/m*3 8.1 C 0 km/h
908 17-10-2010 13:41:02 8.2 C 6.03 g/m*3 8.2 C 0 km/h
909 17-10-2010 13:53:01 8.2 C 6.03 g/m*3 8.2 C 0 km/h
910 17-10-2010 14:05:02 8.3 C 6.15 g/m*3 8.3 C 0 km/h
911 17-10-2010 14:17:02 8.3 C 6.07 g/m*3 8.3 C 0 km/h
912 17-10-2010 14:29:02 8.4 C 6.19 g/m*3 8.4 C 0 km/h
913 17-10-2010 14:41:02 8.4 C 6.19 g/m*3 8.4 C 0 km/h
914 17-10-2010 14:53:02 8.4 C 6.11 g/m*3 8.4 C 0 km/h
915 17-10-2010 15:05:02 8.5 C 6.15 g/m*3 8.5 C 0 km/h
916 17-10-2010 15:17:02 8.5 C 6.06 g/m*3 8.5 C 0 km/h
917 17-10-2010 15:29:02 8.6 C 6.1 g/m*3 8.6 C 0 km/h
918 17-10-2010 15:41:01 8.6 C 6.1 g/m*3 8.6 C 0 km/h
919 17-10-2010 15:53:02 8.4 C 6.19 g/m*3 8.4 C 0 km/h
920 17-10-2010 16:05:01 8.4 C 6.19 g/m*3 8.4 C 0 km/h
921 17-10-2010 16:17:01 8.4 C 6.28 g/m*3 8.4 C 0 km/h
922 17-10-2010 16:29:01 8.5 C 6.32 g/m*3 8.5 C 0 km/h
923 17-10-2010 16:41:02 8.5 C 6.32 g/m*3 8.5 C 0 km/h
924 17-10-2010 16:53:02 8.5 C 6.32 g/m*3 8.5 C 0 km/h
925 17-10-2010 17:05:02 8.5 C 6.32 g/m*3 8.5 C 0 km/h
Sensor: Nr:Datum:Temp:Abs-Feuchte:Windchill:Wind:
Aussen-T/F 926 17-10-2010 17:17:02 8.3 C 6.24 g/m*3 8.3 C 0 km/h
927 17-10-2010 17:29:02 8.3 C 6.32 g/m*3 8.3 C 0 km/h
928 17-10-2010 17:41:02 8.2 C 6.36 g/m*3 8.2 C 0 km/h
929 17-10-2010 17:53:02 8.2 C 6.36 g/m*3 8.2 C 0 km/h
930 17-10-2010 18:05:03 8.1 C 6.32 g/m*3 8.1 C 0 km/h
931 17-10-2010 18:17:02 8 C 6.28 g/m*3 8 C 0 km/h
932 17-10-2010 18:29:02 7.9 C 6.32 g/m*3 7.9 C 0 km/h
933 17-10-2010 18:41:02 7.8 C 6.37 g/m*3 7.8 C 0 km/h
934 17-10-2010 18:53:01 7.7 C 6.32 g/m*3 7.7 C 0 km/h
935 17-10-2010 19:05:02 7.7 C 6.32 g/m*3 7.7 C 0 km/h
936 17-10-2010 19:17:01 7.7 C 6.41 g/m*3 7.7 C 0 km/h
937 17-10-2010 19:29:01 7.7 C 6.41 g/m*3 7.7 C 0 km/h
938 17-10-2010 19:41:01 7.7 C 6.41 g/m*3 7.7 C 0 km/h
939 17-10-2010 19:53:01 7.6 C 6.36 g/m*3 7.6 C 0 km/h
940 17-10-2010 20:05:02 7.6 C 6.36 g/m*3 7.6 C 0 km/h
941 17-10-2010 20:17:01 7.7 C 6.49 g/m*3 7.7 C 0 km/h
942 17-10-2010 20:29:01 7.7 C 6.49 g/m*3 7.7 C 0 km/h
943 17-10-2010 20:41:01 7.7 C 6.41 g/m*3 7.7 C 0 km/h
944 17-10-2010 20:53:02 7.7 C 6.41 g/m*3 7.7 C 0 km/h
945 17-10-2010 21:05:02 7.7 C 6.41 g/m*3 7.7 C 0 km/h
946 17-10-2010 21:17:02 7.7 C 6.49 g/m*3 7.7 C 0 km/h
947 17-10-2010 21:29:02 7.7 C 6.49 g/m*3 7.7 C 0 km/h
948 17-10-2010 21:41:02 7.5 C 6.4 g/m*3 7.5 C 0 km/h
949 17-10-2010 21:53:02 7.5 C 6.4 g/m*3 7.5 C 0 km/h
950 17-10-2010 22:06:02 7.5 C 6.48 g/m*3 7.5 C 0 km/h
Sensor: Nr:Datum:Temp:Abs-Feuchte:Windchill:Wind:
Aussen-T/F 951 17-10-2010 22:18:02 7.5 C 6.48 g/m*3 7.5 C 0 km/h
952 17-10-2010 22:30:02 7.4 C 6.44 g/m*3 7.4 C 0 km/h
953 17-10-2010 22:42:02 7.3 C 6.4 g/m*3 7.3 C 0 km/h
954 17-10-2010 22:54:02 7.2 C 6.36 g/m*3 7.2 C 0 km/h
955 17-10-2010 23:06:02 7.1 C 6.32 g/m*3 7.1 C 0 km/h
956 17-10-2010 23:18:02 7.1 C 6.32 g/m*3 7.1 C 0 km/h
957 17-10-2010 23:30:02 7.1 C 6.32 g/m*3 7.1 C 0 km/h
958 17-10-2010 23:42:02 7 C 6.28 g/m*3 7 C 0 km/h
959 17-10-2010 23:54:02 6.9 C 6.31 g/m*3 6.9 C 0 km/h
960 18-10-2010 00:06:02 6.9 C 6.31 g/m*3 6.9 C 0 km/h
961 18-10-2010 00:18:02 6.8 C 6.27 g/m*3 6.8 C 0 km/h
962 18-10-2010 00:30:02 6.7 C 6.23 g/m*3 6.7 C 0 km/h
963 18-10-2010 00:42:02 6.3 C 6.14 g/m*3 6.3 C 0 km/h
964 18-10-2010 00:54:02 5.7 C 5.98 g/m*3 5.7 C 0 km/h
965 18-10-2010 01:06:02 5.3 C 5.89 g/m*3 5.3 C 0 km/h
966 18-10-2010 01:18:02 5.1 C 5.88 g/m*3 5.1 C 0 km/h
967 18-10-2010 01:30:02 5 C 5.91 g/m*3 5 C 0 km/h
968 18-10-2010 01:42:02 5.2 C 6.06 g/m*3 5.2 C 0 km/h
969 18-10-2010 01:54:03 5.3 C 6.1 g/m*3 5.3 C 0 km/h
970 18-10-2010 02:06:03 5.5 C 6.18 g/m*3 5.5 C 0 km/h
971 18-10-2010 02:18:03 5.7 C 6.33 g/m*3 5.7 C 0 km/h
972 18-10-2010 02:30:03 5.9 C 6.42 g/m*3 5.9 C 0 km/h
973 18-10-2010 02:42:03 5.9 C 6.42 g/m*3 5.9 C 0 km/h
974 18-10-2010 02:54:03 6 C 6.39 g/m*3 6 C 0 km/h
975 18-10-2010 03:06:03 6 C 6.31 g/m*3 6 C 0 km/h
Sensor: Nr:Datum:Temp:Abs-Feuchte:Windchill:Wind:
Aussen-T/F 976 18-10-2010 03:18:03 6 C 6.31 g/m*3 6 C 0 km/h
977 18-10-2010 03:30:03 6 C 6.31 g/m*3 6 C 0 km/h
978 18-10-2010 03:42:03 6 C 6.31 g/m*3 6 C 0 km/h
979 18-10-2010 03:54:03 6 C 6.24 g/m*3 6 C 0 km/h
980 18-10-2010 04:06:03 6 C 6.24 g/m*3 6 C 0 km/h
981 18-10-2010 04:18:03 6.1 C 6.28 g/m*3 6.1 C 0 km/h
982 18-10-2010 04:30:03 6.1 C 6.28 g/m*3 6.1 C 0 km/h
983 18-10-2010 04:42:03 6 C 6.24 g/m*3 6 C 0 km/h
984 18-10-2010 04:54:03 5.9 C 6.2 g/m*3 5.9 C 0 km/h
985 18-10-2010 05:06:03 5.9 C 6.13 g/m*3 5.9 C 0 km/h
986 18-10-2010 05:18:03 5.9 C 6.13 g/m*3 5.9 C 0 km/h
987 18-10-2010 05:30:03 5.8 C 6.09 g/m*3 5.8 C 0 km/h
988 18-10-2010 05:42:03 5.8 C 6.09 g/m*3 5.8 C 0 km/h
989 18-10-2010 05:54:03 5.8 C 6.09 g/m*3 5.8 C 0 km/h
990 18-10-2010 06:06:03 5.8 C 6.16 g/m*3 5.8 C 0 km/h
991 18-10-2010 06:18:04 5.8 C 6.16 g/m*3 5.8 C 0 km/h
992 18-10-2010 06:30:04 5.8 C 6.16 g/m*3 5.8 C 0 km/h
993 18-10-2010 06:42:04 5.8 C 6.16 g/m*3 5.8 C 0 km/h
994 18-10-2010 06:54:04 5.8 C 6.16 g/m*3 5.8 C 0 km/h
995 18-10-2010 07:06:02 5.8 C 6.16 g/m*3 5.8 C 0 km/h
996 18-10-2010 07:18:02 5.8 C 6.16 g/m*3 5.8 C 0 km/h
997 18-10-2010 07:30:02 5.8 C 6.16 g/m*3 5.8 C 0 km/h
998 18-10-2010 07:42:02 5.7 C 6.12 g/m*3 5.7 C 0 km/h
999 18-10-2010 07:54:02 5.7 C 6.12 g/m*3 5.7 C 0 km/h
1000 18-10-2010 08:06:02 5.7 C 6.19 g/m*3 5.7 C 0 km/h
Sensor: Nr:Datum:Temp:Abs-Feuchte:Windchill:Wind:
Aussen-T/F 1001 18-10-2010 08:18:02 5.7 C 6.12 g/m*3 5.7 C 0 km/h
1002 18-10-2010 08:30:02 5.7 C 6.19 g/m*3 5.7 C 0 km/h
1003 18-10-2010 08:42:02 5.8 C 6.23 g/m*3 5.8 C 0 km/h
1004 18-10-2010 08:54:02 6 C 6.24 g/m*3 6 C 0 km/h
1005 18-10-2010 09:06:02 6.2 C 6.32 g/m*3 6.2 C 0 km/h
1006 18-10-2010 09:18:02 6.3 C 6.37 g/m*3 6.3 C 0 km/h
1007 18-10-2010 09:30:02 6.7 C 6.46 g/m*3 6.7 C 0 km/h
1008 18-10-2010 09:42:01 6.9 C 6.54 g/m*3 6.9 C 0 km/h
1009 18-10-2010 09:54:02 7.2 C 6.52 g/m*3 7.2 C 0 km/h
1010 18-10-2010 10:06:01 7.4 C 6.6 g/m*3 7.4 C 0 km/h
1011 18-10-2010 10:18:02 7.6 C 6.36 g/m*3 7.6 C 0 km/h
1012 18-10-2010 10:30:03 7.6 C 5.88 g/m*3 7.6 C 0 km/h
1013 18-10-2010 10:42:01 7.6 C 5.56 g/m*3 7.6 C 0 km/h
1014 18-10-2010 10:54:02 7.6 C 5.56 g/m*3 7.6 C 0 km/h
1015 18-10-2010 11:06:02 7.5 C 5.12 g/m*3 7.5 C 0 km/h
1016 18-10-2010 11:18:02 7.6 C 5.08 g/m*3 7.6 C 0 km/h
1017 18-10-2010 11:30:02 7.8 C 5.14 g/m*3 7.8 C 0 km/h
1018 18-10-2010 11:42:02 8 C 4.96 g/m*3 8 C 0 km/h
1019 18-10-2010 11:54:02 7.9 C 5.01 g/m*3 7.9 C 0 km/h
1020 18-10-2010 12:06:02 8 C 4.96 g/m*3 8 C 0 km/h
1021 18-10-2010 12:18:01 8.3 C 5.06 g/m*3 8.3 C 0 km/h
1022 18-10-2010 12:30:01 8.4 C 5.01 g/m*3 8.4 C 0 km/h
1023 18-10-2010 12:42:02 8.2 C 4.94 g/m*3 8.2 C 0 km/h
1024 18-10-2010 12:54:02 8.4 C 4.92 g/m*3 8.4 C 0 km/h
1025 18-10-2010 13:06:02 9 C 4.85 g/m*3 9 C 0 km/h
Sensor: Nr:Datum:Temp:Abs-Feuchte:Windchill:Wind:
Aussen-T/F 1026 18-10-2010 13:18:02 8.7 C 4.76 g/m*3 8.7 C 0 km/h
1027 18-10-2010 13:30:02 8.7 C 4.76 g/m*3 8.7 C 0 km/h
1028 18-10-2010 13:42:02 8.8 C 4.96 g/m*3 8.8 C 0 km/h
1029 18-10-2010 13:54:01 8.9 C 4.91 g/m*3 8.9 C 0 km/h
1030 18-10-2010 14:06:02 9 C 4.94 g/m*3 9 C 0 km/h
1031 18-10-2010 14:18:01 8.8 C 4.79 g/m*3 8.8 C 0 km/h
1032 18-10-2010 14:30:01 8.8 C 4.87 g/m*3 8.8 C 0 km/h
1033 18-10-2010 14:42:01 8.8 C 4.87 g/m*3 8.8 C 0 km/h
1034 18-10-2010 14:54:01 9 C 4.85 g/m*3 9 C 0 km/h
1035 18-10-2010 15:06:02 8.9 C 4.82 g/m*3 8.9 C 0 km/h
1036 18-10-2010 15:18:01 8.7 C 4.76 g/m*3 8.7 C 0 km/h
1037 18-10-2010 15:30:01 8.7 C 4.84 g/m*3 8.7 C 0 km/h
1038 18-10-2010 15:42:01 8.7 C 4.93 g/m*3 8.7 C 0 km/h
1039 18-10-2010 15:54:01 8.7 C 4.93 g/m*3 8.7 C 0 km/h
1040 18-10-2010 16:06:01 8.7 C 4.84 g/m*3 8.7 C 0 km/h
1041 18-10-2010 16:18:02 8.6 C 4.81 g/m*3 8.6 C 0 km/h
1042 18-10-2010 16:30:02 8.7 C 4.84 g/m*3 8.7 C 0 km/h
1043 18-10-2010 16:42:01 8.9 C 4.99 g/m*3 8.9 C 0 km/h
1044 18-10-2010 16:54:03 8.8 C 5.05 g/m*3 8.8 C 0 km/h
1045 18-10-2010 17:06:02 8.8 C 5.05 g/m*3 8.8 C 0 km/h
1046 18-10-2010 17:18:02 8.7 C 4.84 g/m*3 8.7 C 0 km/h
1047 18-10-2010 17:30:02 8.5 C 4.78 g/m*3 8.5 C 0 km/h
1048 18-10-2010 17:42:02 8.4 C 4.84 g/m*3 8.4 C 0 km/h
1049 18-10-2010 17:54:02 8.2 C 4.77 g/m*3 8.2 C 0 km/h
1050 18-10-2010 18:06:01 8 C 4.88 g/m*3 8 C 0 km/h
Sensor: Nr:Datum:Temp:Abs-Feuchte:Windchill:Wind:
Aussen-T/F 1051 18-10-2010 18:18:02 7.9 C 5.01 g/m*3 7.9 C 0 km/h
1052 18-10-2010 18:30:02 7.8 C 5.06 g/m*3 7.8 C 0 km/h
1053 18-10-2010 18:42:02 7.7 C 5.03 g/m*3 7.7 C 0 km/h
1054 18-10-2010 18:54:02 7.4 C 4.85 g/m*3 7.4 C 0 km/h
1055 18-10-2010 19:06:01 6.8 C 4.82 g/m*3 6.8 C 0 km/h
1056 18-10-2010 19:18:01 6.6 C 4.83 g/m*3 6.6 C 0 km/h
1057 18-10-2010 19:30:01 6.3 C 4.89 g/m*3 6.3 C 0 km/h
1058 18-10-2010 19:42:02 6.1 C 4.89 g/m*3 6.1 C 0 km/h
1059 18-10-2010 19:54:02 5.8 C 5.01 g/m*3 5.8 C 0 km/h
1060 18-10-2010 20:06:02 5.7 C 5.05 g/m*3 5.7 C 0 km/h
1061 18-10-2010 20:18:01 5.7 C 5.05 g/m*3 5.7 C 0 km/h
1062 18-10-2010 20:30:01 5.6 C 5.02 g/m*3 5.6 C 0 km/h
1063 18-10-2010 20:42:02 5.5 C 5.06 g/m*3 5.5 C 0 km/h
1064 18-10-2010 20:54:02 5.5 C 5.06 g/m*3 5.5 C 0 km/h
1065 18-10-2010 21:06:02 5.3 C 4.99 g/m*3 5.3 C 0 km/h
1066 18-10-2010 21:18:02 5.3 C 5.06 g/m*3 5.3 C 0 km/h
1067 18-10-2010 21:30:02 5.3 C 5.06 g/m*3 5.3 C 0 km/h
1068 18-10-2010 21:42:02 5.1 C 4.99 g/m*3 5.1 C 0 km/h
1069 18-10-2010 21:54:02 4.9 C 5.06 g/m*3 4.9 C 0 km/h
1070 18-10-2010 22:06:02 5 C 5.03 g/m*3 5 C 0 km/h
1071 18-10-2010 22:18:02 5 C 5.03 g/m*3 5 C 0 km/h
1072 18-10-2010 22:30:02 5 C 5.03 g/m*3 5 C 0 km/h
1073 18-10-2010 22:42:02 4.8 C 5.1 g/m*3 4.8 C 0 km/h
1074 18-10-2010 22:54:02 4.8 C 5.1 g/m*3 4.8 C 0 km/h
1075 18-10-2010 23:06:02 4.8 C 5.1 g/m*3 4.8 C 0 km/h
Sensor: Nr:Datum:Temp:Abs-Feuchte:Windchill:Wind:
Aussen-T/F 1076 18-10-2010 23:18:02 4.9 C 5.13 g/m*3 4.9 C 0 km/h
1077 18-10-2010 23:30:02 4.9 C 5.2 g/m*3 4.9 C 0 km/h
1078 18-10-2010 23:42:02 4.9 C 5.2 g/m*3 4.9 C 0 km/h
1079 18-10-2010 23:54:02 4.8 C 5.23 g/m*3 4.8 C 0 km/h
1080 19-10-2010 00:06:01 5 C 5.23 g/m*3 5 C 0 km/h
1081 19-10-2010 00:18:02 5.1 C 5.2 g/m*3 5.1 C 0 km/h
1082 19-10-2010 00:30:02 5.1 C 5.27 g/m*3 5.1 C 0 km/h
1083 19-10-2010 00:42:01 5.2 C 5.23 g/m*3 5.2 C 0 km/h
1084 19-10-2010 00:54:02 5.3 C 5.27 g/m*3 5.3 C 0 km/h
1085 19-10-2010 01:06:01 5.4 C 5.23 g/m*3 5.4 C 0 km/h
1086 19-10-2010 01:18:02 5.4 C 5.23 g/m*3 5.4 C 0 km/h
1087 19-10-2010 01:30:02 5.4 C 5.3 g/m*3 5.4 C 0 km/h
1088 19-10-2010 01:42:01 5.4 C 5.3 g/m*3 5.4 C 0 km/h
1089 19-10-2010 01:54:02 5.5 C 5.27 g/m*3 5.5 C 0 km/h
1090 19-10-2010 02:06:02 5.6 C 5.23 g/m*3 5.6 C 0 km/h
1091 19-10-2010 02:18:02 5.6 C 5.23 g/m*3 5.6 C 0 km/h
1092 19-10-2010 02:30:02 5.6 C 5.3 g/m*3 5.6 C 0 km/h
1093 19-10-2010 02:42:03 5.4 C 5.37 g/m*3 5.4 C 0 km/h
1094 19-10-2010 02:55:04 5.3 C 5.48 g/m*3 5.3 C 0 km/h
1095 19-10-2010 03:07:04 5.3 C 5.54 g/m*3 5.3 C 0 km/h
1096 19-10-2010 03:19:03 5 C 5.64 g/m*3 5 C 0 km/h
1097 19-10-2010 03:31:02 4.9 C 5.81 g/m*3 4.9 C 0 km/h
1098 19-10-2010 03:43:02 4.8 C 5.83 g/m*3 4.8 C 0 km/h
1099 19-10-2010 03:55:02 4.8 C 5.9 g/m*3 4.8 C 0 km/h
1100 19-10-2010 04:07:01 4.8 C 5.97 g/m*3 4.8 C 0 km/h
Sensor: Nr:Datum:Temp:Abs-Feuchte:Windchill:Wind:
Aussen-T/F 1101 19-10-2010 04:19:01 4.9 C 6.08 g/m*3 4.9 C 0 km/h
1102 19-10-2010 04:31:02 5 C 6.05 g/m*3 5 C 0 km/h
1103 19-10-2010 04:43:02 5.2 C 6.06 g/m*3 5.2 C 0 km/h
1104 19-10-2010 04:55:02 5.3 C 6.03 g/m*3 5.3 C 0 km/h
1105 19-10-2010 05:07:02 5.4 C 6 g/m*3 5.4 C 0 km/h
1106 19-10-2010 05:19:02 5.5 C 5.97 g/m*3 5.5 C 0 km/h
1107 19-10-2010 05:31:02 5.5 C 6.04 g/m*3 5.5 C 0 km/h
1108 19-10-2010 05:43:02 5.4 C 6.14 g/m*3 5.4 C 0 km/h
1109 19-10-2010 05:55:01 5.3 C 6.17 g/m*3 5.3 C 0 km/h
1110 19-10-2010 06:07:02 5.3 C 6.17 g/m*3 5.3 C 0 km/h
1111 19-10-2010 06:19:01 5.5 C 6.32 g/m*3 5.5 C 0 km/h
1112 19-10-2010 06:31:01 5.7 C 6.33 g/m*3 5.7 C 0 km/h
1113 19-10-2010 06:43:02 5.7 C 6.33 g/m*3 5.7 C 0 km/h
1114 19-10-2010 06:55:02 5.8 C 6.38 g/m*3 5.8 C 0 km/h
1115 19-10-2010 07:07:02 5.9 C 6.42 g/m*3 5.9 C 0 km/h
1116 19-10-2010 07:19:02 5.9 C 6.42 g/m*3 5.9 C 0 km/h
1117 19-10-2010 07:31:02 6 C 6.39 g/m*3 6 C 0 km/h
1118 19-10-2010 07:43:02 6 C 6.31 g/m*3 6 C 0 km/h
1119 19-10-2010 07:55:02 6.1 C 6.36 g/m*3 6.1 C 0 km/h
1120 19-10-2010 08:07:02 6.1 C 6.36 g/m*3 6.1 C 0 km/h
1121 19-10-2010 08:19:02 6 C 6.39 g/m*3 6 C 0 km/h
1122 19-10-2010 08:31:02 5.9 C 6.42 g/m*3 5.9 C 0 km/h
1123 19-10-2010 08:43:03 5.9 C 6.49 g/m*3 5.9 C 0 km/h
1124 19-10-2010 08:55:02 6 C 6.46 g/m*3 6 C 0 km/h
1125 19-10-2010 09:07:02 6.2 C 6.55 g/m*3 6.2 C 0 km/h
Sensor: Nr:Datum:Temp:Abs-Feuchte:Windchill:Wind:
Aussen-T/F 1126 19-10-2010 09:19:02 6.4 C 6.63 g/m*3 6.4 C 0 km/h
1127 19-10-2010 09:31:02 6.6 C 6.64 g/m*3 6.6 C 0 km/h
1128 19-10-2010 09:43:02 6.7 C 6.61 g/m*3 6.7 C 0 km/h
1129 19-10-2010 09:55:02 6.8 C 6.65 g/m*3 6.8 C 0 km/h
1130 19-10-2010 10:07:02 7.1 C 6.63 g/m*3 7.1 C 0 km/h
1131 19-10-2010 10:19:03 7.3 C 6.64 g/m*3 7.3 C 0 km/h
1132 19-10-2010 10:31:02 7.4 C 6.68 g/m*3 7.4 C 0 km/h
1133 19-10-2010 10:43:02 7.4 C 6.6 g/m*3 7.4 C 0 km/h
1134 19-10-2010 10:55:02 7.5 C 6.72 g/m*3 7.5 C 0 km/h
1135 19-10-2010 11:07:02 7.3 C 6.72 g/m*3 7.3 C 0 km/h
1136 19-10-2010 11:19:02 7.4 C 6.92 g/m*3 7.4 C 0 km/h
1137 19-10-2010 11:31:02 7.5 C 6.96 g/m*3 7.5 C 0 km/h
1138 19-10-2010 11:43:02 7.6 C 7.01 g/m*3 7.6 C 0 km/h
1139 19-10-2010 11:55:02 7.7 C 7.05 g/m*3 7.7 C 0 km/h
1140 19-10-2010 12:07:01 7.9 C 7.06 g/m*3 7.9 C 0 km/h
1141 19-10-2010 12:19:02 8 C 6.94 g/m*3 8 C 0 km/h
1142 19-10-2010 12:31:01 7.9 C 7.06 g/m*3 7.9 C 0 km/h
1143 19-10-2010 12:43:01 8 C 7.11 g/m*3 8 C 0 km/h
1144 19-10-2010 12:55:02 8.1 C 7.24 g/m*3 8.1 C 0 km/h
1145 19-10-2010 13:07:02 8.5 C 7.43 g/m*3 8.5 C 0 km/h
1146 19-10-2010 13:19:02 8.9 C 7.62 g/m*3 8.9 C 0 km/h
1147 19-10-2010 13:31:02 9 C 7.49 g/m*3 9 C 0 km/h
1148 19-10-2010 13:43:02 9.3 C 7.46 g/m*3 9.3 C 0 km/h
1149 19-10-2010 13:55:02 9.7 C 7.38 g/m*3 9.7 C 0 km/h
1150 19-10-2010 14:07:02 10 C 7.24 g/m*3 10 C 0 km/h
Sensor: Nr:Datum:Temp:Abs-Feuchte:Windchill:Wind:
Aussen-T/F 1151 19-10-2010 14:19:02 9.7 C 7.19 g/m*3 9.7 C 0 km/h
1152 19-10-2010 14:31:01 9.7 C 7.47 g/m*3 9.7 C 0 km/h
1153 19-10-2010 14:43:01 9.6 C 7.6 g/m*3 9.6 C 0 km/h
1154 19-10-2010 14:55:02 10 C 7.61 g/m*3 10 C 0 km/h
1155 19-10-2010 15:07:01 9.8 C 7.42 g/m*3 9.8 C 0 km/h
1156 19-10-2010 15:19:01 10.2 C 7.33 g/m*3 10.2 C 0 km/h
1157 19-10-2010 15:31:02 10.3 C 7.18 g/m*3 10.3 C 0 km/h
1158 19-10-2010 15:43:02 10.2 C 7.23 g/m*3 10.2 C 0 km/h
1159 19-10-2010 15:55:02 11.2 C 7.7 g/m*3 11.2 C 0 km/h
1160 19-10-2010 16:07:02 12.6 C 7.52 g/m*3 12.6 C 0 km/h
1161 19-10-2010 16:19:02 14.2 C 7.45 g/m*3 14.2 C 0 km/h
1162 19-10-2010 16:31:02 14.1 C 6.43 g/m*3 14.1 C 0 km/h
1163 19-10-2010 16:43:02 11 C 6.41 g/m*3 11 C 0 km/h
1164 19-10-2010 16:55:02 10.4 C 7.04 g/m*3 10.4 C 0 km/h
1165 19-10-2010 17:07:03 9.9 C 7.28 g/m*3 9.9 C 0 km/h
1166 19-10-2010 17:19:02 9.7 C 7.1 g/m*3 9.7 C 0 km/h
1167 19-10-2010 17:31:02 10.1 C 7 g/m*3 10.1 C 0 km/h
1168 19-10-2010 17:43:02 10.8 C 7.41 g/m*3 10.8 C 0 km/h
1169 19-10-2010 17:55:01 11 C 7.31 g/m*3 11 C 0 km/h
1170 19-10-2010 18:07:02 10.3 C 6.99 g/m*3 10.3 C 0 km/h
1171 19-10-2010 18:19:02 9.3 C 6.92 g/m*3 9.3 C 0 km/h
1172 19-10-2010 18:31:01 8.9 C 7.01 g/m*3 8.9 C 0 km/h
1173 19-10-2010 18:43:01 8.4 C 6.87 g/m*3 8.4 C 0 km/h
1174 19-10-2010 18:55:01 8.3 C 7 g/m*3 8.3 C 0 km/h
1175 19-10-2010 19:07:01 8.1 C 6.91 g/m*3 8.1 C 0 km/h
Sensor: Nr:Datum:Temp:Abs-Feuchte:Windchill:Wind:
Aussen-T/F 1176 19-10-2010 19:19:02 8 C 6.86 g/m*3 8 C 0 km/h
1177 19-10-2010 19:31:01 8.1 C 6.99 g/m*3 8.1 C 0 km/h
1178 19-10-2010 19:43:01 7.9 C 6.9 g/m*3 7.9 C 0 km/h
1179 19-10-2010 19:55:02 7.8 C 6.61 g/m*3 7.8 C 0 km/h
1180 19-10-2010 20:07:01 7.4 C 6.44 g/m*3 7.4 C 0 km/h
1181 19-10-2010 20:19:01 7.4 C 6.52 g/m*3 7.4 C 0 km/h
1182 19-10-2010 20:31:01 7.3 C 6.4 g/m*3 7.3 C 0 km/h
1183 19-10-2010 20:43:01 7.3 C 6.48 g/m*3 7.3 C 0 km/h
1184 19-10-2010 20:55:02 7.4 C 6.44 g/m*3 7.4 C 0 km/h
1185 19-10-2010 21:07:02 7.4 C 6.36 g/m*3 7.4 C 0 km/h
1186 19-10-2010 21:19:02 7 C 6.2 g/m*3 7 C 0 km/h
1187 19-10-2010 21:31:02 6.9 C 6.24 g/m*3 6.9 C 0 km/h
1188 19-10-2010 21:43:02 6.7 C 6.15 g/m*3 6.7 C 0 km/h
1189 19-10-2010 21:55:02 6.7 C 6.15 g/m*3 6.7 C 0 km/h
1190 19-10-2010 22:07:02 6.5 C 6.15 g/m*3 6.5 C 0 km/h
1191 19-10-2010 22:20:03 6.5 C 6.15 g/m*3 6.5 C 0 km/h
1192 19-10-2010 22:32:03 6.5 C 6.15 g/m*3 6.5 C 0 km/h
1193 19-10-2010 22:44:03 6.5 C 6.15 g/m*3 6.5 C 0 km/h
1194 19-10-2010 22:56:03 6.6 C 6.19 g/m*3 6.6 C 0 km/h
1195 19-10-2010 23:08:03 6.7 C 6.23 g/m*3 6.7 C 0 km/h
1196 19-10-2010 23:20:03 6.7 C 6.23 g/m*3 6.7 C 0 km/h
1197 19-10-2010 23:32:04 6.5 C 6.15 g/m*3 6.5 C 0 km/h
1198 19-10-2010 23:44:04 6.4 C 6.18 g/m*3 6.4 C 0 km/h
1199 19-10-2010 23:56:04 6.4 C 6.18 g/m*3 6.4 C 0 km/h
1200 20-10-2010 00:08:04 6.3 C 6.14 g/m*3 6.3 C 0 km/h
Sensor: Nr:Datum:Temp:Abs-Feuchte:Windchill:Wind:
Aussen-T/F 1201 20-10-2010 00:20:04 6.4 C 6.18 g/m*3 6.4 C 0 km/h
1202 20-10-2010 00:32:04 6.2 C 6.1 g/m*3 6.2 C 0 km/h
1203 20-10-2010 00:44:04 6.4 C 6.18 g/m*3 6.4 C 0 km/h
1204 20-10-2010 00:56:04 6.4 C 6.18 g/m*3 6.4 C 0 km/h
1205 20-10-2010 01:08:04 6.4 C 6.18 g/m*3 6.4 C 0 km/h
1206 20-10-2010 01:20:04 6.5 C 6.15 g/m*3 6.5 C 0 km/h
1207 20-10-2010 01:32:04 6.4 C 6.11 g/m*3 6.4 C 0 km/h
1208 20-10-2010 01:44:04 6.4 C 6.18 g/m*3 6.4 C 0 km/h
1209 20-10-2010 01:56:04 6.2 C 6.18 g/m*3 6.2 C 0 km/h
1210 20-10-2010 02:08:04 6.1 C 6.28 g/m*3 6.1 C 0 km/h
1211 20-10-2010 02:20:04 6 C 6.31 g/m*3 6 C 0 km/h
1212 20-10-2010 02:32:04 5.9 C 6.42 g/m*3 5.9 C 0 km/h
1213 20-10-2010 02:44:04 5.9 C 6.49 g/m*3 5.9 C 0 km/h
1214 20-10-2010 02:56:04 5.8 C 6.45 g/m*3 5.8 C 0 km/h
1215 20-10-2010 03:08:04 5.8 C 6.52 g/m*3 5.8 C 0 km/h
1216 20-10-2010 03:20:04 5.7 C 6.48 g/m*3 5.7 C 0 km/h
1217 20-10-2010 03:32:04 5.7 C 6.48 g/m*3 5.7 C 0 km/h
1218 20-10-2010 03:44:05 5.8 C 6.59 g/m*3 5.8 C 0 km/h
1219 20-10-2010 03:56:05 5.8 C 6.59 g/m*3 5.8 C 0 km/h
1220 20-10-2010 04:08:05 5.8 C 6.52 g/m*3 5.8 C 0 km/h
1221 20-10-2010 04:20:05 5.8 C 6.52 g/m*3 5.8 C 0 km/h
1222 20-10-2010 04:32:05 5.9 C 6.56 g/m*3 5.9 C 0 km/h
1223 20-10-2010 04:44:05 5.9 C 6.49 g/m*3 5.9 C 0 km/h
1224 20-10-2010 04:56:05 5.8 C 6.45 g/m*3 5.8 C 0 km/h
1225 20-10-2010 05:08:05 5.7 C 6.48 g/m*3 5.7 C 0 km/h
Sensor: Nr:Datum:Temp:Abs-Feuchte:Windchill:Wind:
Aussen-T/F 1226 20-10-2010 05:20:05 5.7 C 6.55 g/m*3 5.7 C 0 km/h
1227 20-10-2010 05:32:05 5.6 C 6.57 g/m*3 5.6 C 0 km/h
1228 20-10-2010 05:44:05 5.6 C 6.57 g/m*3 5.6 C 0 km/h
1229 20-10-2010 05:56:05 5.5 C 6.6 g/m*3 5.5 C 0 km/h
1230 20-10-2010 06:08:05 5.5 C 6.6 g/m*3 5.5 C 0 km/h
1231 20-10-2010 06:20:05 5.5 C 6.6 g/m*3 5.5 C 0 km/h
1232 20-10-2010 06:32:05 5.5 C 6.6 g/m*3 5.5 C 0 km/h
1233 20-10-2010 06:44:05 5.5 C 6.6 g/m*3 5.5 C 0 km/h
1234 20-10-2010 06:56:05 5.6 C 6.65 g/m*3 5.6 C 0 km/h
1235 20-10-2010 07:08:05 5.5 C 6.67 g/m*3 5.5 C 0 km/h
1236 20-10-2010 07:20:05 5.5 C 6.67 g/m*3 5.5 C 0 km/h
1237 20-10-2010 07:32:05 5.5 C 6.67 g/m*3 5.5 C 0 km/h
1238 20-10-2010 07:44:05 5.5 C 6.6 g/m*3 5.5 C 0 km/h
1239 20-10-2010 07:56:06 5.5 C 6.6 g/m*3 5.5 C 0 km/h
1240 20-10-2010 08:08:03 5.5 C 6.6 g/m*3 5.5 C 0 km/h
1241 20-10-2010 08:20:04 5.5 C 6.6 g/m*3 5.5 C 0 km/h
1242 20-10-2010 08:32:03 5.6 C 6.65 g/m*3 5.6 C 0 km/h
1243 20-10-2010 08:44:03 5.6 C 6.65 g/m*3 5.6 C 0 km/h
1244 20-10-2010 08:56:02 5.8 C 6.81 g/m*3 5.8 C 0 km/h
1245 20-10-2010 09:08:02 5.8 C 6.81 g/m*3 5.8 C 0 km/h
1246 20-10-2010 09:20:02 5.8 C 6.73 g/m*3 5.8 C 0 km/h
1247 20-10-2010 09:32:02 5.9 C 6.78 g/m*3 5.9 C 0 km/h
1248 20-10-2010 09:44:02 6.1 C 6.87 g/m*3 6.1 C 0 km/h
1249 20-10-2010 09:56:02 6.4 C 7 g/m*3 6.4 C 0 km/h
1250 20-10-2010 10:08:01 6.8 C 7.11 g/m*3 6.8 C 0 km/h
Sensor: Nr:Datum:Temp:Abs-Feuchte:Windchill:Wind:
Aussen-T/F 1251 20-10-2010 10:20:02 6.8 C 7.04 g/m*3 6.8 C 0 km/h
1252 20-10-2010 10:32:02 7 C 6.97 g/m*3 7 C 0 km/h
1253 20-10-2010 10:44:02 7.1 C 6.94 g/m*3 7.1 C 0 km/h
1254 20-10-2010 10:56:01 6.9 C 6.7 g/m*3 6.9 C 0 km/h
1255 20-10-2010 11:08:02 6.9 C 6.54 g/m*3 6.9 C 0 km/h
1256 20-10-2010 11:20:01 6.9 C 6.54 g/m*3 6.9 C 0 km/h
1257 20-10-2010 11:32:02 6.9 C 6.54 g/m*3 6.9 C 0 km/h
1258 20-10-2010 11:44:02 6.8 C 6.35 g/m*3 6.8 C 0 km/h
1259 20-10-2010 11:56:02 6.7 C 6.23 g/m*3 6.7 C 0 km/h
1260 20-10-2010 12:08:02 6.7 C 6.23 g/m*3 6.7 C 0 km/h
1261 20-10-2010 12:20:01 7 C 6.43 g/m*3 7 C 0 km/h
1262 20-10-2010 12:32:02 6.9 C 6.47 g/m*3 6.9 C 0 km/h
1263 20-10-2010 12:44:02 6.9 C 6.39 g/m*3 6.9 C 0 km/h
1264 20-10-2010 12:56:02 7.1 C 6.4 g/m*3 7.1 C 0 km/h
1265 20-10-2010 13:08:02 7.4 C 6.44 g/m*3 7.4 C 0 km/h
1266 20-10-2010 13:20:01 7.6 C 6.36 g/m*3 7.6 C 0 km/h
1267 20-10-2010 13:32:02 7.9 C 6.32 g/m*3 7.9 C 0 km/h
1268 20-10-2010 13:44:02 8.4 C 6.02 g/m*3 8.4 C 0 km/h
1269 20-10-2010 13:56:02 8.3 C 5.82 g/m*3 8.3 C 0 km/h
1270 20-10-2010 14:08:02 8.4 C 5.77 g/m*3 8.4 C 0 km/h
1271 20-10-2010 14:20:02 9.2 C 5.98 g/m*3 9.2 C 0 km/h
1272 20-10-2010 14:32:02 9.5 C 5.73 g/m*3 9.5 C 0 km/h
1273 20-10-2010 14:44:02 10.2 C 5.71 g/m*3 10.2 C 0 km/h
1274 20-10-2010 14:56:02 10.1 C 5.11 g/m*3 10.1 C 0 km/h
1275 20-10-2010 15:08:02 7.8 C 5.22 g/m*3 7.8 C 0 km/h
Sensor: Nr:Datum:Temp:Abs-Feuchte:Windchill:Wind:
Aussen-T/F 1276 20-10-2010 15:20:02 7.2 C 5.65 g/m*3 7.2 C 0 km/h
1277 20-10-2010 15:32:02 7.6 C 5.72 g/m*3 7.6 C 0 km/h
1278 20-10-2010 15:44:02 7.8 C 5.63 g/m*3 7.8 C 0 km/h
1279 20-10-2010 15:56:02 8 C 5.54 g/m*3 8 C 0 km/h
1280 20-10-2010 16:08:01 8.2 C 5.28 g/m*3 8.2 C 0 km/h
1281 20-10-2010 16:20:02 7.6 C 5.16 g/m*3 7.6 C 0 km/h
1282 20-10-2010 16:32:02 7 C 4.88 g/m*3 7 C 0 km/h
1283 20-10-2010 16:44:02 6.9 C 4.93 g/m*3 6.9 C 0 km/h
1284 20-10-2010 16:56:02 7.1 C 5.07 g/m*3 7.1 C 0 km/h
1285 20-10-2010 17:08:01 7.3 C 4.9 g/m*3 7.3 C 0 km/h
1286 20-10-2010 17:20:01 7.3 C 4.66 g/m*3 7.3 C 0 km/h
1287 20-10-2010 17:32:02 6.9 C 4.93 g/m*3 6.9 C 0 km/h
1288 20-10-2010 17:44:02 6.9 C 5.08 g/m*3 6.9 C 0 km/h
1289 20-10-2010 17:56:02 6.7 C 5.01 g/m*3 6.7 C 0 km/h
1290 20-10-2010 18:08:02 6.4 C 4.99 g/m*3 6.4 C 0 km/h
1291 20-10-2010 18:20:02 6.2 C 5 g/m*3 6.2 C 0 km/h
1292 20-10-2010 18:32:02 6.3 C 5.11 g/m*3 6.3 C 0 km/h
1293 20-10-2010 18:44:02 6.3 C 5.03 g/m*3 6.3 C 0 km/h
1294 20-10-2010 18:56:02 6.4 C 5.07 g/m*3 6.4 C 0 km/h
1295 20-10-2010 19:08:02 5.5 C 4.99 g/m*3 5.5 C 0 km/h
1296 20-10-2010 19:20:02 4.7 C 5.13 g/m*3 4.7 C 0 km/h
1297 20-10-2010 19:32:02 4.5 C 5.32 g/m*3 4.5 C 0 km/h
1298 20-10-2010 19:44:02 4.2 C 5.35 g/m*3 4.2 C 0 km/h
1299 20-10-2010 19:56:01 4.3 C 5.38 g/m*3 4.3 C 0 km/h
1300 20-10-2010 20:08:01 4.5 C 5.39 g/m*3 4.5 C 0 km/h
Sensor: Nr:Datum:Temp:Abs-Feuchte:Windchill:Wind:
Aussen-T/F 1301 20-10-2010 20:20:02 4.5 C 5.32 g/m*3 4.5 C 0 km/h
1302 20-10-2010 20:32:01 4.5 C 5.26 g/m*3 4.5 C 0 km/h
1303 20-10-2010 20:44:01 4.7 C 5.2 g/m*3 4.7 C 0 km/h
1304 20-10-2010 20:56:01 4.5 C 5.06 g/m*3 4.5 C 0 km/h
1305 20-10-2010 21:08:01 4.5 C 5.13 g/m*3 4.5 C 0 km/h
1306 20-10-2010 21:20:02 4.5 C 5.13 g/m*3 4.5 C 0 km/h
1307 20-10-2010 21:32:01 4.5 C 5.13 g/m*3 4.5 C 0 km/h
1308 20-10-2010 21:44:01 4.5 C 5.13 g/m*3 4.5 C 0 km/h
1309 20-10-2010 21:56:03 4.3 C 5.06 g/m*3 4.3 C 0 km/h
1310 20-10-2010 22:08:02 4.2 C 5.09 g/m*3 4.2 C 0 km/h
1311 20-10-2010 22:20:02 4.4 C 5.09 g/m*3 4.4 C 0 km/h
1312 20-10-2010 22:32:02 4.6 C 5.16 g/m*3 4.6 C 0 km/h
1313 20-10-2010 22:44:02 4.6 C 5.03 g/m*3 4.6 C 0 km/h
1314 20-10-2010 22:57:04 4.6 C 4.96 g/m*3 4.6 C 0 km/h
1315 20-10-2010 23:09:04 4.5 C 5 g/m*3 4.5 C 0 km/h
1316 20-10-2010 23:21:04 4.2 C 5.03 g/m*3 4.2 C 0 km/h
1317 20-10-2010 23:33:04 4.3 C 5.06 g/m*3 4.3 C 0 km/h
1318 20-10-2010 23:45:04 4.2 C 5.03 g/m*3 4.2 C 0 km/h
1319 20-10-2010 23:57:04 4.4 C 5.16 g/m*3 4.4 C 0 km/h
1320 21-10-2010 00:09:04 4.5 C 5.13 g/m*3 4.5 C 0 km/h
1321 21-10-2010 00:21:04 4.5 C 5.06 g/m*3 4.5 C 0 km/h
1322 21-10-2010 00:33:04 4.6 C 5.1 g/m*3 4.6 C 0 km/h
1323 21-10-2010 00:45:04 4.7 C 5.13 g/m*3 4.7 C 0 km/h
1324 21-10-2010 00:57:04 4.7 C 5.13 g/m*3 4.7 C 0 km/h
1325 21-10-2010 01:09:04 4.6 C 5.1 g/m*3 4.6 C 0 km/h
Sensor: Nr:Datum:Temp:Abs-Feuchte:Windchill:Wind:
Aussen-T/F 1326 21-10-2010 01:21:04 4.5 C 5.06 g/m*3 4.5 C 0 km/h
1327 21-10-2010 01:33:04 4.3 C 4.99 g/m*3 4.3 C 0 km/h
1328 21-10-2010 01:45:04 4.5 C 5.06 g/m*3 4.5 C 0 km/h
1329 21-10-2010 01:57:04 4.3 C 4.99 g/m*3 4.3 C 0 km/h
1330 21-10-2010 02:09:04 4.1 C 4.93 g/m*3 4.1 C 0 km/h
1331 21-10-2010 02:21:04 3.8 C 4.96 g/m*3 3.8 C 0 km/h
1332 21-10-2010 02:33:05 3.7 C 4.99 g/m*3 3.7 C 0 km/h
1333 21-10-2010 02:45:05 3.6 C 5.01 g/m*3 3.6 C 0 km/h
1334 21-10-2010 02:57:05 3.5 C 4.98 g/m*3 3.5 C 0 km/h
1335 21-10-2010 03:09:05 3.5 C 4.98 g/m*3 3.5 C 0 km/h
1336 21-10-2010 03:21:05 3.4 C 5.01 g/m*3 3.4 C 0 km/h
1337 21-10-2010 03:33:05 3.4 C 5.01 g/m*3 3.4 C 0 km/h
1338 21-10-2010 03:45:05 3.3 C 4.97 g/m*3 3.3 C 0 km/h
1339 21-10-2010 03:57:05 3 C 4.93 g/m*3 3 C 0 km/h
1340 21-10-2010 04:09:05 3 C 4.93 g/m*3 3 C 0 km/h
1341 21-10-2010 04:21:05 3 C 4.99 g/m*3 3 C 0 km/h
1342 21-10-2010 04:33:05 2.5 C 4.83 g/m*3 2.5 C 0 km/h
1343 21-10-2010 04:45:05 2.3 C 4.82 g/m*3 2.3 C 0 km/h
1344 21-10-2010 04:57:05 2.4 C 4.91 g/m*3 2.4 C 0 km/h
1345 21-10-2010 05:09:05 2.4 C 4.97 g/m*3 2.4 C 0 km/h
1346 21-10-2010 05:21:05 2.1 C 4.87 g/m*3 2.1 C 0 km/h
1347 21-10-2010 05:33:05 1.8 C 4.77 g/m*3 1.8 C 0 km/h
1348 21-10-2010 05:45:05 1.6 C 4.7 g/m*3 1.6 C 0 km/h
1349 21-10-2010 05:57:05 1.7 C 4.79 g/m*3 1.7 C 0 km/h
1350 21-10-2010 06:09:05 1.5 C 4.73 g/m*3 1.5 C 0 km/h
Sensor: Nr:Datum:Temp:Abs-Feuchte:Windchill:Wind:
Aussen-T/F 1351 21-10-2010 06:21:05 1.6 C 4.81 g/m*3 1.6 C 0 km/h
1352 21-10-2010 06:33:06 1.8 C 4.93 g/m*3 1.8 C 0 km/h
1353 21-10-2010 06:45:06 1.8 C 4.99 g/m*3 1.8 C 0 km/h
1354 21-10-2010 06:57:06 1.8 C 5.04 g/m*3 1.8 C 0 km/h
1355 21-10-2010 07:09:06 1.7 C 5.01 g/m*3 1.7 C 0 km/h
1356 21-10-2010 07:21:06 1.8 C 5.04 g/m*3 1.8 C 0 km/h
1357 21-10-2010 07:33:06 1.6 C 4.97 g/m*3 1.6 C 0 km/h
1358 21-10-2010 07:45:06 1.6 C 4.97 g/m*3 1.6 C 0 km/h
1359 21-10-2010 07:57:06 1.6 C 4.97 g/m*3 1.6 C 0 km/h
1360 21-10-2010 08:09:06 1.7 C 5.01 g/m*3 1.7 C 0 km/h
1361 21-10-2010 08:21:03 1.8 C 5.04 g/m*3 1.8 C 0 km/h
1362 21-10-2010 08:33:04 1.9 C 5.08 g/m*3 1.9 C 0 km/h
1363 21-10-2010 08:45:02 2.5 C 5.29 g/m*3 2.5 C 0 km/h
1364 21-10-2010 08:57:03 2.6 C 5.27 g/m*3 2.6 C 0 km/h
1365 21-10-2010 09:09:02 2.6 C 5.27 g/m*3 2.6 C 0 km/h
1366 21-10-2010 09:21:02 2.8 C 5.28 g/m*3 2.8 C 0 km/h
1367 21-10-2010 09:33:02 3 C 5.23 g/m*3 3 C 0 km/h
1368 21-10-2010 09:45:01 3.2 C 5.24 g/m*3 3.2 C 0 km/h
1369 21-10-2010 09:57:01 3.4 C 5.19 g/m*3 3.4 C 0 km/h
1370 21-10-2010 10:09:02 3.7 C 5.17 g/m*3 3.7 C 0 km/h
1371 21-10-2010 10:21:01 3.9 C 5.05 g/m*3 3.9 C 0 km/h
1372 21-10-2010 10:33:02 4.1 C 4.99 g/m*3 4.1 C 0 km/h
1373 21-10-2010 10:45:02 4.3 C 4.99 g/m*3 4.3 C 0 km/h
1374 21-10-2010 10:57:02 4.8 C 5.1 g/m*3 4.8 C 0 km/h
1375 21-10-2010 11:09:02 5.1 C 4.99 g/m*3 5.1 C 0 km/h
Sensor: Nr:Datum:Temp:Abs-Feuchte:Windchill:Wind:
Aussen-T/F 1376 21-10-2010 11:21:01 5.4 C 5.09 g/m*3 5.4 C 0 km/h
1377 21-10-2010 11:33:02 5.7 C 4.98 g/m*3 5.7 C 0 km/h
1378 21-10-2010 11:45:02 5.9 C 4.98 g/m*3 5.9 C 0 km/h
1379 21-10-2010 11:57:02 6.1 C 4.89 g/m*3 6.1 C 0 km/h
1380 21-10-2010 12:09:02 6.4 C 4.84 g/m*3 6.4 C 0 km/h
1381 21-10-2010 12:21:01 6.7 C 4.71 g/m*3 6.7 C 0 km/h
1382 21-10-2010 12:33:02 7 C 4.57 g/m*3 7 C 0 km/h
1383 21-10-2010 12:45:02 7.2 C 4.47 g/m*3 7.2 C 0 km/h
1384 21-10-2010 12:57:02 7.6 C 4.51 g/m*3 7.6 C 0 km/h
1385 21-10-2010 13:09:02 7.9 C 4.44 g/m*3 7.9 C 0 km/h
1386 21-10-2010 13:21:02 8.3 C 4.3 g/m*3 8.3 C 0 km/h
1387 21-10-2010 13:33:02 8.7 C 4.06 g/m*3 8.7 C 0 km/h
1388 21-10-2010 13:45:02 9.1 C 3.99 g/m*3 9.1 C 0 km/h
1389 21-10-2010 13:57:02 9.5 C 3.82 g/m*3 9.5 C 0 km/h
1390 21-10-2010 14:09:02 9.9 C 3.92 g/m*3 9.9 C 0 km/h
1391 21-10-2010 14:21:02 10.1 C 3.78 g/m*3 10.1 C 0 km/h
1392 21-10-2010 14:33:01 10.5 C 3.88 g/m*3 10.5 C 0 km/h
1393 21-10-2010 14:45:02 10.6 C 3.9 g/m*3 10.6 C 0 km/h
1394 21-10-2010 14:57:02 10.8 C 3.85 g/m*3 10.8 C 0 km/h
1395 21-10-2010 15:09:01 10.7 C 3.63 g/m*3 10.7 C 0 km/h
1396 21-10-2010 15:21:02 10.6 C 3.61 g/m*3 10.6 C 0 km/h
1397 21-10-2010 15:33:01 10.6 C 3.51 g/m*3 10.6 C 0 km/h
1398 21-10-2010 15:45:02 10.7 C 3.73 g/m*3 10.7 C 0 km/h
1399 21-10-2010 15:57:03 10.7 C 3.63 g/m*3 10.7 C 0 km/h
1400 21-10-2010 16:09:02 10.9 C 3.78 g/m*3 10.9 C 0 km/h
Sensor: Nr:Datum:Temp:Abs-Feuchte:Windchill:Wind:
Aussen-T/F 1401 21-10-2010 16:21:02 10.6 C 3.61 g/m*3 10.6 C 0 km/h
1402 21-10-2010 16:33:02 10.2 C 3.52 g/m*3 10.2 C 0 km/h
1403 21-10-2010 16:45:02 9.9 C 3.64 g/m*3 9.9 C 0 km/h
1404 21-10-2010 16:57:02 10.4 C 3.66 g/m*3 10.4 C 0 km/h
1405 21-10-2010 17:09:02 11.2 C 3.65 g/m*3 11.2 C 0 km/h
1406 21-10-2010 17:21:01 11.4 C 3.59 g/m*3 11.4 C 0 km/h
1407 21-10-2010 17:33:02 11.3 C 3.47 g/m*3 11.3 C 0 km/h
1408 21-10-2010 17:45:02 10.9 C 3.58 g/m*3 10.9 C 0 km/h
1409 21-10-2010 17:57:02 10 C 3.48 g/m*3 10 C 0 km/h
1410 21-10-2010 18:09:02 8.9 C 3.94 g/m*3 8.9 C 0 km/h
1411 21-10-2010 18:21:01 7.8 C 3.92 g/m*3 7.8 C 0 km/h
1412 21-10-2010 18:33:02 7.2 C 3.92 g/m*3 7.2 C 0 km/h
1413 21-10-2010 18:45:02 6.7 C 4.03 g/m*3 6.7 C 0 km/h
1414 21-10-2010 18:57:02 6.3 C 4.07 g/m*3 6.3 C 0 km/h
1415 21-10-2010 19:09:02 6.1 C 4.02 g/m*3 6.1 C 0 km/h
1416 21-10-2010 19:21:01 5.8 C 4.01 g/m*3 5.8 C 0 km/h
1417 21-10-2010 19:33:02 5.6 C 4.03 g/m*3 5.6 C 0 km/h
1418 21-10-2010 19:45:02 5.5 C 4.07 g/m*3 5.5 C 0 km/h
1419 21-10-2010 19:57:02 5.2 C 4.13 g/m*3 5.2 C 0 km/h
1420 21-10-2010 20:09:02 5 C 4.08 g/m*3 5 C 0 km/h
1421 21-10-2010 20:21:02 4.8 C 4.09 g/m*3 4.8 C 0 km/h
1422 21-10-2010 20:33:02 4.7 C 4.06 g/m*3 4.7 C 0 km/h
1423 21-10-2010 20:45:02 4.7 C 3.86 g/m*3 4.7 C 0 km/h
1424 21-10-2010 20:57:02 5.1 C 3.69 g/m*3 5.1 C 0 km/h
1425 21-10-2010 21:09:02 5 C 3.6 g/m*3 5 C 0 km/h
Sensor: Nr:Datum:Temp:Abs-Feuchte:Windchill:Wind:
Aussen-T/F 1426 21-10-2010 21:21:02 4.9 C 3.71 g/m*3 4.9 C 0 km/h
1427 21-10-2010 21:33:02 4.6 C 3.77 g/m*3 4.6 C 0 km/h
1428 21-10-2010 21:45:02 4.5 C 3.75 g/m*3 4.5 C 0 km/h
1429 21-10-2010 21:57:02 4.1 C 3.84 g/m*3 4.1 C 0 km/h
1430 21-10-2010 22:09:02 4 C 3.81 g/m*3 4 C 0 km/h
1431 21-10-2010 22:22:04 4.1 C 3.78 g/m*3 4.1 C 0 km/h
1432 21-10-2010 22:34:04 3.8 C 3.83 g/m*3 3.8 C 0 km/h
1433 21-10-2010 22:46:04 3.7 C 3.86 g/m*3 3.7 C 0 km/h
1434 21-10-2010 22:58:04 3.6 C 3.9 g/m*3 3.6 C 0 km/h
1435 21-10-2010 23:10:04 3.5 C 3.87 g/m*3 3.5 C 0 km/h
1436 21-10-2010 23:22:04 3.5 C 3.87 g/m*3 3.5 C 0 km/h
1437 21-10-2010 23:34:04 3.3 C 3.88 g/m*3 3.3 C 0 km/h
1438 21-10-2010 23:46:04 2.9 C 3.9 g/m*3 2.9 C 0 km/h
1439 21-10-2010 23:58:04 2.5 C 3.91 g/m*3 2.5 C 0 km/h
1440 22-10-2010 00:10:04 2.2 C 4 g/m*3 2.2 C 0 km/h
1441 22-10-2010 00:22:04 2.2 C 4.06 g/m*3 2.2 C 0 km/h
1442 22-10-2010 00:34:05 2.8 C 4.11 g/m*3 2.8 C 0 km/h
1443 22-10-2010 00:46:05 2.5 C 4.08 g/m*3 2.5 C 0 km/h
1444 22-10-2010 00:58:05 2.2 C 4.06 g/m*3 2.2 C 0 km/h
1445 22-10-2010 01:10:05 1.6 C 4 g/m*3 1.6 C 0 km/h
1446 22-10-2010 01:22:05 1.3 C 4.03 g/m*3 1.3 C 0 km/h
1447 22-10-2010 01:34:05 1.8 C 4.22 g/m*3 1.8 C 0 km/h
1448 22-10-2010 01:46:05 2 C 4.17 g/m*3 2 C 0 km/h
1449 22-10-2010 01:58:05 2 C 4.11 g/m*3 2 C 0 km/h
1450 22-10-2010 02:10:05 2.1 C 4.08 g/m*3 2.1 C 0 km/h
Sensor: Nr:Datum:Temp:Abs-Feuchte:Windchill:Wind:
Aussen-T/F 1451 22-10-2010 02:22:05 2.1 C 4.08 g/m*3 2.1 C 0 km/h
1452 22-10-2010 02:34:05 2 C 4.06 g/m*3 2 C 0 km/h
1453 22-10-2010 02:46:05 2.2 C 4.11 g/m*3 2.2 C 0 km/h
1454 22-10-2010 02:58:05 2.2 C 4.11 g/m*3 2.2 C 0 km/h
1455 22-10-2010 03:10:05 2.1 C 4.08 g/m*3 2.1 C 0 km/h
1456 22-10-2010 03:22:05 2.3 C 4.08 g/m*3 2.3 C 0 km/h
1457 22-10-2010 03:34:05 2.1 C 4.03 g/m*3 2.1 C 0 km/h
1458 22-10-2010 03:46:05 2.3 C 4.14 g/m*3 2.3 C 0 km/h
1459 22-10-2010 03:58:05 2 C 4.06 g/m*3 2 C 0 km/h
1460 22-10-2010 04:10:05 1.7 C 4.03 g/m*3 1.7 C 0 km/h
1461 22-10-2010 04:22:05 1.4 C 4.05 g/m*3 1.4 C 0 km/h
1462 22-10-2010 04:34:06 1.4 C 4.11 g/m*3 1.4 C 0 km/h
1463 22-10-2010 04:46:06 1.5 C 4.14 g/m*3 1.5 C 0 km/h
1464 22-10-2010 04:58:06 1.4 C 4.11 g/m*3 1.4 C 0 km/h
1465 22-10-2010 05:10:06 1.2 C 4.1 g/m*3 1.2 C 0 km/h
1466 22-10-2010 05:22:06 1.3 C 4.13 g/m*3 1.3 C 0 km/h
1467 22-10-2010 05:34:06 1.6 C 4.16 g/m*3 1.6 C 0 km/h
1468 22-10-2010 05:46:06 1.4 C 4.05 g/m*3 1.4 C 0 km/h
1469 22-10-2010 05:58:06 1.4 C 4.11 g/m*3 1.4 C 0 km/h
1470 22-10-2010 06:10:06 1.5 C 4.08 g/m*3 1.5 C 0 km/h
1471 22-10-2010 06:22:06 1.6 C 4.11 g/m*3 1.6 C 0 km/h
1472 22-10-2010 06:34:06 1.8 C 4.06 g/m*3 1.8 C 0 km/h
1473 22-10-2010 06:46:06 1.7 C 4.03 g/m*3 1.7 C 0 km/h
1474 22-10-2010 06:58:06 1.7 C 4.03 g/m*3 1.7 C 0 km/h
1475 22-10-2010 07:10:02 1.4 C 4 g/m*3 1.4 C 0 km/h
Sensor: Nr:Datum:Temp:Abs-Feuchte:Windchill:Wind:
Aussen-T/F 1476 22-10-2010 07:22:03 1 C 3.89 g/m*3 1 C 0 km/h
1477 22-10-2010 07:34:03 0.7 C 3.92 g/m*3 0.7 C 0 km/h
1478 22-10-2010 07:46:02 0.6 C 3.99 g/m*3 0.6 C 0 km/h
1479 22-10-2010 07:58:02 1 C 4.1 g/m*3 1 C 0 km/h
1480 22-10-2010 08:10:01 1.5 C 4.14 g/m*3 1.5 C 0 km/h
1481 22-10-2010 08:22:02 1.3 C 4.03 g/m*3 1.3 C 0 km/h
1482 22-10-2010 08:34:02 1.1 C 3.97 g/m*3 1.1 C 0 km/h
1483 22-10-2010 08:46:02 1.1 C 3.97 g/m*3 1.1 C 0 km/h
1484 22-10-2010 08:58:02 1.4 C 4.11 g/m*3 1.4 C 0 km/h
1485 22-10-2010 09:10:03 1.3 C 4.13 g/m*3 1.3 C 0 km/h
1486 22-10-2010 09:22:02 1.4 C 4.16 g/m*3 1.4 C 0 km/h
1487 22-10-2010 09:34:02 1.9 C 4.3 g/m*3 1.9 C 0 km/h
1488 22-10-2010 09:46:01 2.5 C 4.43 g/m*3 2.5 C 0 km/h
1489 22-10-2010 09:58:01 3.2 C 4.46 g/m*3 3.2 C 0 km/h
1490 22-10-2010 10:10:02 3.8 C 4.58 g/m*3 3.8 C 0 km/h
1491 22-10-2010 10:22:01 4.1 C 4.29 g/m*3 4.1 C 0 km/h
1492 22-10-2010 10:34:01 4.3 C 4.15 g/m*3 4.3 C 0 km/h
1493 22-10-2010 10:46:01 4.6 C 4.1 g/m*3 4.6 C 0 km/h
1494 22-10-2010 10:58:01 4.7 C 4 g/m*3 4.7 C 0 km/h
1495 22-10-2010 11:10:02 4.8 C 4.02 g/m*3 4.8 C 0 km/h
1496 22-10-2010 11:22:01 5.1 C 3.9 g/m*3 5.1 C 0 km/h
1497 22-10-2010 11:34:01 5.4 C 3.91 g/m*3 5.4 C 0 km/h
1498 22-10-2010 11:46:01 5.7 C 3.91 g/m*3 5.7 C 0 km/h
1499 22-10-2010 11:58:01 5.8 C 3.94 g/m*3 5.8 C 0 km/h
1500 22-10-2010 12:10:02 6.1 C 3.87 g/m*3 6.1 C 0 km/h
Sensor: Nr:Datum:Temp:Abs-Feuchte:Windchill:Wind:
Aussen-T/F 1501 22-10-2010 12:22:02 6.5 C 3.9 g/m*3 6.5 C 0 km/h
1502 22-10-2010 12:34:01 6.5 C 3.82 g/m*3 6.5 C 0 km/h
1503 22-10-2010 12:46:02 6.8 C 3.98 g/m*3 6.8 C 0 km/h
1504 22-10-2010 12:58:02 6.9 C 3.93 g/m*3 6.9 C 0 km/h
1505 22-10-2010 13:10:01 7 C 3.87 g/m*3 7 C 0 km/h
1506 22-10-2010 13:22:02 7.1 C 3.82 g/m*3 7.1 C 0 km/h
1507 22-10-2010 13:34:01 7.2 C 3.92 g/m*3 7.2 C 0 km/h
1508 22-10-2010 13:46:02 7.3 C 3.87 g/m*3 7.3 C 0 km/h
1509 22-10-2010 13:58:02 7.3 C 3.95 g/m*3 7.3 C 0 km/h
1510 22-10-2010 14:10:02 7.3 C 3.87 g/m*3 7.3 C 0 km/h
1511 22-10-2010 14:22:02 7.5 C 3.92 g/m*3 7.5 C 0 km/h
1512 22-10-2010 14:34:03 7.5 C 3.84 g/m*3 7.5 C 0 km/h
1513 22-10-2010 14:46:02 7.3 C 3.87 g/m*3 7.3 C 0 km/h
1514 22-10-2010 14:58:03 7.2 C 3.85 g/m*3 7.2 C 0 km/h
1515 22-10-2010 15:10:01 7.2 C 3.69 g/m*3 7.2 C 0 km/h
1516 22-10-2010 15:22:02 7.3 C 3.79 g/m*3 7.3 C 0 km/h
1517 22-10-2010 15:34:02 7.2 C 3.77 g/m*3 7.2 C 0 km/h
1518 22-10-2010 15:46:02 7.1 C 3.82 g/m*3 7.1 C 0 km/h
1519 22-10-2010 15:58:02 7.3 C 4.03 g/m*3 7.3 C 0 km/h
1520 22-10-2010 16:10:03 7.4 C 4.06 g/m*3 7.4 C 0 km/h
1521 22-10-2010 16:22:02 7.5 C 4.08 g/m*3 7.5 C 0 km/h
1522 22-10-2010 16:34:02 7.4 C 4.29 g/m*3 7.4 C 0 km/h
1523 22-10-2010 16:46:01 7.4 C 4.53 g/m*3 7.4 C 0 km/h
1524 22-10-2010 16:58:01 7.4 C 4.69 g/m*3 7.4 C 0 km/h
1525 22-10-2010 17:10:02 7.5 C 4.4 g/m*3 7.5 C 0 km/h
Sensor: Nr:Datum:Temp:Abs-Feuchte:Windchill:Wind:
Aussen-T/F 1526 22-10-2010 17:22:01 7.7 C 4.14 g/m*3 7.7 C 0 km/h
1527 22-10-2010 17:34:01 7.6 C 4.19 g/m*3 7.6 C 0 km/h
1528 22-10-2010 17:46:01 6.9 C 4.31 g/m*3 6.9 C 0 km/h
1529 22-10-2010 17:58:01 6.4 C 4.32 g/m*3 6.4 C 0 km/h
1530 22-10-2010 18:10:02 6.4 C 4.17 g/m*3 6.4 C 0 km/h
1531 22-10-2010 18:22:01 6.2 C 4.19 g/m*3 6.2 C 0 km/h
1532 22-10-2010 18:34:01 6 C 4.21 g/m*3 6 C 0 km/h
1533 22-10-2010 18:46:01 6.1 C 4.09 g/m*3 6.1 C 0 km/h
1534 22-10-2010 18:58:01 6.2 C 3.82 g/m*3 6.2 C 0 km/h
1535 22-10-2010 19:10:01 6.2 C 3.68 g/m*3 6.2 C 0 km/h
1536 22-10-2010 19:22:02 6.2 C 3.68 g/m*3 6.2 C 0 km/h
1537 22-10-2010 19:34:01 6.2 C 3.68 g/m*3 6.2 C 0 km/h
1538 22-10-2010 19:46:03 6.2 C 3.68 g/m*3 6.2 C 0 km/h
1539 22-10-2010 19:58:03 6.2 C 3.75 g/m*3 6.2 C 0 km/h
1540 22-10-2010 20:10:02 6.2 C 3.75 g/m*3 6.2 C 0 km/h
1541 22-10-2010 20:22:02 6 C 3.77 g/m*3 6 C 0 km/h
1542 22-10-2010 20:34:02 6 C 3.77 g/m*3 6 C 0 km/h
1543 22-10-2010 20:46:02 6 C 3.85 g/m*3 6 C 0 km/h
1544 22-10-2010 20:58:02 5.9 C 3.97 g/m*3 5.9 C 0 km/h
1545 22-10-2010 21:10:02 6 C 3.85 g/m*3 6 C 0 km/h
1546 22-10-2010 21:22:02 5.9 C 3.97 g/m*3 5.9 C 0 km/h
1547 22-10-2010 21:34:02 5.7 C 3.91 g/m*3 5.7 C 0 km/h
1548 22-10-2010 21:46:01 5.7 C 3.91 g/m*3 5.7 C 0 km/h
1549 22-10-2010 21:58:01 5.3 C 3.88 g/m*3 5.3 C 0 km/h
1550 22-10-2010 22:10:02 4.9 C 3.92 g/m*3 4.9 C 0 km/h
Sensor: Nr:Datum:Temp:Abs-Feuchte:Windchill:Wind:
Aussen-T/F 1551 22-10-2010 22:22:01 4.3 C 3.96 g/m*3 4.3 C 0 km/h
1552 22-10-2010 22:35:03 4.1 C 4.1 g/m*3 4.1 C 0 km/h
1553 22-10-2010 22:47:03 3.8 C 4.2 g/m*3 3.8 C 0 km/h
1554 22-10-2010 22:59:03 3.6 C 4.27 g/m*3 3.6 C 0 km/h
1555 22-10-2010 23:11:03 3.4 C 4.28 g/m*3 3.4 C 0 km/h
1556 22-10-2010 23:23:03 3.1 C 4.31 g/m*3 3.1 C 0 km/h
1557 22-10-2010 23:35:03 2.7 C 4.31 g/m*3 2.7 C 0 km/h
1558 22-10-2010 23:47:03 2.4 C 4.28 g/m*3 2.4 C 0 km/h
1559 22-10-2010 23:59:03 2.2 C 4.34 g/m*3 2.2 C 0 km/h
1560 23-10-2010 00:11:03 2 C 4.28 g/m*3 2 C 0 km/h
1561 23-10-2010 00:23:03 1.8 C 4.28 g/m*3 1.8 C 0 km/h
1562 23-10-2010 00:35:03 1.7 C 4.3 g/m*3 1.7 C 0 km/h
1563 23-10-2010 00:47:03 1.6 C 4.33 g/m*3 1.6 C 0 km/h
1564 23-10-2010 00:59:03 1.4 C 4.32 g/m*3 1.4 C 0 km/h
1565 23-10-2010 01:11:04 1.3 C 4.29 g/m*3 1.3 C 0 km/h
1566 23-10-2010 01:23:04 1.2 C 4.31 g/m*3 1.2 C 0 km/h
1567 23-10-2010 01:35:04 1.1 C 4.29 g/m*3 1.1 C 0 km/h
1568 23-10-2010 01:47:04 1 C 4.26 g/m*3 1 C 0 km/h
1569 23-10-2010 01:59:04 0.8 C 4.3 g/m*3 0.8 C 0 km/h
1570 23-10-2010 02:11:04 0.7 C 4.27 g/m*3 0.7 C 0 km/h
1571 23-10-2010 02:23:04 0.6 C 4.24 g/m*3 0.6 C 0 km/h
1572 23-10-2010 02:35:04 0.5 C 4.21 g/m*3 0.5 C 0 km/h
1573 23-10-2010 02:47:04 0.5 C 4.26 g/m*3 0.5 C 0 km/h
1574 23-10-2010 02:59:04 0.4 C 4.23 g/m*3 0.4 C 0 km/h
1575 23-10-2010 03:11:04 0.3 C 4.2 g/m*3 0.3 C 0 km/h
Sensor: Nr:Datum:Temp:Abs-Feuchte:Windchill:Wind:
Aussen-T/F 1576 23-10-2010 03:23:04 0.2 C 4.22 g/m*3 0.2 C 0 km/h
1577 23-10-2010 03:35:04 0.1 C 4.2 g/m*3 0.1 C 0 km/h
1578 23-10-2010 03:47:04 0 C 4.17 g/m*3 0 C 0 km/h
1579 23-10-2010 03:59:04 -0.1 C 4.14 g/m*3 -0.1 C 0 km/h
1580 23-10-2010 04:11:04 -0.2 C 4.16 g/m*3 -0.2 C 0 km/h
1581 23-10-2010 04:23:04 -0.3 C 4.13 g/m*3 -0.3 C 0 km/h
1582 23-10-2010 04:35:04 -0.3 C 4.13 g/m*3 -0.3 C 0 km/h
1583 23-10-2010 04:47:04 -0.4 C 4.15 g/m*3 -0.4 C 0 km/h
1584 23-10-2010 04:59:04 -0.5 C 4.12 g/m*3 -0.5 C 0 km/h
1585 23-10-2010 05:11:05 -0.6 C 4.09 g/m*3 -0.6 C 0 km/h
1586 23-10-2010 05:23:05 -0.7 C 4.06 g/m*3 -0.7 C 0 km/h
1587 23-10-2010 05:35:05 -0.8 C 4.03 g/m*3 -0.8 C 0 km/h
1588 23-10-2010 05:47:05 -1 C 3.98 g/m*3 -1 C 0 km/h
1589 23-10-2010 05:59:05 -1 C 3.98 g/m*3 -1 C 0 km/h
1590 23-10-2010 06:11:05 -1 C 3.98 g/m*3 -1 C 0 km/h
1591 23-10-2010 06:23:05 -1 C 4.02 g/m*3 -1 C 0 km/h
1592 23-10-2010 06:35:05 -1 C 4.02 g/m*3 -1 C 0 km/h
1593 23-10-2010 06:47:05 -1.1 C 4 g/m*3 -1.1 C 0 km/h
1594 23-10-2010 06:59:05 -1.1 C 4 g/m*3 -1.1 C 0 km/h
1595 23-10-2010 07:11:05 -1.1 C 4 g/m*3 -1.1 C 0 km/h
1596 23-10-2010 07:23:05 -1 C 4.02 g/m*3 -1 C 0 km/h
1597 23-10-2010 07:35:05 -0.9 C 4.05 g/m*3 -0.9 C 0 km/h
1598 23-10-2010 07:47:05 -0.7 C 4.15 g/m*3 -0.7 C 0 km/h
1599 23-10-2010 07:59:05 -0.6 C 4.23 g/m*3 -0.6 C 0 km/h
1600 23-10-2010 08:11:02 -0.5 C 4.26 g/m*3 -0.5 C 0 km/h
Sensor: Nr:Datum:Temp:Abs-Feuchte:Windchill:Wind:
Aussen-T/F 1601 23-10-2010 08:23:03 -0.6 C 4.28 g/m*3 -0.6 C 0 km/h
1602 23-10-2010 08:35:02 -0.8 C 4.17 g/m*3 -0.8 C 0 km/h
1603 23-10-2010 08:47:03 -1 C 4.11 g/m*3 -1 C 0 km/h
1604 23-10-2010 08:59:03 -1 C 4.07 g/m*3 -1 C 0 km/h
1605 23-10-2010 09:11:02 -1 C 4.07 g/m*3 -1 C 0 km/h
1606 23-10-2010 09:23:02 -0.9 C 4.1 g/m*3 -0.9 C 0 km/h
1607 23-10-2010 09:35:02 -0.9 C 4.1 g/m*3 -0.9 C 0 km/h
1608 23-10-2010 09:47:02 -0.7 C 4.2 g/m*3 -0.7 C 0 km/h
1609 23-10-2010 09:59:02 -0.6 C 4.23 g/m*3 -0.6 C 0 km/h
1610 23-10-2010 10:11:01 -0.1 C 4.38 g/m*3 -0.1 C 0 km/h
1611 23-10-2010 10:23:02 0.4 C 4.58 g/m*3 0.4 C 0 km/h
1612 23-10-2010 10:35:02 0.9 C 4.74 g/m*3 0.9 C 0 km/h
1613 23-10-2010 10:47:01 1.5 C 4.94 g/m*3 1.5 C 0 km/h
1614 23-10-2010 10:59:01 2.6 C 5.32 g/m*3 2.6 C 0 km/h
1615 23-10-2010 11:11:02 3.3 C 5.46 g/m*3 3.3 C 0 km/h
1616 23-10-2010 11:23:01 3.7 C 5.55 g/m*3 3.7 C 0 km/h
1617 23-10-2010 11:35:02 4.1 C 5.38 g/m*3 4.1 C 0 km/h
1618 23-10-2010 11:47:02 4.4 C 5.09 g/m*3 4.4 C 0 km/h
1619 23-10-2010 11:59:02 4.9 C 5.13 g/m*3 4.9 C 0 km/h
1620 23-10-2010 12:11:02 5.5 C 5.06 g/m*3 5.5 C 0 km/h
1621 23-10-2010 12:23:01 6.2 C 5.15 g/m*3 6.2 C 0 km/h
1622 23-10-2010 12:35:02 6.7 C 5.17 g/m*3 6.7 C 0 km/h
1623 23-10-2010 12:47:01 7.2 C 5.18 g/m*3 7.2 C 0 km/h
1624 23-10-2010 12:59:01 7.6 C 5.24 g/m*3 7.6 C 0 km/h
1625 23-10-2010 13:11:02 7.8 C 5.22 g/m*3 7.8 C 0 km/h
Sensor: Nr:Datum:Temp:Abs-Feuchte:Windchill:Wind:
Aussen-T/F 1626 23-10-2010 13:23:01 8.3 C 5.23 g/m*3 8.3 C 0 km/h
1627 23-10-2010 13:35:02 8.5 C 4.95 g/m*3 8.5 C 0 km/h
1628 23-10-2010 13:47:01 8.8 C 4.79 g/m*3 8.8 C 0 km/h
1629 23-10-2010 13:59:01 9.4 C 4.61 g/m*3 9.4 C 0 km/h
1630 23-10-2010 14:11:02 9.6 C 4.21 g/m*3 9.6 C 0 km/h
1631 23-10-2010 14:23:02 9.5 C 4.19 g/m*3 9.5 C 0 km/h
1632 23-10-2010 14:35:01 9.1 C 4.17 g/m*3 9.1 C 0 km/h
1633 23-10-2010 14:47:02 8.8 C 4.26 g/m*3 8.8 C 0 km/h
1634 23-10-2010 14:59:02 8.4 C 4.41 g/m*3 8.4 C 0 km/h
1635 23-10-2010 15:11:01 8.3 C 4.47 g/m*3 8.3 C 0 km/h
1636 23-10-2010 15:23:02 8.3 C 4.64 g/m*3 8.3 C 0 km/h
1637 23-10-2010 15:35:01 8.4 C 4.75 g/m*3 8.4 C 0 km/h
1638 23-10-2010 15:47:02 8.5 C 4.7 g/m*3 8.5 C 0 km/h
1639 23-10-2010 15:59:02 8.6 C 4.64 g/m*3 8.6 C 0 km/h
1640 23-10-2010 16:11:02 8.5 C 4.61 g/m*3 8.5 C 0 km/h
1641 23-10-2010 16:23:02 8.4 C 4.67 g/m*3 8.4 C 0 km/h
1642 23-10-2010 16:35:03 7.6 C 4.99 g/m*3 7.6 C 0 km/h
1643 23-10-2010 16:47:02 7.4 C 5.17 g/m*3 7.4 C 0 km/h
1644 23-10-2010 16:59:02 7.7 C 5.19 g/m*3 7.7 C 0 km/h
1645 23-10-2010 17:11:01 7.8 C 5.3 g/m*3 7.8 C 0 km/h
1646 23-10-2010 17:23:02 7.9 C 5.34 g/m*3 7.9 C 0 km/h
1647 23-10-2010 17:35:02 7.9 C 5.34 g/m*3 7.9 C 0 km/h
1648 23-10-2010 17:47:02 7.8 C 5.39 g/m*3 7.8 C 0 km/h
1649 23-10-2010 17:59:02 8 C 5.37 g/m*3 8 C 0 km/h
1650 23-10-2010 18:11:02 8.1 C 5.41 g/m*3 8.1 C 0 km/h
Sensor: Nr:Datum:Temp:Abs-Feuchte:Windchill:Wind:
Aussen-T/F 1651 23-10-2010 18:23:02 8.1 C 5.49 g/m*3 8.1 C 0 km/h
1652 23-10-2010 18:35:02 8 C 5.54 g/m*3 8 C 0 km/h
1653 23-10-2010 18:47:02 8 C 5.54 g/m*3 8 C 0 km/h
1654 23-10-2010 18:59:02 8 C 5.46 g/m*3 8 C 0 km/h
1655 23-10-2010 19:11:02 8.1 C 5.33 g/m*3 8.1 C 0 km/h
1656 23-10-2010 19:23:02 8.4 C 5.26 g/m*3 8.4 C 0 km/h
1657 23-10-2010 19:35:02 8.6 C 5.07 g/m*3 8.6 C 0 km/h
1658 23-10-2010 19:47:01 8.8 C 5.05 g/m*3 8.8 C 0 km/h
1659 23-10-2010 19:59:01 8.9 C 5.08 g/m*3 8.9 C 0 km/h
1660 23-10-2010 20:11:01 9.1 C 5.06 g/m*3 9.1 C 0 km/h
1661 23-10-2010 20:23:02 9.1 C 5.15 g/m*3 9.1 C 0 km/h
1662 23-10-2010 20:35:01 9.2 C 5.27 g/m*3 9.2 C 0 km/h
1663 23-10-2010 20:47:03 9.2 C 5.36 g/m*3 9.2 C 0 km/h
1664 23-10-2010 20:59:03 9.1 C 5.5 g/m*3 9.1 C 0 km/h
1665 23-10-2010 21:11:02 9.1 C 5.68 g/m*3 9.1 C 0 km/h
1666 23-10-2010 21:23:02 9.2 C 5.71 g/m*3 9.2 C 0 km/h
1667 23-10-2010 21:35:02 9.3 C 5.84 g/m*3 9.3 C 0 km/h
1668 23-10-2010 21:47:02 9.4 C 5.79 g/m*3 9.4 C 0 km/h
1669 23-10-2010 21:59:02 9.3 C 5.84 g/m*3 9.3 C 0 km/h
1670 23-10-2010 22:11:01 9.3 C 5.84 g/m*3 9.3 C 0 km/h
1671 23-10-2010 22:24:04 9.4 C 5.88 g/m*3 9.4 C 0 km/h
1672 23-10-2010 22:36:04 9.4 C 5.88 g/m*3 9.4 C 0 km/h
1673 23-10-2010 22:48:04 9.4 C 5.79 g/m*3 9.4 C 0 km/h
1674 23-10-2010 23:00:04 9.5 C 5.73 g/m*3 9.5 C 0 km/h
1675 23-10-2010 23:12:04 9.4 C 5.7 g/m*3 9.4 C 0 km/h
Sensor: Nr:Datum:Temp:Abs-Feuchte:Windchill:Wind:
Aussen-T/F 1676 23-10-2010 23:24:04 9.3 C 5.66 g/m*3 9.3 C 0 km/h
1677 23-10-2010 23:36:04 9.2 C 5.63 g/m*3 9.2 C 0 km/h
1678 23-10-2010 23:48:04 9.2 C 5.63 g/m*3 9.2 C 0 km/h
1679 24-10-2010 00:00:04 9.1 C 5.68 g/m*3 9.1 C 0 km/h
1680 24-10-2010 00:12:04 9 C 5.73 g/m*3 9 C 0 km/h
1681 24-10-2010 00:24:04 8.9 C 5.78 g/m*3 8.9 C 0 km/h
1682 24-10-2010 00:36:04 9.1 C 5.77 g/m*3 9.1 C 0 km/h
1683 24-10-2010 00:48:05 9 C 5.73 g/m*3 9 C 0 km/h
1684 24-10-2010 01:00:05 8.8 C 5.83 g/m*3 8.8 C 0 km/h
1685 24-10-2010 01:12:05 8.9 C 5.87 g/m*3 8.9 C 0 km/h
1686 24-10-2010 01:24:05 9.1 C 5.86 g/m*3 9.1 C 0 km/h
1687 24-10-2010 01:36:05 9 C 5.82 g/m*3 9 C 0 km/h
1688 24-10-2010 01:48:05 9.1 C 5.86 g/m*3 9.1 C 0 km/h
1689 24-10-2010 02:00:05 9 C 5.99 g/m*3 9 C 0 km/h
1690 24-10-2010 02:12:05 8.8 C 6.09 g/m*3 8.8 C 0 km/h
1691 24-10-2010 02:24:05 8.2 C 6.28 g/m*3 8.2 C 0 km/h
1692 24-10-2010 02:36:05 8.1 C 6.49 g/m*3 8.1 C 0 km/h
1693 24-10-2010 02:48:05 8.2 C 6.53 g/m*3 8.2 C 0 km/h
1694 24-10-2010 03:00:05 8.3 C 6.49 g/m*3 8.3 C 0 km/h
1695 24-10-2010 03:12:05 8.4 C 6.45 g/m*3 8.4 C 0 km/h
1696 24-10-2010 03:24:05 8.5 C 6.32 g/m*3 8.5 C 0 km/h
1697 24-10-2010 03:36:05 8.6 C 6.19 g/m*3 8.6 C 0 km/h
1698 24-10-2010 03:48:05 8.5 C 6.06 g/m*3 8.5 C 0 km/h
1699 24-10-2010 04:00:05 8.7 C 6.05 g/m*3 8.7 C 0 km/h
1700 24-10-2010 04:12:05 8.7 C 6.05 g/m*3 8.7 C 0 km/h
Sensor: Nr:Datum:Temp:Abs-Feuchte:Windchill:Wind:
Aussen-T/F 1701 24-10-2010 04:24:05 8.6 C 6.02 g/m*3 8.6 C 0 km/h
1702 24-10-2010 04:36:05 8.6 C 6.02 g/m*3 8.6 C 0 km/h
1703 24-10-2010 04:48:05 8.7 C 5.97 g/m*3 8.7 C 0 km/h
1704 24-10-2010 05:00:05 8.8 C 5.83 g/m*3 8.8 C 0 km/h
1705 24-10-2010 05:12:06 8.8 C 5.92 g/m*3 8.8 C 0 km/h
1706 24-10-2010 05:24:06 8.7 C 5.97 g/m*3 8.7 C 0 km/h
1707 24-10-2010 05:36:06 8.1 C 5.99 g/m*3 8.1 C 0 km/h
1708 24-10-2010 05:48:06 8.1 C 6.16 g/m*3 8.1 C 0 km/h
1709 24-10-2010 06:00:06 8 C 6.12 g/m*3 8 C 0 km/h
1710 24-10-2010 06:12:06 8.2 C 6.2 g/m*3 8.2 C 0 km/h
1711 24-10-2010 06:24:06 8.3 C 6.15 g/m*3 8.3 C 0 km/h
1712 24-10-2010 06:36:06 7.9 C 6.32 g/m*3 7.9 C 0 km/h
1713 24-10-2010 06:48:06 7.5 C 6.4 g/m*3 7.5 C 0 km/h
1714 24-10-2010 07:00:06 7.3 C 6.64 g/m*3 7.3 C 0 km/h
1715 24-10-2010 07:12:06 7.1 C 6.71 g/m*3 7.1 C 0 km/h
1716 24-10-2010 07:24:02 7 C 6.66 g/m*3 7 C 0 km/h
1717 24-10-2010 07:36:03 6.9 C 6.77 g/m*3 6.9 C 0 km/h
1718 24-10-2010 07:48:02 7 C 6.82 g/m*3 7 C 0 km/h
1719 24-10-2010 08:00:02 7 C 6.82 g/m*3 7 C 0 km/h
1720 24-10-2010 08:12:02 7 C 6.9 g/m*3 7 C 0 km/h
1721 24-10-2010 08:24:02 7 C 6.9 g/m*3 7 C 0 km/h
1722 24-10-2010 08:36:02 6.9 C 6.93 g/m*3 6.9 C 0 km/h
1723 24-10-2010 08:48:02 6.9 C 7.01 g/m*3 6.9 C 0 km/h
1724 24-10-2010 09:00:02 7 C 6.97 g/m*3 7 C 0 km/h
1725 24-10-2010 09:12:02 6.9 C 7.01 g/m*3 6.9 C 0 km/h
Sensor: Nr:Datum:Temp:Abs-Feuchte:Windchill:Wind:
Aussen-T/F 1726 24-10-2010 09:24:02 7 C 6.97 g/m*3 7 C 0 km/h
1727 24-10-2010 09:36:02 7.3 C 7.11 g/m*3 7.3 C 0 km/h
1728 24-10-2010 09:48:01 7.5 C 7.04 g/m*3 7.5 C 0 km/h
1729 24-10-2010 10:00:01 7.1 C 6.79 g/m*3 7.1 C 0 km/h
1730 24-10-2010 10:12:01 7 C 6.74 g/m*3 7 C 0 km/h
1731 24-10-2010 10:24:02 7 C 6.66 g/m*3 7 C 0 km/h
1732 24-10-2010 10:36:01 6.9 C 6.54 g/m*3 6.9 C 0 km/h
1733 24-10-2010 10:48:03 7 C 6.51 g/m*3 7 C 0 km/h
1734 24-10-2010 11:00:03 7.3 C 6.48 g/m*3 7.3 C 0 km/h
1735 24-10-2010 11:12:02 7.9 C 6.49 g/m*3 7.9 C 0 km/h
1736 24-10-2010 11:24:02 8.8 C 5.74 g/m*3 8.8 C 0 km/h
1737 24-10-2010 11:36:02 8.6 C 5.16 g/m*3 8.6 C 0 km/h
1738 24-10-2010 11:48:02 8.9 C 5.26 g/m*3 8.9 C 0 km/h
1739 24-10-2010 12:00:02 9 C 5.03 g/m*3 9 C 0 km/h
1740 24-10-2010 12:12:02 9.2 C 4.91 g/m*3 9.2 C 0 km/h
1741 24-10-2010 12:24:02 9.4 C 4.61 g/m*3 9.4 C 0 km/h
1742 24-10-2010 12:36:02 9.5 C 4.64 g/m*3 9.5 C 0 km/h
1743 24-10-2010 12:48:02 9.7 C 4.52 g/m*3 9.7 C 0 km/h
1744 24-10-2010 13:00:02 9.7 C 4.61 g/m*3 9.7 C 0 km/h
1745 24-10-2010 13:12:01 10.2 C 4.57 g/m*3 10.2 C 0 km/h
1746 24-10-2010 13:24:01 10.6 C 4.68 g/m*3 10.6 C 0 km/h
1747 24-10-2010 13:36:02 10.6 C 4.68 g/m*3 10.6 C 0 km/h
1748 24-10-2010 13:48:02 11.2 C 4.46 g/m*3 11.2 C 0 km/h
1749 24-10-2010 14:00:02 10.9 C 4.58 g/m*3 10.9 C 0 km/h
1750 24-10-2010 14:12:02 10.9 C 4.48 g/m*3 10.9 C 0 km/h
Sensor: Nr:Datum:Temp:Abs-Feuchte:Windchill:Wind:
Aussen-T/F 1751 24-10-2010 14:24:01 11.9 C 4.45 g/m*3 11.9 C 0 km/h
1752 24-10-2010 14:36:02 12.2 C 3.99 g/m*3 12.2 C 0 km/h
1753 24-10-2010 14:48:02 12.2 C 3.88 g/m*3 12.2 C 0 km/h
1754 24-10-2010 15:00:02 12.9 C 4.28 g/m*3 12.9 C 0 km/h
1755 24-10-2010 15:12:02 12.7 C 4.45 g/m*3 12.7 C 0 km/h
1756 24-10-2010 15:24:01 11.7 C 4.39 g/m*3 11.7 C 0 km/h
1757 24-10-2010 15:36:02 11.8 C 4.1 g/m*3 11.8 C 0 km/h
1758 24-10-2010 15:48:02 12.4 C 3.93 g/m*3 12.4 C 0 km/h
1759 24-10-2010 16:00:02 12.1 C 3.65 g/m*3 12.1 C 0 km/h
1760 24-10-2010 16:12:02 12.8 C 3.92 g/m*3 12.8 C 0 km/h
1761 24-10-2010 16:24:02 13.4 C 3.72 g/m*3 13.4 C 0 km/h
1762 24-10-2010 16:36:02 13.4 C 3.6 g/m*3 13.4 C 0 km/h
1763 24-10-2010 16:48:02 13.5 C 3.86 g/m*3 13.5 C 0 km/h
1764 24-10-2010 17:00:02 13 C 3.52 g/m*3 13 C 0 km/h
1765 24-10-2010 17:12:02 12.2 C 3.88 g/m*3 12.2 C 0 km/h
1766 24-10-2010 17:24:02 12.2 C 4.21 g/m*3 12.2 C 0 km/h
1767 24-10-2010 17:36:01 11.4 C 4.11 g/m*3 11.4 C 0 km/h
1768 24-10-2010 17:48:02 11.3 C 4.28 g/m*3 11.3 C 0 km/h
1769 24-10-2010 18:00:02 10.6 C 4.29 g/m*3 10.6 C 0 km/h
1770 24-10-2010 18:12:01 10 C 4.51 g/m*3 10 C 0 km/h
1771 24-10-2010 18:24:02 9.6 C 4.86 g/m*3 9.6 C 0 km/h
1772 24-10-2010 18:36:01 9 C 4.94 g/m*3 9 C 0 km/h
1773 24-10-2010 18:48:02 8.6 C 5.07 g/m*3 8.6 C 0 km/h
1774 24-10-2010 19:00:03 8.2 C 5.19 g/m*3 8.2 C 0 km/h
1775 24-10-2010 19:12:02 7.8 C 5.22 g/m*3 7.8 C 0 km/h
Sensor: Nr:Datum:Temp:Abs-Feuchte:Windchill:Wind:
Aussen-T/F 1776 24-10-2010 19:24:02 7.3 C 5.14 g/m*3 7.3 C 0 km/h
1777 24-10-2010 19:36:02 7 C 5.04 g/m*3 7 C 0 km/h
1778 24-10-2010 19:48:01 6.8 C 5.12 g/m*3 6.8 C 0 km/h
1779 24-10-2010 20:00:01 6.6 C 5.06 g/m*3 6.6 C 0 km/h
1780 24-10-2010 20:12:02 6.5 C 5.17 g/m*3 6.5 C 0 km/h
1781 24-10-2010 20:24:01 6.4 C 5.14 g/m*3 6.4 C 0 km/h
1782 24-10-2010 20:36:01 6.4 C 5.22 g/m*3 6.4 C 0 km/h
1783 24-10-2010 20:48:01 6.5 C 5.32 g/m*3 6.5 C 0 km/h
1784 24-10-2010 21:00:01 6.7 C 5.39 g/m*3 6.7 C 0 km/h
1785 24-10-2010 21:12:02 6.4 C 5.36 g/m*3 6.4 C 0 km/h
1786 24-10-2010 21:24:01 6 C 5.3 g/m*3 6 C 0 km/h
1787 24-10-2010 21:36:02 5.8 C 5.37 g/m*3 5.8 C 0 km/h
1788 24-10-2010 21:48:01 5.7 C 5.48 g/m*3 5.7 C 0 km/h
1789 24-10-2010 22:00:01 5.5 C 5.48 g/m*3 5.5 C 0 km/h
1790 24-10-2010 22:12:02 5.7 C 5.62 g/m*3 5.7 C 0 km/h
1791 24-10-2010 22:24:02 5.9 C 5.7 g/m*3 5.9 C 0 km/h
1792 24-10-2010 22:36:01 5.6 C 5.51 g/m*3 5.6 C 0 km/h
1793 24-10-2010 22:48:02 5.4 C 5.51 g/m*3 5.4 C 0 km/h
1794 24-10-2010 23:00:02 5.1 C 5.4 g/m*3 5.1 C 0 km/h
1795 24-10-2010 23:13:04 5 C 5.5 g/m*3 5 C 0 km/h
1796 24-10-2010 23:25:04 4.7 C 5.46 g/m*3 4.7 C 0 km/h
1797 24-10-2010 23:37:04 4.7 C 5.53 g/m*3 4.7 C 0 km/h
1798 24-10-2010 23:49:04 4.7 C 5.53 g/m*3 4.7 C 0 km/h
1799 25-10-2010 00:01:04 4.7 C 5.6 g/m*3 4.7 C 0 km/h
1800 25-10-2010 00:13:04 4.8 C 5.7 g/m*3 4.8 C 0 km/h
Sensor: Nr:Datum:Temp:Abs-Feuchte:Windchill:Wind:
Aussen-T/F 1801 25-10-2010 00:25:04 5 C 5.78 g/m*3 5 C 0 km/h
1802 25-10-2010 00:37:04 4.8 C 5.7 g/m*3 4.8 C 0 km/h
1803 25-10-2010 00:49:04 4.7 C 5.73 g/m*3 4.7 C 0 km/h
1804 25-10-2010 01:01:05 4.6 C 5.62 g/m*3 4.6 C 0 km/h
1805 25-10-2010 01:13:05 4.6 C 5.69 g/m*3 4.6 C 0 km/h
1806 25-10-2010 01:25:05 4.4 C 5.62 g/m*3 4.4 C 0 km/h
1807 25-10-2010 01:37:05 4.4 C 5.62 g/m*3 4.4 C 0 km/h
1808 25-10-2010 01:49:05 4.5 C 5.72 g/m*3 4.5 C 0 km/h
1809 25-10-2010 02:01:05 4.6 C 5.76 g/m*3 4.6 C 0 km/h
1810 25-10-2010 02:13:05 4.4 C 5.68 g/m*3 4.4 C 0 km/h
1811 25-10-2010 02:25:05 4.4 C 5.68 g/m*3 4.4 C 0 km/h
1812 25-10-2010 02:37:05 4.2 C 5.61 g/m*3 4.2 C 0 km/h
1813 25-10-2010 02:49:05 4.5 C 5.72 g/m*3 4.5 C 0 km/h
1814 25-10-2010 03:01:05 4.5 C 5.78 g/m*3 4.5 C 0 km/h
1815 25-10-2010 03:13:05 4.5 C 5.72 g/m*3 4.5 C 0 km/h
1816 25-10-2010 03:25:05 4.5 C 5.72 g/m*3 4.5 C 0 km/h
1817 25-10-2010 03:37:05 4.7 C 5.8 g/m*3 4.7 C 0 km/h
1818 25-10-2010 03:49:05 4.9 C 5.81 g/m*3 4.9 C 0 km/h
1819 25-10-2010 04:01:05 5 C 5.78 g/m*3 5 C 0 km/h
1820 25-10-2010 04:13:05 5.1 C 5.75 g/m*3 5.1 C 0 km/h
1821 25-10-2010 04:25:05 5.1 C 5.75 g/m*3 5.1 C 0 km/h
1822 25-10-2010 04:37:05 5.1 C 5.68 g/m*3 5.1 C 0 km/h
1823 25-10-2010 04:49:05 5.2 C 5.71 g/m*3 5.2 C 0 km/h
1824 25-10-2010 05:01:05 5.2 C 5.71 g/m*3 5.2 C 0 km/h
1825 25-10-2010 05:13:06 5.2 C 5.65 g/m*3 5.2 C 0 km/h
Sensor: Nr:Datum:Temp:Abs-Feuchte:Windchill:Wind:
Aussen-T/F 1826 25-10-2010 05:25:06 5.1 C 5.61 g/m*3 5.1 C 0 km/h
1827 25-10-2010 05:37:06 5 C 5.57 g/m*3 5 C 0 km/h
1828 25-10-2010 05:49:06 5 C 5.57 g/m*3 5 C 0 km/h
1829 25-10-2010 06:01:06 5 C 5.57 g/m*3 5 C 0 km/h
1830 25-10-2010 06:13:06 5.1 C 5.61 g/m*3 5.1 C 0 km/h
1831 25-10-2010 06:25:06 5.1 C 5.54 g/m*3 5.1 C 0 km/h
1832 25-10-2010 06:37:06 5 C 5.5 g/m*3 5 C 0 km/h
1833 25-10-2010 06:49:02 5 C 5.5 g/m*3 5 C 0 km/h
1834 25-10-2010 07:01:02 5 C 5.5 g/m*3 5 C 0 km/h
1835 25-10-2010 07:13:02 4.9 C 5.54 g/m*3 4.9 C 0 km/h
1836 25-10-2010 07:25:02 4.8 C 5.5 g/m*3 4.8 C 0 km/h
1837 25-10-2010 07:37:02 4.8 C 5.5 g/m*3 4.8 C 0 km/h
1838 25-10-2010 07:49:02 4.8 C 5.5 g/m*3 4.8 C 0 km/h
1839 25-10-2010 08:01:02 4.9 C 5.54 g/m*3 4.9 C 0 km/h
1840 25-10-2010 08:13:02 4.9 C 5.54 g/m*3 4.9 C 0 km/h
1841 25-10-2010 08:25:02 4.8 C 5.5 g/m*3 4.8 C 0 km/h
1842 25-10-2010 08:37:02 4.9 C 5.54 g/m*3 4.9 C 0 km/h
1843 25-10-2010 08:49:01 5 C 5.5 g/m*3 5 C 0 km/h
1844 25-10-2010 09:01:01 5 C 5.5 g/m*3 5 C 0 km/h
1845 25-10-2010 09:13:02 5 C 5.44 g/m*3 5 C 0 km/h
1846 25-10-2010 09:25:01 5 C 5.44 g/m*3 5 C 0 km/h
1847 25-10-2010 09:37:01 5 C 5.44 g/m*3 5 C 0 km/h
1848 25-10-2010 09:49:02 5.3 C 5.54 g/m*3 5.3 C 0 km/h
1849 25-10-2010 10:01:02 5.5 C 5.55 g/m*3 5.5 C 0 km/h
1850 25-10-2010 10:13:02 5.9 C 5.62 g/m*3 5.9 C 0 km/h
Sensor: Nr:Datum:Temp:Abs-Feuchte:Windchill:Wind:
Aussen-T/F 1851 25-10-2010 10:25:03 5.8 C 5.44 g/m*3 5.8 C 0 km/h
1852 25-10-2010 10:37:02 5.8 C 5.44 g/m*3 5.8 C 0 km/h
1853 25-10-2010 10:49:03 6 C 5.44 g/m*3 6 C 0 km/h
1854 25-10-2010 11:01:02 6.2 C 5.44 g/m*3 6.2 C 0 km/h
1855 25-10-2010 11:13:02 6.4 C 5.44 g/m*3 6.4 C 0 km/h
1856 25-10-2010 11:25:02 6.5 C 5.4 g/m*3 6.5 C 0 km/h
1857 25-10-2010 11:37:02 6.6 C 5.44 g/m*3 6.6 C 0 km/h
1858 25-10-2010 11:49:02 7 C 5.5 g/m*3 7 C 0 km/h
1859 25-10-2010 12:01:01 7.3 C 5.37 g/m*3 7.3 C 0 km/h
1860 25-10-2010 12:13:01 8 C 5.54 g/m*3 8 C 0 km/h
1861 25-10-2010 12:25:02 8.2 C 5.28 g/m*3 8.2 C 0 km/h
1862 25-10-2010 12:37:01 7.6 C 5.16 g/m*3 7.6 C 0 km/h
1863 25-10-2010 12:49:02 8.1 C 5.16 g/m*3 8.1 C 0 km/h
1864 25-10-2010 13:01:02 8.2 C 5.02 g/m*3 8.2 C 0 km/h
1865 25-10-2010 13:13:02 8.4 C 5.01 g/m*3 8.4 C 0 km/h
1866 25-10-2010 13:25:02 8.7 C 5.36 g/m*3 8.7 C 0 km/h
1867 25-10-2010 13:37:03 8.9 C 5.08 g/m*3 8.9 C 0 km/h
1868 25-10-2010 13:49:02 9.5 C 5.1 g/m*3 9.5 C 0 km/h
1869 25-10-2010 14:01:02 9.7 C 4.79 g/m*3 9.7 C 0 km/h
1870 25-10-2010 14:13:02 9.6 C 4.86 g/m*3 9.6 C 0 km/h
1871 25-10-2010 14:25:01 10.1 C 4.73 g/m*3 10.1 C 0 km/h
1872 25-10-2010 14:37:02 10.4 C 4.63 g/m*3 10.4 C 0 km/h
1873 25-10-2010 14:49:02 10.7 C 4.13 g/m*3 10.7 C 0 km/h
1874 25-10-2010 15:01:02 10.4 C 4.05 g/m*3 10.4 C 0 km/h
1875 25-10-2010 15:13:02 10.4 C 3.95 g/m*3 10.4 C 0 km/h
Sensor: Nr:Datum:Temp:Abs-Feuchte:Windchill:Wind:
Aussen-T/F 1876 25-10-2010 15:25:01 10.2 C 3.81 g/m*3 10.2 C 0 km/h
1877 25-10-2010 15:37:02 10.4 C 3.76 g/m*3 10.4 C 0 km/h
1878 25-10-2010 15:49:02 10.6 C 4 g/m*3 10.6 C 0 km/h
1879 25-10-2010 16:01:02 11.7 C 4.08 g/m*3 11.7 C 0 km/h
1880 25-10-2010 16:13:02 10.4 C 3.66 g/m*3 10.4 C 0 km/h
1881 25-10-2010 16:25:01 10.5 C 3.98 g/m*3 10.5 C 0 km/h
1882 25-10-2010 16:37:02 10.5 C 3.88 g/m*3 10.5 C 0 km/h
1883 25-10-2010 16:49:01 10.5 C 3.98 g/m*3 10.5 C 0 km/h
1884 25-10-2010 17:01:02 10.9 C 4.18 g/m*3 10.9 C 0 km/h
1885 25-10-2010 17:13:02 11.1 C 4.03 g/m*3 11.1 C 0 km/h
1886 25-10-2010 17:25:02 11.2 C 4.05 g/m*3 11.2 C 0 km/h
1887 25-10-2010 17:37:02 10.4 C 3.95 g/m*3 10.4 C 0 km/h
1888 25-10-2010 17:49:02 9.8 C 4.08 g/m*3 9.8 C 0 km/h
1889 25-10-2010 18:01:01 9.2 C 4.11 g/m*3 9.2 C 0 km/h
1890 25-10-2010 18:13:01 8.9 C 4.2 g/m*3 8.9 C 0 km/h
1891 25-10-2010 18:25:02 8.3 C 4.21 g/m*3 8.3 C 0 km/h
1892 25-10-2010 18:37:01 8 C 4.22 g/m*3 8 C 0 km/h
1893 25-10-2010 18:49:02 7.4 C 4.45 g/m*3 7.4 C 0 km/h
1894 25-10-2010 19:01:01 7 C 4.49 g/m*3 7 C 0 km/h
1895 25-10-2010 19:13:01 6.7 C 4.71 g/m*3 6.7 C 0 km/h
1896 25-10-2010 19:25:01 6.2 C 4.71 g/m*3 6.2 C 0 km/h
1897 25-10-2010 19:37:02 5.8 C 4.73 g/m*3 5.8 C 0 km/h
1898 25-10-2010 19:49:02 5.4 C 4.74 g/m*3 5.4 C 0 km/h
1899 25-10-2010 20:01:01 5 C 4.69 g/m*3 5 C 0 km/h
1900 25-10-2010 20:13:01 4.7 C 4.73 g/m*3 4.7 C 0 km/h
Sensor: Nr:Datum:Temp:Abs-Feuchte:Windchill:Wind:
Aussen-T/F 1901 25-10-2010 20:25:02 4.7 C 4.86 g/m*3 4.7 C 0 km/h
1902 25-10-2010 20:37:02 4.5 C 4.8 g/m*3 4.5 C 0 km/h
1903 25-10-2010 20:49:02 4.4 C 4.77 g/m*3 4.4 C 0 km/h
1904 25-10-2010 21:01:03 4.3 C 4.86 g/m*3 4.3 C 0 km/h
1905 25-10-2010 21:13:03 4.1 C 4.93 g/m*3 4.1 C 0 km/h
1906 25-10-2010 21:25:02 3.9 C 4.93 g/m*3 3.9 C 0 km/h
1907 25-10-2010 21:37:02 3.7 C 4.92 g/m*3 3.7 C 0 km/h
1908 25-10-2010 21:49:01 3.6 C 4.95 g/m*3 3.6 C 0 km/h
1909 25-10-2010 22:01:01 3.4 C 4.95 g/m*3 3.4 C 0 km/h
1910 25-10-2010 22:13:01 3.1 C 4.79 g/m*3 3.1 C 0 km/h
1911 25-10-2010 22:25:01 3 C 4.76 g/m*3 3 C 0 km/h
1912 25-10-2010 22:37:02 2.9 C 4.84 g/m*3 2.9 C 0 km/h
1913 25-10-2010 22:49:02 2.6 C 4.8 g/m*3 2.6 C 0 km/h
1914 25-10-2010 23:01:02 2.4 C 4.8 g/m*3 2.4 C 0 km/h
1915 25-10-2010 23:13:02 2.4 C 4.8 g/m*3 2.4 C 0 km/h
1916 25-10-2010 23:25:02 2.2 C 4.73 g/m*3 2.2 C 0 km/h
1917 25-10-2010 23:37:02 2.2 C 4.79 g/m*3 2.2 C 0 km/h
1918 25-10-2010 23:49:01 2.2 C 4.84 g/m*3 2.2 C 0 km/h
1919 26-10-2010 00:01:02 2.2 C 4.84 g/m*3 2.2 C 0 km/h
1920 26-10-2010 00:13:02 2 C 4.78 g/m*3 2 C 0 km/h
1921 26-10-2010 00:25:01 1.8 C 4.77 g/m*3 1.8 C 0 km/h
1922 26-10-2010 00:37:01 1.7 C 4.74 g/m*3 1.7 C 0 km/h
1923 26-10-2010 00:49:02 1.7 C 4.79 g/m*3 1.7 C 0 km/h
1924 26-10-2010 01:01:01 1.6 C 4.76 g/m*3 1.6 C 0 km/h
1925 26-10-2010 01:13:01 1.6 C 4.81 g/m*3 1.6 C 0 km/h
Sensor: Nr:Datum:Temp:Abs-Feuchte:Windchill:Wind:
Aussen-T/F 1926 26-10-2010 01:25:02 1.6 C 4.81 g/m*3 1.6 C 0 km/h
1927 26-10-2010 01:37:02 1.4 C 4.75 g/m*3 1.4 C 0 km/h
1928 26-10-2010 01:49:01 1.2 C 4.68 g/m*3 1.2 C 0 km/h
1929 26-10-2010 02:01:02 1 C 4.62 g/m*3 1 C 0 km/h
1930 26-10-2010 02:13:02 0.8 C 4.61 g/m*3 0.8 C 0 km/h
1931 26-10-2010 02:25:01 0.7 C 4.63 g/m*3 0.7 C 0 km/h
1932 26-10-2010 02:37:01 0.8 C 4.66 g/m*3 0.8 C 0 km/h
1933 26-10-2010 02:50:03 0.8 C 4.71 g/m*3 0.8 C 0 km/h
1934 26-10-2010 03:02:03 0.7 C 4.63 g/m*3 0.7 C 0 km/h
1935 26-10-2010 03:14:04 0.4 C 4.53 g/m*3 0.4 C 0 km/h
1936 26-10-2010 03:26:04 0.3 C 4.5 g/m*3 0.3 C 0 km/h
1937 26-10-2010 03:38:02 0.1 C 4.44 g/m*3 0.1 C 0 km/h
1938 26-10-2010 03:50:02 0 C 4.41 g/m*3 0 C 0 km/h
1939 26-10-2010 04:02:02 0.1 C 4.49 g/m*3 0.1 C 0 km/h
1940 26-10-2010 04:14:02 0.1 C 4.49 g/m*3 0.1 C 0 km/h
1941 26-10-2010 04:26:02 0.2 C 4.52 g/m*3 0.2 C 0 km/h
1942 26-10-2010 04:38:02 0.1 C 4.54 g/m*3 0.1 C 0 km/h
1943 26-10-2010 04:50:02 0.1 C 4.54 g/m*3 0.1 C 0 km/h
1944 26-10-2010 05:02:02 0.1 C 4.54 g/m*3 0.1 C 0 km/h
1945 26-10-2010 05:14:02 0 C 4.51 g/m*3 0 C 0 km/h
1946 26-10-2010 05:26:02 0.1 C 4.59 g/m*3 0.1 C 0 km/h
1947 26-10-2010 05:38:02 0.1 C 4.59 g/m*3 0.1 C 0 km/h
1948 26-10-2010 05:50:01 0.1 C 4.59 g/m*3 0.1 C 0 km/h
1949 26-10-2010 06:02:01 0.2 C 4.62 g/m*3 0.2 C 0 km/h
1950 26-10-2010 06:14:01 0.2 C 4.62 g/m*3 0.2 C 0 km/h
Sensor: Nr:Datum:Temp:Abs-Feuchte:Windchill:Wind:
Aussen-T/F 1951 26-10-2010 06:26:01 0.2 C 4.62 g/m*3 0.2 C 0 km/h
1952 26-10-2010 06:38:01 0.2 C 4.62 g/m*3 0.2 C 0 km/h
1953 26-10-2010 06:50:01 -0.1 C 4.52 g/m*3 -0.1 C 0 km/h
1954 26-10-2010 07:02:01 -0.1 C 4.52 g/m*3 -0.1 C 0 km/h
1955 26-10-2010 07:14:01 -0.2 C 4.49 g/m*3 -0.2 C 0 km/h
1956 26-10-2010 07:26:02 -0.3 C 4.46 g/m*3 -0.3 C 0 km/h
1957 26-10-2010 07:38:01 -0.5 C 4.4 g/m*3 -0.5 C 0 km/h
1958 26-10-2010 07:50:02 -0.5 C 4.4 g/m*3 -0.5 C 0 km/h
1959 26-10-2010 08:02:02 -0.5 C 4.4 g/m*3 -0.5 C 0 km/h
1960 26-10-2010 08:14:02 -0.5 C 4.4 g/m*3 -0.5 C 0 km/h
1961 26-10-2010 08:26:03 -0.4 C 4.43 g/m*3 -0.4 C 0 km/h
1962 26-10-2010 08:38:02 -0.4 C 4.43 g/m*3 -0.4 C 0 km/h
1963 26-10-2010 08:50:02 -0.3 C 4.46 g/m*3 -0.3 C 0 km/h
1964 26-10-2010 09:02:02 -0.1 C 4.52 g/m*3 -0.1 C 0 km/h
1965 26-10-2010 09:14:02 -0.3 C 4.46 g/m*3 -0.3 C 0 km/h
1966 26-10-2010 09:26:02 -0.5 C 4.4 g/m*3 -0.5 C 0 km/h
1967 26-10-2010 09:38:02 -0.5 C 4.4 g/m*3 -0.5 C 0 km/h
1968 26-10-2010 09:50:02 -0.4 C 4.43 g/m*3 -0.4 C 0 km/h
1969 26-10-2010 10:02:01 -0.3 C 4.46 g/m*3 -0.3 C 0 km/h
1970 26-10-2010 10:14:01 -0.1 C 4.52 g/m*3 -0.1 C 0 km/h
1971 26-10-2010 10:26:02 0.1 C 4.59 g/m*3 0.1 C 0 km/h
1972 26-10-2010 10:38:01 0.3 C 4.65 g/m*3 0.3 C 0 km/h
1973 26-10-2010 10:50:03 0.5 C 4.66 g/m*3 0.5 C 0 km/h
1974 26-10-2010 11:02:02 0.8 C 4.76 g/m*3 0.8 C 0 km/h
1975 26-10-2010 11:14:02 0.8 C 4.71 g/m*3 0.8 C 0 km/h
Sensor: Nr:Datum:Temp:Abs-Feuchte:Windchill:Wind:
Aussen-T/F 1976 26-10-2010 11:26:02 1.1 C 4.76 g/m*3 1.1 C 0 km/h
1977 26-10-2010 11:38:03 1.5 C 4.89 g/m*3 1.5 C 0 km/h
1978 26-10-2010 11:50:02 1.9 C 4.97 g/m*3 1.9 C 0 km/h
1979 26-10-2010 12:02:01 2.1 C 4.92 g/m*3 2.1 C 0 km/h
1980 26-10-2010 12:14:01 2.9 C 5.2 g/m*3 2.9 C 0 km/h
1981 26-10-2010 12:26:02 3.4 C 5.31 g/m*3 3.4 C 0 km/h
1982 26-10-2010 12:38:02 3.4 C 5.19 g/m*3 3.4 C 0 km/h
1983 26-10-2010 12:50:02 4 C 5.34 g/m*3 4 C 0 km/h
1984 26-10-2010 13:02:02 4.3 C 5.38 g/m*3 4.3 C 0 km/h
1985 26-10-2010 13:14:02 4.7 C 5.53 g/m*3 4.7 C 0 km/h
1986 26-10-2010 13:26:02 5.5 C 5.69 g/m*3 5.5 C 0 km/h
1987 26-10-2010 13:38:02 6.2 C 5.74 g/m*3 6.2 C 0 km/h
1988 26-10-2010 13:50:02 7 C 5.66 g/m*3 7 C 0 km/h
1989 26-10-2010 14:02:03 7.8 C 5.71 g/m*3 7.8 C 0 km/h
1990 26-10-2010 14:14:03 8.4 C 5.51 g/m*3 8.4 C 0 km/h
1991 26-10-2010 14:26:02 9.1 C 5.5 g/m*3 9.1 C 0 km/h
1992 26-10-2010 14:38:02 9.5 C 5.46 g/m*3 9.5 C 0 km/h
1993 26-10-2010 14:50:01 9.6 C 5.31 g/m*3 9.6 C 0 km/h
1994 26-10-2010 15:02:01 9.5 C 5.19 g/m*3 9.5 C 0 km/h
1995 26-10-2010 15:14:01 9.4 C 5.25 g/m*3 9.4 C 0 km/h
1996 26-10-2010 15:26:01 9.6 C 5.4 g/m*3 9.6 C 0 km/h
1997 26-10-2010 15:38:01 10 C 5.26 g/m*3 10 C 0 km/h
1998 26-10-2010 15:50:02 10.1 C 5.3 g/m*3 10.1 C 0 km/h
1999 26-10-2010 16:02:02 9.9 C 5.32 g/m*3 9.9 C 0 km/h
2000 26-10-2010 16:14:02 9.6 C 5.31 g/m*3 9.6 C 0 km/h
Sensor: Nr:Datum:Temp:Abs-Feuchte:Windchill:Wind:
Aussen-T/F 2001 26-10-2010 16:26:03 9.3 C 5.39 g/m*3 9.3 C 0 km/h
2002 26-10-2010 16:38:02 8.9 C 5.43 g/m*3 8.9 C 0 km/h
2003 26-10-2010 16:50:02 8.5 C 5.55 g/m*3 8.5 C 0 km/h
2004 26-10-2010 17:02:02 8.4 C 5.68 g/m*3 8.4 C 0 km/h
2005 26-10-2010 17:14:02 8.2 C 5.61 g/m*3 8.2 C 0 km/h
2006 26-10-2010 17:26:02 8 C 5.62 g/m*3 8 C 0 km/h
2007 26-10-2010 17:38:02 7.9 C 5.75 g/m*3 7.9 C 0 km/h
2008 26-10-2010 17:50:02 7.7 C 5.76 g/m*3 7.7 C 0 km/h
2009 26-10-2010 18:02:01 7.4 C 5.65 g/m*3 7.4 C 0 km/h
2010 26-10-2010 18:14:01 7.2 C 5.65 g/m*3 7.2 C 0 km/h
2011 26-10-2010 18:26:02 7.1 C 5.62 g/m*3 7.1 C 0 km/h
2012 26-10-2010 18:38:02 6.9 C 5.62 g/m*3 6.9 C 0 km/h
2013 26-10-2010 18:50:02 6.8 C 5.66 g/m*3 6.8 C 0 km/h
2014 26-10-2010 19:02:03 6.8 C 5.66 g/m*3 6.8 C 0 km/h
2015 26-10-2010 19:14:03 6.6 C 5.66 g/m*3 6.6 C 0 km/h
2016 26-10-2010 19:26:02 6.6 C 5.74 g/m*3 6.6 C 0 km/h
2017 26-10-2010 19:38:02 6.5 C 5.7 g/m*3 6.5 C 0 km/h
2018 26-10-2010 19:50:01 6.4 C 5.66 g/m*3 6.4 C 0 km/h
2019 26-10-2010 20:02:02 6.4 C 5.66 g/m*3 6.4 C 0 km/h
2020 26-10-2010 20:14:02 6.4 C 5.66 g/m*3 6.4 C 0 km/h
2021 26-10-2010 20:26:01 6.4 C 5.66 g/m*3 6.4 C 0 km/h
2022 26-10-2010 20:38:02 6.3 C 5.63 g/m*3 6.3 C 0 km/h
2023 26-10-2010 20:50:02 6.2 C 5.66 g/m*3 6.2 C 0 km/h
2024 26-10-2010 21:02:02 6.1 C 5.63 g/m*3 6.1 C 0 km/h
2025 26-10-2010 21:14:02 6.1 C 5.63 g/m*3 6.1 C 0 km/h
Sensor: Nr:Datum:Temp:Abs-Feuchte:Windchill:Wind:
Aussen-T/F 2026 26-10-2010 21:26:01 6.2 C 5.52 g/m*3 6.2 C 0 km/h
2027 26-10-2010 21:38:02 6 C 5.52 g/m*3 6 C 0 km/h
2028 26-10-2010 21:50:01 5.9 C 5.62 g/m*3 5.9 C 0 km/h
2029 26-10-2010 22:02:02 5.7 C 5.62 g/m*3 5.7 C 0 km/h
2030 26-10-2010 22:14:02 5.7 C 5.69 g/m*3 5.7 C 0 km/h
2031 26-10-2010 22:26:02 5.7 C 5.69 g/m*3 5.7 C 0 km/h
2032 26-10-2010 22:39:02 5.7 C 5.76 g/m*3 5.7 C 0 km/h
2033 26-10-2010 22:51:02 5.7 C 5.76 g/m*3 5.7 C 0 km/h
2034 26-10-2010 23:03:02 5.7 C 5.76 g/m*3 5.7 C 0 km/h
2035 26-10-2010 23:15:02 5.7 C 5.76 g/m*3 5.7 C 0 km/h
2036 26-10-2010 23:27:02 5.7 C 5.76 g/m*3 5.7 C 0 km/h
2037 26-10-2010 23:39:02 5.5 C 5.69 g/m*3 5.5 C 0 km/h
2038 26-10-2010 23:51:02 5.4 C 5.65 g/m*3 5.4 C 0 km/h
2039 27-10-2010 00:03:02 5.4 C 5.72 g/m*3 5.4 C 0 km/h
2040 27-10-2010 00:15:02 5.4 C 5.72 g/m*3 5.4 C 0 km/h
2041 27-10-2010 00:27:02 5.2 C 5.58 g/m*3 5.2 C 0 km/h
2042 27-10-2010 00:39:02 5 C 5.5 g/m*3 5 C 0 km/h
2043 27-10-2010 00:51:02 4.8 C 5.5 g/m*3 4.8 C 0 km/h
2044 27-10-2010 01:03:02 5.1 C 5.34 g/m*3 5.1 C 0 km/h
2045 27-10-2010 01:15:03 5.2 C 5.23 g/m*3 5.2 C 0 km/h
2046 27-10-2010 01:27:03 5.3 C 5.2 g/m*3 5.3 C 0 km/h
2047 27-10-2010 01:39:03 5.5 C 5.06 g/m*3 5.5 C 0 km/h
2048 27-10-2010 01:51:03 5.7 C 4.84 g/m*3 5.7 C 0 km/h
2049 27-10-2010 02:03:03 5.7 C 4.91 g/m*3 5.7 C 0 km/h
2050 27-10-2010 02:15:03 5.5 C 5.06 g/m*3 5.5 C 0 km/h
Sensor: Nr:Datum:Temp:Abs-Feuchte:Windchill:Wind:
Aussen-T/F 2051 27-10-2010 02:27:03 5.6 C 5.16 g/m*3 5.6 C 0 km/h
2052 27-10-2010 02:39:03 5.5 C 5.2 g/m*3 5.5 C 0 km/h
2053 27-10-2010 02:51:03 5.4 C 5.23 g/m*3 5.4 C 0 km/h
2054 27-10-2010 03:03:03 5.6 C 5.23 g/m*3 5.6 C 0 km/h
2055 27-10-2010 03:15:03 5.6 C 5.3 g/m*3 5.6 C 0 km/h
2056 27-10-2010 03:27:03 5.4 C 5.23 g/m*3 5.4 C 0 km/h
2057 27-10-2010 03:39:03 5.4 C 5.3 g/m*3 5.4 C 0 km/h
2058 27-10-2010 03:51:03 5.4 C 5.23 g/m*3 5.4 C 0 km/h
2059 27-10-2010 04:03:03 5.4 C 5.23 g/m*3 5.4 C 0 km/h
2060 27-10-2010 04:15:03 5.4 C 5.23 g/m*3 5.4 C 0 km/h
2061 27-10-2010 04:27:03 5.4 C 5.3 g/m*3 5.4 C 0 km/h
2062 27-10-2010 04:39:03 5.4 C 5.23 g/m*3 5.4 C 0 km/h
2063 27-10-2010 04:51:03 5.5 C 5.2 g/m*3 5.5 C 0 km/h
2064 27-10-2010 05:03:03 5.6 C 5.16 g/m*3 5.6 C 0 km/h
2065 27-10-2010 05:15:03 5.7 C 5.12 g/m*3 5.7 C 0 km/h
2066 27-10-2010 05:27:03 5.7 C 5.19 g/m*3 5.7 C 0 km/h
2067 27-10-2010 05:39:03 5.6 C 5.16 g/m*3 5.6 C 0 km/h
2068 27-10-2010 05:51:04 5.6 C 5.16 g/m*3 5.6 C 0 km/h
2069 27-10-2010 06:03:04 5.6 C 5.16 g/m*3 5.6 C 0 km/h
2070 27-10-2010 06:15:04 5.7 C 5.19 g/m*3 5.7 C 0 km/h
2071 27-10-2010 06:27:04 5.7 C 5.27 g/m*3 5.7 C 0 km/h
2072 27-10-2010 06:39:04 5.7 C 5.27 g/m*3 5.7 C 0 km/h
2073 27-10-2010 06:51:04 5.7 C 5.19 g/m*3 5.7 C 0 km/h
2074 27-10-2010 07:03:04 5.7 C 5.19 g/m*3 5.7 C 0 km/h
2075 27-10-2010 07:15:04 5.7 C 5.19 g/m*3 5.7 C 0 km/h
Sensor: Nr:Datum:Temp:Abs-Feuchte:Windchill:Wind:
Aussen-T/F 2076 27-10-2010 07:27:04 5.7 C 5.19 g/m*3 5.7 C 0 km/h
2077 27-10-2010 07:39:03 5.8 C 5.16 g/m*3 5.8 C 0 km/h
2078 27-10-2010 07:51:02 5.9 C 5.05 g/m*3 5.9 C 0 km/h
2079 27-10-2010 08:03:01 5.9 C 4.98 g/m*3 5.9 C 0 km/h
2080 27-10-2010 08:15:02 5.9 C 5.05 g/m*3 5.9 C 0 km/h
2081 27-10-2010 08:27:02 5.7 C 5.05 g/m*3 5.7 C 0 km/h
2082 27-10-2010 08:39:02 5.5 C 5.13 g/m*3 5.5 C 0 km/h
2083 27-10-2010 08:51:02 5.4 C 5.23 g/m*3 5.4 C 0 km/h
2084 27-10-2010 09:03:03 5.5 C 5.48 g/m*3 5.5 C 0 km/h
2085 27-10-2010 09:15:02 5.6 C 5.51 g/m*3 5.6 C 0 km/h
2086 27-10-2010 09:27:02 5.8 C 5.66 g/m*3 5.8 C 0 km/h
2087 27-10-2010 09:39:02 6 C 5.73 g/m*3 6 C 0 km/h
2088 27-10-2010 09:51:01 6.3 C 5.85 g/m*3 6.3 C 0 km/h
2089 27-10-2010 10:03:02 6.5 C 5.85 g/m*3 6.5 C 0 km/h
2090 27-10-2010 10:15:01 6.8 C 5.89 g/m*3 6.8 C 0 km/h
2091 27-10-2010 10:27:01 7 C 5.89 g/m*3 7 C 0 km/h
2092 27-10-2010 10:39:01 7.3 C 5.77 g/m*3 7.3 C 0 km/h
2093 27-10-2010 10:51:01 7.4 C 5.57 g/m*3 7.4 C 0 km/h
2094 27-10-2010 11:03:01 7.6 C 5.56 g/m*3 7.6 C 0 km/h
2095 27-10-2010 11:15:02 7.8 C 5.55 g/m*3 7.8 C 0 km/h
2096 27-10-2010 11:27:02 8.2 C 5.53 g/m*3 8.2 C 0 km/h
2097 27-10-2010 11:39:01 8.6 C 5.41 g/m*3 8.6 C 0 km/h
2098 27-10-2010 11:51:02 8.9 C 5.17 g/m*3 8.9 C 0 km/h
2099 27-10-2010 12:03:01 9.1 C 4.7 g/m*3 9.1 C 0 km/h
2100 27-10-2010 12:15:02 9.4 C 4.43 g/m*3 9.4 C 0 km/h
Sensor: Nr:Datum:Temp:Abs-Feuchte:Windchill:Wind:
Aussen-T/F 2101 27-10-2010 12:27:02 9.5 C 4.37 g/m*3 9.5 C 0 km/h
2102 27-10-2010 12:39:01 9.8 C 4.36 g/m*3 9.8 C 0 km/h
2103 27-10-2010 12:51:02 10.3 C 4.41 g/m*3 10.3 C 0 km/h
2104 27-10-2010 13:03:02 10.7 C 4.22 g/m*3 10.7 C 0 km/h
2105 27-10-2010 13:15:02 10.8 C 3.95 g/m*3 10.8 C 0 km/h
2106 27-10-2010 13:27:02 11.1 C 3.73 g/m*3 11.1 C 0 km/h
2107 27-10-2010 13:39:02 11 C 3.6 g/m*3 11 C 0 km/h
2108 27-10-2010 13:51:02 11 C 3.7 g/m*3 11 C 0 km/h
2109 27-10-2010 14:03:02 11 C 3.7 g/m*3 11 C 0 km/h
2110 27-10-2010 14:15:01 11 C 3.8 g/m*3 11 C 0 km/h
2111 27-10-2010 14:27:01 11 C 3.5 g/m*3 11 C 0 km/h
2112 27-10-2010 14:39:02 11.1 C 3.63 g/m*3 11.1 C 0 km/h
2113 27-10-2010 14:51:02 11.2 C 3.55 g/m*3 11.2 C 0 km/h
2114 27-10-2010 15:03:02 11.3 C 3.57 g/m*3 11.3 C 0 km/h
2115 27-10-2010 15:15:02 11.5 C 3.51 g/m*3 11.5 C 0 km/h
2116 27-10-2010 15:27:02 11.7 C 3.66 g/m*3 11.7 C 0 km/h
2117 27-10-2010 15:39:02 11.6 C 3.64 g/m*3 11.6 C 0 km/h
2118 27-10-2010 15:51:02 11.7 C 3.35 g/m*3 11.7 C 0 km/h
2119 27-10-2010 16:03:02 11.8 C 3.58 g/m*3 11.8 C 0 km/h
2120 27-10-2010 16:15:03 11.9 C 3.39 g/m*3 11.9 C 0 km/h
2121 27-10-2010 16:27:03 12.1 C 3.43 g/m*3 12.1 C 0 km/h
2122 27-10-2010 16:39:02 12.1 C 3.32 g/m*3 12.1 C 0 km/h
2123 27-10-2010 16:51:02 12 C 3.41 g/m*3 12 C 0 km/h
2124 27-10-2010 17:03:02 11.9 C 3.6 g/m*3 11.9 C 0 km/h
2125 27-10-2010 17:15:02 11.8 C 3.68 g/m*3 11.8 C 0 km/h
Sensor: Nr:Datum:Temp:Abs-Feuchte:Windchill:Wind:
Aussen-T/F 2126 27-10-2010 17:27:02 11.6 C 3.33 g/m*3 11.6 C 0 km/h
2127 27-10-2010 17:39:02 11.5 C 3.51 g/m*3 11.5 C 0 km/h
2128 27-10-2010 17:51:02 11.2 C 3.65 g/m*3 11.2 C 0 km/h
2129 27-10-2010 18:03:02 10.9 C 4.08 g/m*3 10.9 C 0 km/h
2130 27-10-2010 18:15:02 10.6 C 4.2 g/m*3 10.6 C 0 km/h
2131 27-10-2010 18:27:03 10.4 C 4.14 g/m*3 10.4 C 0 km/h
2132 27-10-2010 18:39:01 10.1 C 4.63 g/m*3 10.1 C 0 km/h
2133 27-10-2010 18:51:02 10.2 C 4.28 g/m*3 10.2 C 0 km/h
2134 27-10-2010 19:03:01 10.2 C 4.38 g/m*3 10.2 C 0 km/h
2135 27-10-2010 19:15:02 10.1 C 4.54 g/m*3 10.1 C 0 km/h
2136 27-10-2010 19:27:02 10 C 4.32 g/m*3 10 C 0 km/h
2137 27-10-2010 19:39:02 10 C 4.42 g/m*3 10 C 0 km/h
2138 27-10-2010 19:51:02 9.9 C 4.39 g/m*3 9.9 C 0 km/h
2139 27-10-2010 20:03:02 9.8 C 4.55 g/m*3 9.8 C 0 km/h
2140 27-10-2010 20:15:02 9.7 C 4.33 g/m*3 9.7 C 0 km/h
2141 27-10-2010 20:27:02 9.9 C 4.48 g/m*3 9.9 C 0 km/h
2142 27-10-2010 20:39:02 9.8 C 4.36 g/m*3 9.8 C 0 km/h
2143 27-10-2010 20:51:01 9.8 C 4.36 g/m*3 9.8 C 0 km/h
2144 27-10-2010 21:03:02 9.7 C 4.61 g/m*3 9.7 C 0 km/h
2145 27-10-2010 21:15:01 9.6 C 4.76 g/m*3 9.6 C 0 km/h
2146 27-10-2010 21:27:01 9.6 C 4.49 g/m*3 9.6 C 0 km/h
2147 27-10-2010 21:39:02 9.5 C 4.82 g/m*3 9.5 C 0 km/h
2148 27-10-2010 21:51:02 9.4 C 4.88 g/m*3 9.4 C 0 km/h
2149 27-10-2010 22:03:02 9.3 C 4.94 g/m*3 9.3 C 0 km/h
2150 27-10-2010 22:15:01 9.2 C 4.91 g/m*3 9.2 C 0 km/h
Sensor: Nr:Datum:Temp:Abs-Feuchte:Windchill:Wind:
Aussen-T/F 2151 27-10-2010 22:27:01 9.1 C 4.97 g/m*3 9.1 C 0 km/h
2152 27-10-2010 22:39:02 9.2 C 4.91 g/m*3 9.2 C 0 km/h
2153 27-10-2010 22:51:01 9.2 C 4.73 g/m*3 9.2 C 0 km/h
2154 27-10-2010 23:03:02 9.2 C 4.55 g/m*3 9.2 C 0 km/h
2155 27-10-2010 23:15:02 9.1 C 4.88 g/m*3 9.1 C 0 km/h
2156 27-10-2010 23:27:02 9 C 4.85 g/m*3 9 C 0 km/h
2157 27-10-2010 23:39:02 8.9 C 4.99 g/m*3 8.9 C 0 km/h
2158 27-10-2010 23:51:02 8.9 C 4.99 g/m*3 8.9 C 0 km/h
2159 28-10-2010 00:03:02 8.8 C 4.79 g/m*3 8.8 C 0 km/h
2160 28-10-2010 00:15:02 8.7 C 4.84 g/m*3 8.7 C 0 km/h
2161 28-10-2010 00:27:02 8.7 C 4.93 g/m*3 8.7 C 0 km/h
2162 28-10-2010 00:39:02 8.6 C 4.9 g/m*3 8.6 C 0 km/h
2163 28-10-2010 00:51:01 8.5 C 4.87 g/m*3 8.5 C 0 km/h
2164 28-10-2010 01:03:02 8.5 C 4.87 g/m*3 8.5 C 0 km/h
2165 28-10-2010 01:15:02 8.5 C 4.87 g/m*3 8.5 C 0 km/h
2166 28-10-2010 01:27:02 8.5 C 4.87 g/m*3 8.5 C 0 km/h
2167 28-10-2010 01:39:01 8.4 C 4.92 g/m*3 8.4 C 0 km/h
2168 28-10-2010 01:51:02 8.4 C 5.01 g/m*3 8.4 C 0 km/h
2169 28-10-2010 02:03:01 8.3 C 4.97 g/m*3 8.3 C 0 km/h
2170 28-10-2010 02:15:02 8.1 C 4.99 g/m*3 8.1 C 0 km/h
2171 28-10-2010 02:27:02 8 C 5.04 g/m*3 8 C 0 km/h
2172 28-10-2010 02:39:02 8 C 5.13 g/m*3 8 C 0 km/h
2173 28-10-2010 02:52:04 7.9 C 5.09 g/m*3 7.9 C 0 km/h
2174 28-10-2010 03:04:05 7.8 C 4.98 g/m*3 7.8 C 0 km/h
2175 28-10-2010 03:16:04 7.5 C 4.8 g/m*3 7.5 C 0 km/h
Sensor: Nr:Datum:Temp:Abs-Feuchte:Windchill:Wind:
Aussen-T/F 2176 28-10-2010 03:28:04 7.5 C 4.72 g/m*3 7.5 C 0 km/h
2177 28-10-2010 03:40:02 7.6 C 4.91 g/m*3 7.6 C 0 km/h
2178 28-10-2010 03:52:02 7.7 C 4.87 g/m*3 7.7 C 0 km/h
2179 28-10-2010 04:04:02 7.7 C 4.95 g/m*3 7.7 C 0 km/h
2180 28-10-2010 04:16:02 7.7 C 5.03 g/m*3 7.7 C 0 km/h
2181 28-10-2010 04:28:03 7.6 C 5.08 g/m*3 7.6 C 0 km/h
2182 28-10-2010 04:40:01 7.6 C 5.16 g/m*3 7.6 C 0 km/h
2183 28-10-2010 04:52:02 7.7 C 5.11 g/m*3 7.7 C 0 km/h
2184 28-10-2010 05:04:01 7.6 C 5.08 g/m*3 7.6 C 0 km/h
2185 28-10-2010 05:16:01 7.6 C 5.24 g/m*3 7.6 C 0 km/h
2186 28-10-2010 05:28:01 7.4 C 5.01 g/m*3 7.4 C 0 km/h
2187 28-10-2010 05:40:02 7.4 C 5.01 g/m*3 7.4 C 0 km/h
2188 28-10-2010 05:52:02 7.6 C 4.91 g/m*3 7.6 C 0 km/h
2189 28-10-2010 06:04:02 7.9 C 4.85 g/m*3 7.9 C 0 km/h
2190 28-10-2010 06:16:02 8.1 C 4.33 g/m*3 8.1 C 0 km/h
2191 28-10-2010 06:28:02 7.9 C 4.35 g/m*3 7.9 C 0 km/h
2192 28-10-2010 06:40:02 7.8 C 4.33 g/m*3 7.8 C 0 km/h
2193 28-10-2010 06:52:01 8.2 C 4.19 g/m*3 8.2 C 0 km/h
2194 28-10-2010 07:04:02 8.4 C 4.24 g/m*3 8.4 C 0 km/h
2195 28-10-2010 07:16:01 8.5 C 4.27 g/m*3 8.5 C 0 km/h
2196 28-10-2010 07:28:01 8.6 C 4.38 g/m*3 8.6 C 0 km/h
2197 28-10-2010 07:40:01 8.4 C 4.33 g/m*3 8.4 C 0 km/h
2198 28-10-2010 07:52:01 8.5 C 4.35 g/m*3 8.5 C 0 km/h
2199 28-10-2010 08:04:02 8.7 C 4.5 g/m*3 8.7 C 0 km/h
2200 28-10-2010 08:16:01 8.7 C 4.58 g/m*3 8.7 C 0 km/h
Sensor: Nr:Datum:Temp:Abs-Feuchte:Windchill:Wind:
Aussen-T/F 2201 28-10-2010 08:28:01 8.6 C 4.73 g/m*3 8.6 C 0 km/h
2202 28-10-2010 08:40:01 8.7 C 4.76 g/m*3 8.7 C 0 km/h
2203 28-10-2010 08:52:02 8.8 C 4.79 g/m*3 8.8 C 0 km/h
2204 28-10-2010 09:04:01 9 C 4.58 g/m*3 9 C 0 km/h
2205 28-10-2010 09:16:02 9.2 C 4.46 g/m*3 9.2 C 0 km/h
2206 28-10-2010 09:28:02 8.9 C 4.99 g/m*3 8.9 C 0 km/h
2207 28-10-2010 09:40:01 8.6 C 5.24 g/m*3 8.6 C 0 km/h
2208 28-10-2010 09:52:02 8.6 C 5.24 g/m*3 8.6 C 0 km/h
2209 28-10-2010 10:04:02 8.1 C 5.66 g/m*3 8.1 C 0 km/h
2210 28-10-2010 10:16:02 7.7 C 6 g/m*3 7.7 C 0 km/h
2211 28-10-2010 10:28:02 7.7 C 6.32 g/m*3 7.7 C 0 km/h
2212 28-10-2010 10:40:02 7.9 C 6.32 g/m*3 7.9 C 0 km/h
2213 28-10-2010 10:52:02 8.1 C 6.16 g/m*3 8.1 C 0 km/h
2214 28-10-2010 11:04:02 8.6 C 6.02 g/m*3 8.6 C 0 km/h
2215 28-10-2010 11:16:01 9.3 C 6.11 g/m*3 9.3 C 0 km/h
2216 28-10-2010 11:28:01 10 C 6.11 g/m*3 10 C 0 km/h
2217 28-10-2010 11:40:02 10.2 C 5.8 g/m*3 10.2 C 0 km/h
2218 28-10-2010 11:52:02 10.4 C 5.78 g/m*3 10.4 C 0 km/h
2219 28-10-2010 12:04:02 10.4 C 5.59 g/m*3 10.4 C 0 km/h
2220 28-10-2010 12:16:02 10.8 C 5.83 g/m*3 10.8 C 0 km/h
2221 28-10-2010 12:28:02 10.7 C 5.8 g/m*3 10.7 C 0 km/h
2222 28-10-2010 12:40:02 10.7 C 5.89 g/m*3 10.7 C 0 km/h
2223 28-10-2010 12:52:02 11 C 5.81 g/m*3 11 C 0 km/h
2224 28-10-2010 13:04:03 11.2 C 5.68 g/m*3 11.2 C 0 km/h
2225 28-10-2010 13:16:02 10.9 C 5.67 g/m*3 10.9 C 0 km/h
Sensor: Nr:Datum:Temp:Abs-Feuchte:Windchill:Wind:
Aussen-T/F 2226 28-10-2010 13:28:02 11.2 C 5.68 g/m*3 11.2 C 0 km/h
2227 28-10-2010 13:40:02 11.6 C 5.72 g/m*3 11.6 C 0 km/h
2228 28-10-2010 13:52:01 11.8 C 5.68 g/m*3 11.8 C 0 km/h
2229 28-10-2010 14:04:02 11.9 C 5.72 g/m*3 11.9 C 0 km/h
2230 28-10-2010 14:16:01 12 C 5.65 g/m*3 12 C 0 km/h
2231 28-10-2010 14:28:01 12.4 C 5.68 g/m*3 12.4 C 0 km/h
2232 28-10-2010 14:40:01 12.4 C 5.57 g/m*3 12.4 C 0 km/h
2233 28-10-2010 14:52:01 12.8 C 5.71 g/m*3 12.8 C 0 km/h
2234 28-10-2010 15:04:02 13.1 C 5.59 g/m*3 13.1 C 0 km/h
2235 28-10-2010 15:16:01 12.6 C 5.53 g/m*3 12.6 C 0 km/h
2236 28-10-2010 15:28:01 12.7 C 5.68 g/m*3 12.7 C 0 km/h
2237 28-10-2010 15:40:01 12.6 C 5.75 g/m*3 12.6 C 0 km/h
2238 28-10-2010 15:52:01 12.6 C 5.75 g/m*3 12.6 C 0 km/h
2239 28-10-2010 16:04:02 11.9 C 5.93 g/m*3 11.9 C 0 km/h
2240 28-10-2010 16:16:02 11.6 C 6.03 g/m*3 11.6 C 0 km/h
2241 28-10-2010 16:28:02 11.5 C 6.2 g/m*3 11.5 C 0 km/h
2242 28-10-2010 16:40:01 11.5 C 6.2 g/m*3 11.5 C 0 km/h
2243 28-10-2010 16:52:01 11.6 C 6.24 g/m*3 11.6 C 0 km/h
2244 28-10-2010 17:04:01 11.6 C 6.24 g/m*3 11.6 C 0 km/h
2245 28-10-2010 17:16:02 11.5 C 6.2 g/m*3 11.5 C 0 km/h
2246 28-10-2010 17:28:02 11.1 C 6.04 g/m*3 11.1 C 0 km/h
2247 28-10-2010 17:40:01 10.7 C 6.09 g/m*3 10.7 C 0 km/h
2248 28-10-2010 17:52:03 10.5 C 6.11 g/m*3 10.5 C 0 km/h
2249 28-10-2010 18:04:02 10.2 C 6.09 g/m*3 10.2 C 0 km/h
2250 28-10-2010 18:16:02 10 C 6.11 g/m*3 10 C 0 km/h
Sensor: Nr:Datum:Temp:Abs-Feuchte:Windchill:Wind:
Aussen-T/F 2251 28-10-2010 18:28:02 10 C 6.11 g/m*3 10 C 0 km/h
2252 28-10-2010 18:40:02 9.7 C 6.18 g/m*3 9.7 C 0 km/h
2253 28-10-2010 18:52:02 9.4 C 6.15 g/m*3 9.4 C 0 km/h
2254 28-10-2010 19:04:02 9.2 C 6.25 g/m*3 9.2 C 0 km/h
2255 28-10-2010 19:16:02 9.2 C 6.25 g/m*3 9.2 C 0 km/h
2256 28-10-2010 19:28:02 9.2 C 6.25 g/m*3 9.2 C 0 km/h
2257 28-10-2010 19:40:02 9.2 C 6.25 g/m*3 9.2 C 0 km/h
2258 28-10-2010 19:52:02 9.1 C 6.12 g/m*3 9.1 C 0 km/h
2259 28-10-2010 20:04:01 9.2 C 6.25 g/m*3 9.2 C 0 km/h
2260 28-10-2010 20:16:02 9.2 C 6.25 g/m*3 9.2 C 0 km/h
2261 28-10-2010 20:28:02 9 C 6.17 g/m*3 9 C 0 km/h
2262 28-10-2010 20:40:02 8.9 C 6.31 g/m*3 8.9 C 0 km/h
2263 28-10-2010 20:52:02 8.7 C 6.23 g/m*3 8.7 C 0 km/h
2264 28-10-2010 21:04:03 8.6 C 6.27 g/m*3 8.6 C 0 km/h
2265 28-10-2010 21:16:02 8.6 C 6.36 g/m*3 8.6 C 0 km/h
2266 28-10-2010 21:28:02 8.5 C 6.32 g/m*3 8.5 C 0 km/h
2267 28-10-2010 21:40:02 8.1 C 6.16 g/m*3 8.1 C 0 km/h
2268 28-10-2010 21:52:01 8.1 C 6.41 g/m*3 8.1 C 0 km/h
2269 28-10-2010 22:04:02 7.7 C 6.32 g/m*3 7.7 C 0 km/h
2270 28-10-2010 22:16:01 7.6 C 6.36 g/m*3 7.6 C 0 km/h
2271 28-10-2010 22:28:01 7.9 C 6.57 g/m*3 7.9 C 0 km/h
2272 28-10-2010 22:40:02 7.4 C 6.28 g/m*3 7.4 C 0 km/h
2273 28-10-2010 22:52:01 7.2 C 6.28 g/m*3 7.2 C 0 km/h
2274 28-10-2010 23:04:02 7 C 6.28 g/m*3 7 C 0 km/h
2275 28-10-2010 23:16:01 6.9 C 6.31 g/m*3 6.9 C 0 km/h
Sensor: Nr:Datum:Temp:Abs-Feuchte:Windchill:Wind:
Aussen-T/F 2276 28-10-2010 23:28:01 6.8 C 6.35 g/m*3 6.8 C 0 km/h
2277 28-10-2010 23:40:02 6.7 C 6.38 g/m*3 6.7 C 0 km/h
2278 28-10-2010 23:52:01 6.5 C 6.3 g/m*3 6.5 C 0 km/h
2279 29-10-2010 00:04:02 6.3 C 6.22 g/m*3 6.3 C 0 km/h
2280 29-10-2010 00:16:02 6.2 C 6.18 g/m*3 6.2 C 0 km/h
2281 29-10-2010 00:28:02 6.2 C 6.25 g/m*3 6.2 C 0 km/h
2282 29-10-2010 00:40:02 6.3 C 6.29 g/m*3 6.3 C 0 km/h
2283 29-10-2010 00:52:02 6.3 C 6.37 g/m*3 6.3 C 0 km/h
2284 29-10-2010 01:04:02 6.4 C 6.41 g/m*3 6.4 C 0 km/h
2285 29-10-2010 01:16:02 6.3 C 6.37 g/m*3 6.3 C 0 km/h
2286 29-10-2010 01:28:03 6.2 C 6.4 g/m*3 6.2 C 0 km/h
2287 29-10-2010 01:40:02 6.3 C 6.44 g/m*3 6.3 C 0 km/h
2288 29-10-2010 01:52:02 6.2 C 6.4 g/m*3 6.2 C 0 km/h
2289 29-10-2010 02:04:01 6.1 C 6.36 g/m*3 6.1 C 0 km/h
2290 29-10-2010 02:16:02 6.2 C 6.47 g/m*3 6.2 C 0 km/h
2291 29-10-2010 02:28:02 6.4 C 6.56 g/m*3 6.4 C 0 km/h
2292 29-10-2010 02:40:01 6.8 C 6.73 g/m*3 6.8 C 0 km/h
2293 29-10-2010 02:52:02 6.8 C 6.73 g/m*3 6.8 C 0 km/h
2294 29-10-2010 03:04:02 6.9 C 6.7 g/m*3 6.9 C 0 km/h
2295 29-10-2010 03:16:01 7.2 C 6.75 g/m*3 7.2 C 0 km/h
2296 29-10-2010 03:28:01 7.6 C 7.01 g/m*3 7.6 C 0 km/h

Legende:
   Min
   Max


Maximal/Minimal-Werte vom 10.10.2010 - 30.10.2010

Sensor Min Max Avg
Temp
(Aussen-T/F)
-1.1 °C
23-10-2010  06:47:05
21.4 °C
10-10-2010  16:22:02
7.66 °C
Abs-Feuchte
(Aussen-T/F)
3.32 g/m*3
27-10-2010  16:39:02
8.32 g/m*3
15-10-2010  09:39:01
5.61 g/m*3
Windchill
(Aussen-T/F)
-1.1 C
23-10-2010  06:47:05
21.4 C
10-10-2010  16:22:02
7.46 C

Die Daten stammen von einer Davis Vantage Pro 2 Wetter-Station und werden unter Linux mit der Software wview2wettercgi und aufbereitet. Alle Angaben erfolgen ohne Gewähr für ihre Vollständigkeit oder Richtigkeit.
Kontakt: Rainer Krienke krienke@uni-koblenz.de . Meine Webseiten an der Uni Koblenz oder privat.
Version: $Revision: 0.78 $